<?xml version="1.0" encoding="UTF-8" standalone="no" ?>
<gpx xmlns="http://www.topografix.com/GPX/1/1" xmlns:xsi="http://www.w3.org/2001/XMLSchema-instance" xsi:schemaLocation="http://www.topografix.com/GPX/1/1 http://www.topografix.com/GPX/1/1/gpx.xsd" version="1.1" creator="VisuGPX - https://www.visugpx.com">
  <metadata>
    <name>Lac Bravura</name>
    <desc><![CDATA[Parcours de course à pied autour du la du Barrage de Bravura sur piste en terre avec quelques liaisons goudron, à faire en une ou plusieurs étapes. Pas d'eau sur le parcours]]></desc>
  </metadata>
  <trk>
    <name><![CDATA[Lac Bravura]]></name>
    <trkseg>
      <trkpt lat="37.15731" lon="-8.72158">
        <ele>22.24755859375</ele>
        <time>2018-10-14T08:23:02Z</time>
      </trkpt>
      <trkpt lat="37.15758" lon="-8.72128">
        <ele>24.170288085938</ele>
        <time>2018-10-14T08:23:10Z</time>
      </trkpt>
      <trkpt lat="37.15791" lon="-8.72051">
        <ele>27.054321289062</ele>
        <time>2018-10-14T08:23:25Z</time>
      </trkpt>
      <trkpt lat="37.15798" lon="-8.72035">
        <ele>27.534912109375</ele>
        <time>2018-10-14T08:23:28Z</time>
      </trkpt>
      <trkpt lat="37.15861" lon="-8.71962">
        <ele>27.534912109375</ele>
        <time>2018-10-14T08:23:44Z</time>
      </trkpt>
      <trkpt lat="37.15868" lon="-8.71949">
        <ele>27.534912109375</ele>
        <time>2018-10-14T08:23:46Z</time>
      </trkpt>
      <trkpt lat="37.15879" lon="-8.71914">
        <ele>26.092895507812</ele>
        <time>2018-10-14T08:23:51Z</time>
      </trkpt>
      <trkpt lat="37.15903" lon="-8.71835">
        <ele>25.131713867188</ele>
        <time>2018-10-14T08:24:01Z</time>
      </trkpt>
      <trkpt lat="37.15916" lon="-8.71726">
        <ele>20.8056640625</ele>
        <time>2018-10-14T08:24:13Z</time>
      </trkpt>
      <trkpt lat="37.15931" lon="-8.71675">
        <ele>20.324951171875</ele>
        <time>2018-10-14T08:24:19Z</time>
      </trkpt>
      <trkpt lat="37.1593" lon="-8.71644">
        <ele>19.844360351562</ele>
        <time>2018-10-14T08:24:23Z</time>
      </trkpt>
      <trkpt lat="37.15939" lon="-8.71617">
        <ele>20.324951171875</ele>
        <time>2018-10-14T08:24:27Z</time>
      </trkpt>
      <trkpt lat="37.15981" lon="-8.71504">
        <ele>19.844360351562</ele>
        <time>2018-10-14T08:24:45Z</time>
      </trkpt>
      <trkpt lat="37.15995" lon="-8.71454">
        <ele>19.844360351562</ele>
        <time>2018-10-14T08:24:53Z</time>
      </trkpt>
      <trkpt lat="37.16017" lon="-8.71428">
        <ele>20.324951171875</ele>
        <time>2018-10-14T08:24:59Z</time>
      </trkpt>
      <trkpt lat="37.16034" lon="-8.71415">
        <ele>20.8056640625</ele>
        <time>2018-10-14T08:25:03Z</time>
      </trkpt>
      <trkpt lat="37.16051" lon="-8.71404">
        <ele>20.8056640625</ele>
        <time>2018-10-14T08:25:07Z</time>
      </trkpt>
      <trkpt lat="37.16074" lon="-8.71397">
        <ele>20.8056640625</ele>
        <time>2018-10-14T08:25:12Z</time>
      </trkpt>
      <trkpt lat="37.16091" lon="-8.71398">
        <ele>20.8056640625</ele>
        <time>2018-10-14T08:25:16Z</time>
      </trkpt>
      <trkpt lat="37.16105" lon="-8.71404">
        <ele>21.766967773438</ele>
        <time>2018-10-14T08:25:19Z</time>
      </trkpt>
      <trkpt lat="37.16138" lon="-8.71409">
        <ele>21.766967773438</ele>
        <time>2018-10-14T08:25:26Z</time>
      </trkpt>
      <trkpt lat="37.16204" lon="-8.7143">
        <ele>21.766967773438</ele>
        <time>2018-10-14T08:25:40Z</time>
      </trkpt>
      <trkpt lat="37.16278" lon="-8.71415">
        <ele>21.766967773438</ele>
        <time>2018-10-14T08:25:55Z</time>
      </trkpt>
      <trkpt lat="37.16365" lon="-8.71389">
        <ele>22.728271484375</ele>
        <time>2018-10-14T08:26:13Z</time>
      </trkpt>
      <trkpt lat="37.16419" lon="-8.71372">
        <ele>23.208984375</ele>
        <time>2018-10-14T08:26:24Z</time>
      </trkpt>
      <trkpt lat="37.16518" lon="-8.7135">
        <ele>23.689575195312</ele>
        <time>2018-10-14T08:26:44Z</time>
      </trkpt>
      <trkpt lat="37.16612" lon="-8.71349">
        <ele>24.170288085938</ele>
        <time>2018-10-14T08:27:03Z</time>
      </trkpt>
      <trkpt lat="37.16628" lon="-8.71349">
        <ele>24.651000976562</ele>
        <time>2018-10-14T08:27:06Z</time>
      </trkpt>
      <trkpt lat="37.16704" lon="-8.71381">
        <ele>25.131713867188</ele>
        <time>2018-10-14T08:27:22Z</time>
      </trkpt>
      <trkpt lat="37.16756" lon="-8.71407">
        <ele>25.131713867188</ele>
        <time>2018-10-14T08:27:33Z</time>
      </trkpt>
      <trkpt lat="37.16834" lon="-8.71463">
        <ele>26.573608398438</ele>
        <time>2018-10-14T08:27:51Z</time>
      </trkpt>
      <trkpt lat="37.16888" lon="-8.71508">
        <ele>27.054321289062</ele>
        <time>2018-10-14T08:28:04Z</time>
      </trkpt>
      <trkpt lat="37.16903" lon="-8.71518">
        <ele>26.573608398438</ele>
        <time>2018-10-14T08:28:07Z</time>
      </trkpt>
      <trkpt lat="37.16914" lon="-8.71536">
        <ele>26.573608398438</ele>
        <time>2018-10-14T08:28:10Z</time>
      </trkpt>
      <trkpt lat="37.16975" lon="-8.71617">
        <ele>26.573608398438</ele>
        <time>2018-10-14T08:28:26Z</time>
      </trkpt>
      <trkpt lat="37.16993" lon="-8.71633">
        <ele>27.054321289062</ele>
        <time>2018-10-14T08:28:30Z</time>
      </trkpt>
      <trkpt lat="37.17015" lon="-8.71652">
        <ele>26.573608398438</ele>
        <time>2018-10-14T08:28:35Z</time>
      </trkpt>
      <trkpt lat="37.17026" lon="-8.71692">
        <ele>28.496215820312</ele>
        <time>2018-10-14T08:28:44Z</time>
      </trkpt>
      <trkpt lat="37.17029" lon="-8.71724">
        <ele>28.976928710938</ele>
        <time>2018-10-14T08:28:51Z</time>
      </trkpt>
      <trkpt lat="37.17042" lon="-8.71747">
        <ele>29.938110351562</ele>
        <time>2018-10-14T08:28:56Z</time>
      </trkpt>
      <trkpt lat="37.17047" lon="-8.71755">
        <ele>30.418823242188</ele>
        <time>2018-10-14T08:28:58Z</time>
      </trkpt>
      <trkpt lat="37.17057" lon="-8.71789">
        <ele>30.418823242188</ele>
        <time>2018-10-14T08:29:05Z</time>
      </trkpt>
      <trkpt lat="37.17077" lon="-8.71827">
        <ele>30.899536132812</ele>
        <time>2018-10-14T08:29:14Z</time>
      </trkpt>
      <trkpt lat="37.17116" lon="-8.71853">
        <ele>31.380126953125</ele>
        <time>2018-10-14T08:29:24Z</time>
      </trkpt>
      <trkpt lat="37.17161" lon="-8.71887">
        <ele>31.860717773438</ele>
        <time>2018-10-14T08:29:36Z</time>
      </trkpt>
      <trkpt lat="37.17172" lon="-8.71896">
        <ele>31.860717773438</ele>
        <time>2018-10-14T08:29:39Z</time>
      </trkpt>
      <trkpt lat="37.17218" lon="-8.71931">
        <ele>32.822265625</ele>
        <time>2018-10-14T08:29:51Z</time>
      </trkpt>
      <trkpt lat="37.17281" lon="-8.71984">
        <ele>34.26416015625</ele>
        <time>2018-10-14T08:30:08Z</time>
      </trkpt>
      <trkpt lat="37.17333" lon="-8.72056">
        <ele>32.822265625</ele>
        <time>2018-10-14T08:30:25Z</time>
      </trkpt>
      <trkpt lat="37.17389" lon="-8.72098">
        <ele>33.302856445312</ele>
        <time>2018-10-14T08:30:39Z</time>
      </trkpt>
      <trkpt lat="37.17408" lon="-8.72114">
        <ele>33.302856445312</ele>
        <time>2018-10-14T08:30:44Z</time>
      </trkpt>
      <trkpt lat="37.17468" lon="-8.72187">
        <ele>34.26416015625</ele>
        <time>2018-10-14T08:31:02Z</time>
      </trkpt>
      <trkpt lat="37.17473" lon="-8.72196">
        <ele>34.744873046875</ele>
        <time>2018-10-14T08:31:04Z</time>
      </trkpt>
      <trkpt lat="37.17478" lon="-8.72206">
        <ele>34.26416015625</ele>
        <time>2018-10-14T08:31:06Z</time>
      </trkpt>
      <trkpt lat="37.17488" lon="-8.72232">
        <ele>33.783447265625</ele>
        <time>2018-10-14T08:31:11Z</time>
      </trkpt>
      <trkpt lat="37.17503" lon="-8.72294">
        <ele>33.302856445312</ele>
        <time>2018-10-14T08:31:22Z</time>
      </trkpt>
      <trkpt lat="37.17505" lon="-8.72305">
        <ele>32.822265625</ele>
        <time>2018-10-14T08:31:24Z</time>
      </trkpt>
      <trkpt lat="37.17517" lon="-8.7233">
        <ele>33.302856445312</ele>
        <time>2018-10-14T08:31:29Z</time>
      </trkpt>
      <trkpt lat="37.17547" lon="-8.72354">
        <ele>34.26416015625</ele>
        <time>2018-10-14T08:31:37Z</time>
      </trkpt>
      <trkpt lat="37.17574" lon="-8.72373">
        <ele>35.225463867188</ele>
        <time>2018-10-14T08:31:44Z</time>
      </trkpt>
      <trkpt lat="37.1761" lon="-8.72392">
        <ele>35.225463867188</ele>
        <time>2018-10-14T08:31:53Z</time>
      </trkpt>
      <trkpt lat="37.17623" lon="-8.72407">
        <ele>35.225463867188</ele>
        <time>2018-10-14T08:31:57Z</time>
      </trkpt>
      <trkpt lat="37.17661" lon="-8.72446">
        <ele>36.186767578125</ele>
        <time>2018-10-14T08:32:08Z</time>
      </trkpt>
      <trkpt lat="37.17681" lon="-8.72462">
        <ele>36.186767578125</ele>
        <time>2018-10-14T08:32:13Z</time>
      </trkpt>
      <trkpt lat="37.17703" lon="-8.72469">
        <ele>35.225463867188</ele>
        <time>2018-10-14T08:32:18Z</time>
      </trkpt>
      <trkpt lat="37.17729" lon="-8.72473">
        <ele>36.186767578125</ele>
        <time>2018-10-14T08:32:24Z</time>
      </trkpt>
      <trkpt lat="37.17739" lon="-8.72472">
        <ele>34.26416015625</ele>
        <time>2018-10-14T08:32:26Z</time>
      </trkpt>
      <trkpt lat="37.17769" lon="-8.72478">
        <ele>35.225463867188</ele>
        <time>2018-10-14T08:32:33Z</time>
      </trkpt>
      <trkpt lat="37.17777" lon="-8.7249">
        <ele>35.225463867188</ele>
        <time>2018-10-14T08:32:36Z</time>
      </trkpt>
      <trkpt lat="37.17834" lon="-8.72559">
        <ele>37.148071289062</ele>
        <time>2018-10-14T08:32:55Z</time>
      </trkpt>
      <trkpt lat="37.17894" lon="-8.72616">
        <ele>37.628662109375</ele>
        <time>2018-10-14T08:33:13Z</time>
      </trkpt>
      <trkpt lat="37.17978" lon="-8.72645">
        <ele>39.070678710938</ele>
        <time>2018-10-14T08:33:34Z</time>
      </trkpt>
      <trkpt lat="37.17982" lon="-8.72648">
        <ele>39.070678710938</ele>
        <time>2018-10-14T08:33:35Z</time>
      </trkpt>
      <trkpt lat="37.18039" lon="-8.72695">
        <ele>38.590087890625</ele>
        <time>2018-10-14T08:33:50Z</time>
      </trkpt>
      <trkpt lat="37.18047" lon="-8.72702">
        <ele>39.070678710938</ele>
        <time>2018-10-14T08:33:52Z</time>
      </trkpt>
      <trkpt lat="37.18076" lon="-8.72716">
        <ele>39.070678710938</ele>
        <time>2018-10-14T08:33:59Z</time>
      </trkpt>
      <trkpt lat="37.18161" lon="-8.7274">
        <ele>39.55126953125</ele>
        <time>2018-10-14T08:34:19Z</time>
      </trkpt>
      <trkpt lat="37.18208" lon="-8.72771">
        <ele>41.954711914062</ele>
        <time>2018-10-14T08:34:34Z</time>
      </trkpt>
      <trkpt lat="37.1826" lon="-8.72833">
        <ele>43.396606445312</ele>
        <time>2018-10-14T08:34:52Z</time>
      </trkpt>
      <trkpt lat="37.18309" lon="-8.72851">
        <ele>43.396606445312</ele>
        <time>2018-10-14T08:35:04Z</time>
      </trkpt>
      <trkpt lat="37.18351" lon="-8.72839">
        <ele>43.396606445312</ele>
        <time>2018-10-14T08:35:14Z</time>
      </trkpt>
      <trkpt lat="37.18382" lon="-8.7283">
        <ele>43.396606445312</ele>
        <time>2018-10-14T08:35:21Z</time>
      </trkpt>
      <trkpt lat="37.18399" lon="-8.72825">
        <ele>42.916015625</ele>
        <time>2018-10-14T08:35:25Z</time>
      </trkpt>
      <trkpt lat="37.18415" lon="-8.72819">
        <ele>41.473999023438</ele>
        <time>2018-10-14T08:35:29Z</time>
      </trkpt>
      <trkpt lat="37.18431" lon="-8.7281">
        <ele>42.435424804688</ele>
        <time>2018-10-14T08:35:33Z</time>
      </trkpt>
      <trkpt lat="37.18457" lon="-8.72769">
        <ele>43.396606445312</ele>
        <time>2018-10-14T08:35:43Z</time>
      </trkpt>
      <trkpt lat="37.18467" lon="-8.7276">
        <ele>43.396606445312</ele>
        <time>2018-10-14T08:35:46Z</time>
      </trkpt>
      <trkpt lat="37.18544" lon="-8.7274">
        <ele>45.799926757812</ele>
        <time>2018-10-14T08:36:05Z</time>
      </trkpt>
      <trkpt lat="37.18582" lon="-8.72736">
        <ele>45.799926757812</ele>
        <time>2018-10-14T08:36:14Z</time>
      </trkpt>
      <trkpt lat="37.18651" lon="-8.72699">
        <ele>46.76123046875</ele>
        <time>2018-10-14T08:36:31Z</time>
      </trkpt>
      <trkpt lat="37.18713" lon="-8.72679">
        <ele>46.76123046875</ele>
        <time>2018-10-14T08:36:46Z</time>
      </trkpt>
      <trkpt lat="37.18774" lon="-8.72677">
        <ele>47.241821289062</ele>
        <time>2018-10-14T08:37:00Z</time>
      </trkpt>
      <trkpt lat="37.188" lon="-8.72685">
        <ele>47.722534179688</ele>
        <time>2018-10-14T08:37:06Z</time>
      </trkpt>
      <trkpt lat="37.18816" lon="-8.72693">
        <ele>47.722534179688</ele>
        <time>2018-10-14T08:37:10Z</time>
      </trkpt>
      <trkpt lat="37.1886" lon="-8.72718">
        <ele>49.16455078125</ele>
        <time>2018-10-14T08:37:21Z</time>
      </trkpt>
      <trkpt lat="37.18888" lon="-8.72706">
        <ele>50.1259765625</ele>
        <time>2018-10-14T08:37:29Z</time>
      </trkpt>
      <trkpt lat="37.18908" lon="-8.72658">
        <ele>50.1259765625</ele>
        <time>2018-10-14T08:37:38Z</time>
      </trkpt>
      <trkpt lat="37.18942" lon="-8.7263">
        <ele>50.606567382812</ele>
        <time>2018-10-14T08:37:48Z</time>
      </trkpt>
      <trkpt lat="37.18962" lon="-8.72632">
        <ele>51.087158203125</ele>
        <time>2018-10-14T08:37:53Z</time>
      </trkpt>
      <trkpt lat="37.18999" lon="-8.72649">
        <ele>52.048583984375</ele>
        <time>2018-10-14T08:38:02Z</time>
      </trkpt>
      <trkpt lat="37.19012" lon="-8.72655">
        <ele>52.048583984375</ele>
        <time>2018-10-14T08:38:05Z</time>
      </trkpt>
      <trkpt lat="37.19042" lon="-8.72677">
        <ele>53.009765625</ele>
        <time>2018-10-14T08:38:13Z</time>
      </trkpt>
      <trkpt lat="37.19085" lon="-8.72749">
        <ele>55.893798828125</ele>
        <time>2018-10-14T08:38:31Z</time>
      </trkpt>
      <trkpt lat="37.19097" lon="-8.72769">
        <ele>55.893798828125</ele>
        <time>2018-10-14T08:38:37Z</time>
      </trkpt>
      <trkpt lat="37.19116" lon="-8.72781">
        <ele>55.4130859375</ele>
        <time>2018-10-14T08:38:42Z</time>
      </trkpt>
      <trkpt lat="37.19161" lon="-8.728">
        <ele>56.37451171875</ele>
        <time>2018-10-14T08:38:54Z</time>
      </trkpt>
      <trkpt lat="37.19243" lon="-8.72808">
        <ele>56.855102539062</ele>
        <time>2018-10-14T08:39:12Z</time>
      </trkpt>
      <trkpt lat="37.1932" lon="-8.72835">
        <ele>58.297119140625</ele>
        <time>2018-10-14T08:39:31Z</time>
      </trkpt>
      <trkpt lat="37.19398" lon="-8.72842">
        <ele>57.816528320312</ele>
        <time>2018-10-14T08:39:48Z</time>
      </trkpt>
      <trkpt lat="37.19449" lon="-8.72833">
        <ele>57.816528320312</ele>
        <time>2018-10-14T08:39:59Z</time>
      </trkpt>
      <trkpt lat="37.195" lon="-8.72841">
        <ele>58.297119140625</ele>
        <time>2018-10-14T08:40:11Z</time>
      </trkpt>
      <trkpt lat="37.19519" lon="-8.72852">
        <ele>59.258422851562</ele>
        <time>2018-10-14T08:40:16Z</time>
      </trkpt>
      <trkpt lat="37.1955" lon="-8.72885">
        <ele>59.739135742188</ele>
        <time>2018-10-14T08:40:26Z</time>
      </trkpt>
      <trkpt lat="37.19593" lon="-8.72917">
        <ele>58.777709960938</ele>
        <time>2018-10-14T08:40:37Z</time>
      </trkpt>
      <trkpt lat="37.19616" lon="-8.72944">
        <ele>59.739135742188</ele>
        <time>2018-10-14T08:40:45Z</time>
      </trkpt>
      <trkpt lat="37.19653" lon="-8.72993">
        <ele>60.700317382812</ele>
        <time>2018-10-14T08:40:59Z</time>
      </trkpt>
      <trkpt lat="37.19699" lon="-8.73057">
        <ele>61.661743164062</ele>
        <time>2018-10-14T08:41:17Z</time>
      </trkpt>
      <trkpt lat="37.19766" lon="-8.73112">
        <ele>64.545654296875</ele>
        <time>2018-10-14T08:41:38Z</time>
      </trkpt>
      <trkpt lat="37.19775" lon="-8.73122">
        <ele>64.545654296875</ele>
        <time>2018-10-14T08:41:41Z</time>
      </trkpt>
      <trkpt lat="37.19806" lon="-8.73202">
        <ele>66.46826171875</ele>
        <time>2018-10-14T08:41:58Z</time>
      </trkpt>
      <trkpt lat="37.19845" lon="-8.73304">
        <ele>68.390869140625</ele>
        <time>2018-10-14T08:42:19Z</time>
      </trkpt>
      <trkpt lat="37.19856" lon="-8.73325">
        <ele>67.910278320312</ele>
        <time>2018-10-14T08:42:23Z</time>
      </trkpt>
      <trkpt lat="37.1987" lon="-8.73339">
        <ele>67.910278320312</ele>
        <time>2018-10-14T08:42:27Z</time>
      </trkpt>
      <trkpt lat="37.19888" lon="-8.73355">
        <ele>68.87158203125</ele>
        <time>2018-10-14T08:42:32Z</time>
      </trkpt>
      <trkpt lat="37.19957" lon="-8.73407">
        <ele>70.3134765625</ele>
        <time>2018-10-14T08:42:51Z</time>
      </trkpt>
      <trkpt lat="37.20016" lon="-8.73453">
        <ele>71.27490234375</ele>
        <time>2018-10-14T08:43:09Z</time>
      </trkpt>
      <trkpt lat="37.20051" lon="-8.73483">
        <ele>71.27490234375</ele>
        <time>2018-10-14T08:43:19Z</time>
      </trkpt>
      <trkpt lat="37.20116" lon="-8.73539">
        <ele>74.158813476562</ele>
        <time>2018-10-14T08:43:37Z</time>
      </trkpt>
      <trkpt lat="37.20178" lon="-8.73592">
        <ele>75.120239257812</ele>
        <time>2018-10-14T08:43:54Z</time>
      </trkpt>
      <trkpt lat="37.20222" lon="-8.73625">
        <ele>75.120239257812</ele>
        <time>2018-10-14T08:44:05Z</time>
      </trkpt>
      <trkpt lat="37.20257" lon="-8.73696">
        <ele>75.120239257812</ele>
        <time>2018-10-14T08:44:20Z</time>
      </trkpt>
      <trkpt lat="37.20333" lon="-8.73741">
        <ele>75.600830078125</ele>
        <time>2018-10-14T08:44:40Z</time>
      </trkpt>
      <trkpt lat="37.2036" lon="-8.73747">
        <ele>75.600830078125</ele>
        <time>2018-10-14T08:44:46Z</time>
      </trkpt>
      <trkpt lat="37.20373" lon="-8.73746">
        <ele>75.600830078125</ele>
        <time>2018-10-14T08:44:49Z</time>
      </trkpt>
      <trkpt lat="37.20411" lon="-8.73732">
        <ele>75.600830078125</ele>
        <time>2018-10-14T08:44:58Z</time>
      </trkpt>
      <trkpt lat="37.20428" lon="-8.73734">
        <ele>76.081420898438</ele>
        <time>2018-10-14T08:45:02Z</time>
      </trkpt>
      <trkpt lat="37.20446" lon="-8.73738">
        <ele>76.081420898438</ele>
        <time>2018-10-14T08:45:06Z</time>
      </trkpt>
      <trkpt lat="37.20456" lon="-8.73747">
        <ele>76.081420898438</ele>
        <time>2018-10-14T08:45:09Z</time>
      </trkpt>
      <trkpt lat="37.20472" lon="-8.73781">
        <ele>76.562133789062</ele>
        <time>2018-10-14T08:45:17Z</time>
      </trkpt>
      <trkpt lat="37.20479" lon="-8.73831">
        <ele>78.965454101562</ele>
        <time>2018-10-14T08:45:29Z</time>
      </trkpt>
      <trkpt lat="37.20487" lon="-8.73843">
        <ele>81.849365234375</ele>
        <time>2018-10-14T08:45:34Z</time>
      </trkpt>
      <trkpt lat="37.20497" lon="-8.73853">
        <ele>85.213989257812</ele>
        <time>2018-10-14T08:45:39Z</time>
      </trkpt>
      <trkpt lat="37.20505" lon="-8.7386">
        <ele>87.136596679688</ele>
        <time>2018-10-14T08:45:43Z</time>
      </trkpt>
      <trkpt lat="37.20526" lon="-8.73854">
        <ele>88.098022460938</ele>
        <time>2018-10-14T08:45:52Z</time>
      </trkpt>
      <trkpt lat="37.20537" lon="-8.7385">
        <ele>88.098022460938</ele>
        <time>2018-10-14T08:45:54Z</time>
      </trkpt>
      <trkpt lat="37.20579" lon="-8.73835">
        <ele>84.7333984375</ele>
        <time>2018-10-14T08:46:00Z</time>
      </trkpt>
      <trkpt lat="37.20642" lon="-8.73812">
        <ele>83.291381835938</ele>
        <time>2018-10-14T08:46:09Z</time>
      </trkpt>
      <trkpt lat="37.20711" lon="-8.7382">
        <ele>82.330078125</ele>
        <time>2018-10-14T08:46:23Z</time>
      </trkpt>
      <trkpt lat="37.20733" lon="-8.73822">
        <ele>82.810791015625</ele>
        <time>2018-10-14T08:46:28Z</time>
      </trkpt>
      <trkpt lat="37.20747" lon="-8.73838">
        <ele>82.810791015625</ele>
        <time>2018-10-14T08:46:32Z</time>
      </trkpt>
      <trkpt lat="37.208" lon="-8.73876">
        <ele>83.291381835938</ele>
        <time>2018-10-14T08:46:47Z</time>
      </trkpt>
      <trkpt lat="37.20854" lon="-8.73888">
        <ele>85.694580078125</ele>
        <time>2018-10-14T08:47:02Z</time>
      </trkpt>
      <trkpt lat="37.20942" lon="-8.73875">
        <ele>87.6171875</ele>
        <time>2018-10-14T08:47:26Z</time>
      </trkpt>
      <trkpt lat="37.21001" lon="-8.73849">
        <ele>88.098022460938</ele>
        <time>2018-10-14T08:47:41Z</time>
      </trkpt>
      <trkpt lat="37.21072" lon="-8.73802">
        <ele>89.539916992188</ele>
        <time>2018-10-14T08:48:00Z</time>
      </trkpt>
      <trkpt lat="37.21149" lon="-8.73792">
        <ele>90.98193359375</ele>
        <time>2018-10-14T08:48:19Z</time>
      </trkpt>
      <trkpt lat="37.21176" lon="-8.73786">
        <ele>92.423950195312</ele>
        <time>2018-10-14T08:48:26Z</time>
      </trkpt>
      <trkpt lat="37.21191" lon="-8.73788">
        <ele>91.943237304688</ele>
        <time>2018-10-14T08:48:30Z</time>
      </trkpt>
      <trkpt lat="37.21241" lon="-8.7383">
        <ele>93.385131835938</ele>
        <time>2018-10-14T08:48:46Z</time>
      </trkpt>
      <trkpt lat="37.21315" lon="-8.73878">
        <ele>95.307739257812</ele>
        <time>2018-10-14T08:49:07Z</time>
      </trkpt>
      <trkpt lat="37.21382" lon="-8.73904">
        <ele>96.749877929688</ele>
        <time>2018-10-14T08:49:24Z</time>
      </trkpt>
      <trkpt lat="37.21416" lon="-8.73919">
        <ele>97.23046875</ele>
        <time>2018-10-14T08:49:33Z</time>
      </trkpt>
      <trkpt lat="37.21428" lon="-8.73924">
        <ele>97.711181640625</ele>
        <time>2018-10-14T08:49:36Z</time>
      </trkpt>
      <trkpt lat="37.21503" lon="-8.73944">
        <ele>99.6337890625</ele>
        <time>2018-10-14T08:49:55Z</time>
      </trkpt>
      <trkpt lat="37.21556" lon="-8.73976">
        <ele>101.55639648438</ele>
        <time>2018-10-14T08:50:12Z</time>
      </trkpt>
      <trkpt lat="37.21629" lon="-8.74001">
        <ele>103.95971679688</ele>
        <time>2018-10-14T08:50:33Z</time>
      </trkpt>
      <trkpt lat="37.21688" lon="-8.74014">
        <ele>107.32434082031</ele>
        <time>2018-10-14T08:50:51Z</time>
      </trkpt>
      <trkpt lat="37.21714" lon="-8.74022">
        <ele>106.36303710938</ele>
        <time>2018-10-14T08:50:58Z</time>
      </trkpt>
      <trkpt lat="37.2177" lon="-8.74073">
        <ele>106.36303710938</ele>
        <time>2018-10-14T08:51:15Z</time>
      </trkpt>
      <trkpt lat="37.21817" lon="-8.74133">
        <ele>109.24694824219</ele>
        <time>2018-10-14T08:51:33Z</time>
      </trkpt>
      <trkpt lat="37.21878" lon="-8.74206">
        <ele>111.16955566406</ele>
        <time>2018-10-14T08:51:56Z</time>
      </trkpt>
      <trkpt lat="37.21921" lon="-8.74258">
        <ele>113.57299804688</ele>
        <time>2018-10-14T08:52:13Z</time>
      </trkpt>
      <trkpt lat="37.21955" lon="-8.74277">
        <ele>116.9375</ele>
        <time>2018-10-14T08:52:27Z</time>
      </trkpt>
      <trkpt lat="37.21958" lon="-8.74277">
        <ele>116.45678710938</ele>
        <time>2018-10-14T08:52:28Z</time>
      </trkpt>
      <trkpt lat="37.21986" lon="-8.74271">
        <ele>119.82141113281</ele>
        <time>2018-10-14T08:52:38Z</time>
      </trkpt>
      <trkpt lat="37.22028" lon="-8.74265">
        <ele>123.18615722656</ele>
        <time>2018-10-14T08:52:53Z</time>
      </trkpt>
      <trkpt lat="37.22082" lon="-8.74267">
        <ele>124.62805175781</ele>
        <time>2018-10-14T08:53:11Z</time>
      </trkpt>
      <trkpt lat="37.22104" lon="-8.74266">
        <ele>126.06994628906</ele>
        <time>2018-10-14T08:53:18Z</time>
      </trkpt>
      <trkpt lat="37.22147" lon="-8.74267">
        <ele>129.43469238281</ele>
        <time>2018-10-14T08:53:35Z</time>
      </trkpt>
      <trkpt lat="37.22182" lon="-8.74277">
        <ele>132.31860351562</ele>
        <time>2018-10-14T08:53:51Z</time>
      </trkpt>
      <trkpt lat="37.2222" lon="-8.74284">
        <ele>136.16394042969</ele>
        <time>2018-10-14T08:54:07Z</time>
      </trkpt>
      <trkpt lat="37.22253" lon="-8.7427">
        <ele>139.0478515625</ele>
        <time>2018-10-14T08:54:22Z</time>
      </trkpt>
      <trkpt lat="37.22294" lon="-8.74233">
        <ele>141.45104980469</ele>
        <time>2018-10-14T08:54:41Z</time>
      </trkpt>
      <trkpt lat="37.2233" lon="-8.74199">
        <ele>144.33520507812</ele>
        <time>2018-10-14T08:54:57Z</time>
      </trkpt>
      <trkpt lat="37.22376" lon="-8.74164">
        <ele>146.2578125</ele>
        <time>2018-10-14T08:55:16Z</time>
      </trkpt>
      <trkpt lat="37.22401" lon="-8.74154">
        <ele>149.62231445312</ele>
        <time>2018-10-14T08:55:26Z</time>
      </trkpt>
      <trkpt lat="37.22438" lon="-8.74161">
        <ele>150.10302734375</ele>
        <time>2018-10-14T08:55:40Z</time>
      </trkpt>
      <trkpt lat="37.2246" lon="-8.74169">
        <ele>146.2578125</ele>
        <time>2018-10-14T08:55:44Z</time>
      </trkpt>
      <trkpt lat="37.22477" lon="-8.7418">
        <ele>144.33520507812</ele>
        <time>2018-10-14T08:55:47Z</time>
      </trkpt>
      <trkpt lat="37.22494" lon="-8.74222">
        <ele>140.48986816406</ele>
        <time>2018-10-14T08:55:54Z</time>
      </trkpt>
      <trkpt lat="37.22473" lon="-8.74338">
        <ele>137.12524414062</ele>
        <time>2018-10-14T08:56:08Z</time>
      </trkpt>
      <trkpt lat="37.22469" lon="-8.74353">
        <ele>135.68310546875</ele>
        <time>2018-10-14T08:56:10Z</time>
      </trkpt>
      <trkpt lat="37.2248" lon="-8.74371">
        <ele>132.79931640625</ele>
        <time>2018-10-14T08:56:16Z</time>
      </trkpt>
      <trkpt lat="37.22491" lon="-8.74364">
        <ele>132.31860351562</ele>
        <time>2018-10-14T08:56:18Z</time>
      </trkpt>
      <trkpt lat="37.22505" lon="-8.74345">
        <ele>130.39599609375</ele>
        <time>2018-10-14T08:56:21Z</time>
      </trkpt>
      <trkpt lat="37.22527" lon="-8.74307">
        <ele>128.47338867188</ele>
        <time>2018-10-14T08:56:26Z</time>
      </trkpt>
      <trkpt lat="37.22538" lon="-8.7428">
        <ele>127.03137207031</ele>
        <time>2018-10-14T08:56:29Z</time>
      </trkpt>
      <trkpt lat="37.22553" lon="-8.74242">
        <ele>124.62805175781</ele>
        <time>2018-10-14T08:56:33Z</time>
      </trkpt>
      <trkpt lat="37.22582" lon="-8.74164">
        <ele>121.744140625</ele>
        <time>2018-10-14T08:56:41Z</time>
      </trkpt>
      <trkpt lat="37.22589" lon="-8.74138">
        <ele>120.30212402344</ele>
        <time>2018-10-14T08:56:44Z</time>
      </trkpt>
      <trkpt lat="37.22593" lon="-8.74115">
        <ele>118.86010742188</ele>
        <time>2018-10-14T08:56:47Z</time>
      </trkpt>
      <trkpt lat="37.22595" lon="-8.74102">
        <ele>117.89880371094</ele>
        <time>2018-10-14T08:56:49Z</time>
      </trkpt>
      <trkpt lat="37.22597" lon="-8.74075">
        <ele>116.9375</ele>
        <time>2018-10-14T08:56:53Z</time>
      </trkpt>
      <trkpt lat="37.2259" lon="-8.7404">
        <ele>115.01489257812</ele>
        <time>2018-10-14T08:56:58Z</time>
      </trkpt>
      <trkpt lat="37.22584" lon="-8.74003">
        <ele>113.57299804688</ele>
        <time>2018-10-14T08:57:03Z</time>
      </trkpt>
      <trkpt lat="37.22571" lon="-8.73982">
        <ele>113.57299804688</ele>
        <time>2018-10-14T08:57:07Z</time>
      </trkpt>
      <trkpt lat="37.22549" lon="-8.73948">
        <ele>114.5341796875</ele>
        <time>2018-10-14T08:57:16Z</time>
      </trkpt>
      <trkpt lat="37.22545" lon="-8.73919">
        <ele>113.09228515625</ele>
        <time>2018-10-14T08:57:21Z</time>
      </trkpt>
      <trkpt lat="37.22552" lon="-8.73836">
        <ele>111.65026855469</ele>
        <time>2018-10-14T08:57:34Z</time>
      </trkpt>
      <trkpt lat="37.2257" lon="-8.73787">
        <ele>113.57299804688</ele>
        <time>2018-10-14T08:57:44Z</time>
      </trkpt>
      <trkpt lat="37.22601" lon="-8.73704">
        <ele>112.13098144531</ele>
        <time>2018-10-14T08:58:00Z</time>
      </trkpt>
      <trkpt lat="37.22615" lon="-8.73687">
        <ele>110.68884277344</ele>
        <time>2018-10-14T08:58:04Z</time>
      </trkpt>
      <trkpt lat="37.22625" lon="-8.73676">
        <ele>109.72766113281</ele>
        <time>2018-10-14T08:58:06Z</time>
      </trkpt>
      <trkpt lat="37.22632" lon="-8.73663">
        <ele>109.24694824219</ele>
        <time>2018-10-14T08:58:08Z</time>
      </trkpt>
      <trkpt lat="37.22642" lon="-8.73607">
        <ele>107.80505371094</ele>
        <time>2018-10-14T08:58:15Z</time>
      </trkpt>
      <trkpt lat="37.22629" lon="-8.73528">
        <ele>105.88244628906</ele>
        <time>2018-10-14T08:58:25Z</time>
      </trkpt>
      <trkpt lat="37.22605" lon="-8.73435">
        <ele>105.40173339844</ele>
        <time>2018-10-14T08:58:39Z</time>
      </trkpt>
      <trkpt lat="37.22603" lon="-8.7343">
        <ele>104.92102050781</ele>
        <time>2018-10-14T08:58:40Z</time>
      </trkpt>
      <trkpt lat="37.226" lon="-8.73402">
        <ele>105.40173339844</ele>
        <time>2018-10-14T08:58:45Z</time>
      </trkpt>
      <trkpt lat="37.22616" lon="-8.73277">
        <ele>102.037109375</ele>
        <time>2018-10-14T08:59:04Z</time>
      </trkpt>
      <trkpt lat="37.22649" lon="-8.73183">
        <ele>101.55639648438</ele>
        <time>2018-10-14T08:59:20Z</time>
      </trkpt>
      <trkpt lat="37.22658" lon="-8.73117">
        <ele>100.59509277344</ele>
        <time>2018-10-14T08:59:35Z</time>
      </trkpt>
      <trkpt lat="37.22675" lon="-8.73036">
        <ele>99.6337890625</ele>
        <time>2018-10-14T08:59:50Z</time>
      </trkpt>
      <trkpt lat="37.2267" lon="-8.72953">
        <ele>101.07568359375</ele>
        <time>2018-10-14T09:00:09Z</time>
      </trkpt>
      <trkpt lat="37.22657" lon="-8.72881">
        <ele>100.11450195312</ele>
        <time>2018-10-14T09:00:24Z</time>
      </trkpt>
      <trkpt lat="37.22629" lon="-8.72777">
        <ele>98.19189453125</ele>
        <time>2018-10-14T09:00:42Z</time>
      </trkpt>
      <trkpt lat="37.22623" lon="-8.72694">
        <ele>95.788452148438</ele>
        <time>2018-10-14T09:00:54Z</time>
      </trkpt>
      <trkpt lat="37.22585" lon="-8.72598">
        <ele>94.346557617188</ele>
        <time>2018-10-14T09:01:10Z</time>
      </trkpt>
      <trkpt lat="37.22565" lon="-8.72578">
        <ele>93.385131835938</ele>
        <time>2018-10-14T09:01:15Z</time>
      </trkpt>
      <trkpt lat="37.22543" lon="-8.72568">
        <ele>93.865844726562</ele>
        <time>2018-10-14T09:01:26Z</time>
      </trkpt>
      <trkpt lat="37.22532" lon="-8.72512">
        <ele>96.269287109375</ele>
        <time>2018-10-14T09:01:36Z</time>
      </trkpt>
      <trkpt lat="37.2252" lon="-8.72454">
        <ele>99.153076171875</ele>
        <time>2018-10-14T09:01:50Z</time>
      </trkpt>
      <trkpt lat="37.22531" lon="-8.72391">
        <ele>102.037109375</ele>
        <time>2018-10-14T09:02:06Z</time>
      </trkpt>
      <trkpt lat="37.2255" lon="-8.72346">
        <ele>104.4404296875</ele>
        <time>2018-10-14T09:02:18Z</time>
      </trkpt>
      <trkpt lat="37.22564" lon="-8.72313">
        <ele>107.80505371094</ele>
        <time>2018-10-14T09:02:28Z</time>
      </trkpt>
      <trkpt lat="37.22565" lon="-8.7231">
        <ele>107.80505371094</ele>
        <time>2018-10-14T09:02:29Z</time>
      </trkpt>
      <trkpt lat="37.22578" lon="-8.72281">
        <ele>111.16955566406</ele>
        <time>2018-10-14T09:02:38Z</time>
      </trkpt>
      <trkpt lat="37.22579" lon="-8.72278">
        <ele>111.16955566406</ele>
        <time>2018-10-14T09:02:39Z</time>
      </trkpt>
      <trkpt lat="37.22583" lon="-8.72269">
        <ele>113.09228515625</ele>
        <time>2018-10-14T09:02:42Z</time>
      </trkpt>
      <trkpt lat="37.226" lon="-8.72228">
        <ele>116.45678710938</ele>
        <time>2018-10-14T09:02:56Z</time>
      </trkpt>
      <trkpt lat="37.22614" lon="-8.72196">
        <ele>119.3408203125</ele>
        <time>2018-10-14T09:03:08Z</time>
      </trkpt>
      <trkpt lat="37.22628" lon="-8.72163">
        <ele>123.18615722656</ele>
        <time>2018-10-14T09:03:20Z</time>
      </trkpt>
      <trkpt lat="37.22643" lon="-8.72127">
        <ele>126.06994628906</ele>
        <time>2018-10-14T09:03:33Z</time>
      </trkpt>
      <trkpt lat="37.22674" lon="-8.72054">
        <ele>127.51196289062</ele>
        <time>2018-10-14T09:03:53Z</time>
      </trkpt>
      <trkpt lat="37.22712" lon="-8.72003">
        <ele>127.03137207031</ele>
        <time>2018-10-14T09:04:09Z</time>
      </trkpt>
      <trkpt lat="37.22784" lon="-8.71987">
        <ele>123.18615722656</ele>
        <time>2018-10-14T09:04:24Z</time>
      </trkpt>
      <trkpt lat="37.22854" lon="-8.71983">
        <ele>120.30212402344</ele>
        <time>2018-10-14T09:04:36Z</time>
      </trkpt>
      <trkpt lat="37.22879" lon="-8.71982">
        <ele>118.86010742188</ele>
        <time>2018-10-14T09:04:40Z</time>
      </trkpt>
      <trkpt lat="37.22897" lon="-8.71984">
        <ele>117.89880371094</ele>
        <time>2018-10-14T09:04:43Z</time>
      </trkpt>
      <trkpt lat="37.22927" lon="-8.71996">
        <ele>115.49560546875</ele>
        <time>2018-10-14T09:04:48Z</time>
      </trkpt>
      <trkpt lat="37.22948" lon="-8.72008">
        <ele>114.05358886719</ele>
        <time>2018-10-14T09:04:51Z</time>
      </trkpt>
      <trkpt lat="37.22987" lon="-8.7202">
        <ele>110.20825195312</ele>
        <time>2018-10-14T09:04:56Z</time>
      </trkpt>
      <trkpt lat="37.23019" lon="-8.72028">
        <ele>109.72766113281</ele>
        <time>2018-10-14T09:05:00Z</time>
      </trkpt>
      <trkpt lat="37.23056" lon="-8.72042">
        <ele>109.24694824219</ele>
        <time>2018-10-14T09:05:05Z</time>
      </trkpt>
      <trkpt lat="37.23069" lon="-8.72047">
        <ele>108.28564453125</ele>
        <time>2018-10-14T09:05:07Z</time>
      </trkpt>
      <trkpt lat="37.23125" lon="-8.72082">
        <ele>104.92102050781</ele>
        <time>2018-10-14T09:05:16Z</time>
      </trkpt>
      <trkpt lat="37.23137" lon="-8.7209">
        <ele>103.95971679688</ele>
        <time>2018-10-14T09:05:18Z</time>
      </trkpt>
      <trkpt lat="37.23211" lon="-8.72141">
        <ele>102.037109375</ele>
        <time>2018-10-14T09:05:31Z</time>
      </trkpt>
      <trkpt lat="37.23246" lon="-8.72202">
        <ele>99.153076171875</ele>
        <time>2018-10-14T09:05:41Z</time>
      </trkpt>
      <trkpt lat="37.23286" lon="-8.72289">
        <ele>95.788452148438</ele>
        <time>2018-10-14T09:05:54Z</time>
      </trkpt>
      <trkpt lat="37.23355" lon="-8.72397">
        <ele>94.346557617188</ele>
        <time>2018-10-14T09:06:13Z</time>
      </trkpt>
      <trkpt lat="37.23413" lon="-8.72486">
        <ele>91.462524414062</ele>
        <time>2018-10-14T09:06:30Z</time>
      </trkpt>
      <trkpt lat="37.23444" lon="-8.72494">
        <ele>90.020629882812</ele>
        <time>2018-10-14T09:06:36Z</time>
      </trkpt>
      <trkpt lat="37.2349" lon="-8.72456">
        <ele>92.904541015625</ele>
        <time>2018-10-14T09:06:49Z</time>
      </trkpt>
      <trkpt lat="37.23488" lon="-8.72451">
        <ele>92.904541015625</ele>
        <time>2018-10-14T09:06:59Z</time>
      </trkpt>
      <trkpt lat="37.23479" lon="-8.72423">
        <ele>93.385131835938</ele>
        <time>2018-10-14T09:07:21Z</time>
      </trkpt>
      <trkpt lat="37.23448" lon="-8.72338">
        <ele>95.307739257812</ele>
        <time>2018-10-14T09:07:41Z</time>
      </trkpt>
      <trkpt lat="37.23422" lon="-8.72256">
        <ele>98.672485351562</ele>
        <time>2018-10-14T09:08:00Z</time>
      </trkpt>
      <trkpt lat="37.23433" lon="-8.72213">
        <ele>99.153076171875</ele>
        <time>2018-10-14T09:08:09Z</time>
      </trkpt>
      <trkpt lat="37.23445" lon="-8.72203">
        <ele>99.153076171875</ele>
        <time>2018-10-14T09:08:13Z</time>
      </trkpt>
      <trkpt lat="37.2346" lon="-8.72194">
        <ele>99.153076171875</ele>
        <time>2018-10-14T09:08:17Z</time>
      </trkpt>
      <trkpt lat="37.23534" lon="-8.72182">
        <ele>100.11450195312</ele>
        <time>2018-10-14T09:08:35Z</time>
      </trkpt>
      <trkpt lat="37.2362" lon="-8.7219">
        <ele>99.6337890625</ele>
        <time>2018-10-14T09:08:53Z</time>
      </trkpt>
      <trkpt lat="37.23666" lon="-8.72212">
        <ele>98.672485351562</ele>
        <time>2018-10-14T09:09:03Z</time>
      </trkpt>
      <trkpt lat="37.23685" lon="-8.72214">
        <ele>99.153076171875</ele>
        <time>2018-10-14T09:09:07Z</time>
      </trkpt>
      <trkpt lat="37.23759" lon="-8.72184">
        <ele>102.037109375</ele>
        <time>2018-10-14T09:09:24Z</time>
      </trkpt>
      <trkpt lat="37.23842" lon="-8.72148">
        <ele>104.92102050781</ele>
        <time>2018-10-14T09:09:43Z</time>
      </trkpt>
      <trkpt lat="37.2395" lon="-8.72083">
        <ele>101.07568359375</ele>
        <time>2018-10-14T09:10:05Z</time>
      </trkpt>
      <trkpt lat="37.24067" lon="-8.72011">
        <ele>98.19189453125</ele>
        <time>2018-10-14T09:10:27Z</time>
      </trkpt>
      <trkpt lat="37.24079" lon="-8.72004">
        <ele>96.749877929688</ele>
        <time>2018-10-14T09:10:30Z</time>
      </trkpt>
      <trkpt lat="37.24059" lon="-8.71988">
        <ele>92.904541015625</ele>
        <time>2018-10-14T09:10:38Z</time>
      </trkpt>
      <trkpt lat="37.24046" lon="-8.7199">
        <ele>91.943237304688</ele>
        <time>2018-10-14T09:10:40Z</time>
      </trkpt>
      <trkpt lat="37.2404" lon="-8.7199">
        <ele>91.462524414062</ele>
        <time>2018-10-14T09:10:41Z</time>
      </trkpt>
      <trkpt lat="37.24032" lon="-8.71992">
        <ele>90.020629882812</ele>
        <time>2018-10-14T09:10:44Z</time>
      </trkpt>
      <trkpt lat="37.23997" lon="-8.72008">
        <ele>90.501342773438</ele>
        <time>2018-10-14T09:10:56Z</time>
      </trkpt>
      <trkpt lat="37.23959" lon="-8.72034">
        <ele>90.98193359375</ele>
        <time>2018-10-14T09:11:05Z</time>
      </trkpt>
      <trkpt lat="37.2394" lon="-8.72041">
        <ele>89.539916992188</ele>
        <time>2018-10-14T09:11:09Z</time>
      </trkpt>
      <trkpt lat="37.2392" lon="-8.72041">
        <ele>89.539916992188</ele>
        <time>2018-10-14T09:11:14Z</time>
      </trkpt>
      <trkpt lat="37.23916" lon="-8.72033">
        <ele>89.059326171875</ele>
        <time>2018-10-14T09:11:16Z</time>
      </trkpt>
      <trkpt lat="37.23905" lon="-8.72033">
        <ele>86.17529296875</ele>
        <time>2018-10-14T09:11:19Z</time>
      </trkpt>
      <trkpt lat="37.239" lon="-8.72033">
        <ele>86.17529296875</ele>
        <time>2018-10-14T09:11:20Z</time>
      </trkpt>
      <trkpt lat="37.23871" lon="-8.72037">
        <ele>90.501342773438</ele>
        <time>2018-10-14T09:11:29Z</time>
      </trkpt>
      <trkpt lat="37.23867" lon="-8.72038">
        <ele>90.501342773438</ele>
        <time>2018-10-14T09:11:30Z</time>
      </trkpt>
      <trkpt lat="37.23794" lon="-8.72052">
        <ele>91.943237304688</ele>
        <time>2018-10-14T09:11:50Z</time>
      </trkpt>
      <trkpt lat="37.23708" lon="-8.72049">
        <ele>91.943237304688</ele>
        <time>2018-10-14T09:12:10Z</time>
      </trkpt>
      <trkpt lat="37.23659" lon="-8.72043">
        <ele>91.462524414062</ele>
        <time>2018-10-14T09:12:23Z</time>
      </trkpt>
      <trkpt lat="37.23611" lon="-8.72032">
        <ele>94.8271484375</ele>
        <time>2018-10-14T09:12:38Z</time>
      </trkpt>
      <trkpt lat="37.23546" lon="-8.72014">
        <ele>92.904541015625</ele>
        <time>2018-10-14T09:12:53Z</time>
      </trkpt>
      <trkpt lat="37.23541" lon="-8.72014">
        <ele>92.423950195312</ele>
        <time>2018-10-14T09:12:54Z</time>
      </trkpt>
      <trkpt lat="37.23489" lon="-8.72008">
        <ele>93.385131835938</ele>
        <time>2018-10-14T09:13:05Z</time>
      </trkpt>
      <trkpt lat="37.23455" lon="-8.71987">
        <ele>93.865844726562</ele>
        <time>2018-10-14T09:13:17Z</time>
      </trkpt>
      <trkpt lat="37.23406" lon="-8.71937">
        <ele>95.788452148438</ele>
        <time>2018-10-14T09:13:32Z</time>
      </trkpt>
      <trkpt lat="37.23379" lon="-8.71872">
        <ele>95.788452148438</ele>
        <time>2018-10-14T09:13:46Z</time>
      </trkpt>
      <trkpt lat="37.23356" lon="-8.71833">
        <ele>96.269287109375</ele>
        <time>2018-10-14T09:14:00Z</time>
      </trkpt>
      <trkpt lat="37.23321" lon="-8.71785">
        <ele>99.6337890625</ele>
        <time>2018-10-14T09:14:15Z</time>
      </trkpt>
      <trkpt lat="37.23319" lon="-8.71783">
        <ele>99.6337890625</ele>
        <time>2018-10-14T09:14:16Z</time>
      </trkpt>
      <trkpt lat="37.23283" lon="-8.71741">
        <ele>102.99829101562</ele>
        <time>2018-10-14T09:14:31Z</time>
      </trkpt>
      <trkpt lat="37.23271" lon="-8.71696">
        <ele>102.51770019531</ele>
        <time>2018-10-14T09:14:43Z</time>
      </trkpt>
      <trkpt lat="37.23265" lon="-8.71671">
        <ele>101.07568359375</ele>
        <time>2018-10-14T09:14:47Z</time>
      </trkpt>
      <trkpt lat="37.23256" lon="-8.71644">
        <ele>98.19189453125</ele>
        <time>2018-10-14T09:14:51Z</time>
      </trkpt>
      <trkpt lat="37.23254" lon="-8.71611">
        <ele>98.19189453125</ele>
        <time>2018-10-14T09:15:00Z</time>
      </trkpt>
      <trkpt lat="37.23259" lon="-8.71571">
        <ele>98.672485351562</ele>
        <time>2018-10-14T09:15:11Z</time>
      </trkpt>
      <trkpt lat="37.23263" lon="-8.71562">
        <ele>98.19189453125</ele>
        <time>2018-10-14T09:15:13Z</time>
      </trkpt>
      <trkpt lat="37.23271" lon="-8.71549">
        <ele>94.8271484375</ele>
        <time>2018-10-14T09:15:16Z</time>
      </trkpt>
      <trkpt lat="37.23293" lon="-8.71533">
        <ele>91.943237304688</ele>
        <time>2018-10-14T09:15:21Z</time>
      </trkpt>
      <trkpt lat="37.23314" lon="-8.71503">
        <ele>92.423950195312</ele>
        <time>2018-10-14T09:15:28Z</time>
      </trkpt>
      <trkpt lat="37.23321" lon="-8.71499">
        <ele>91.943237304688</ele>
        <time>2018-10-14T09:15:30Z</time>
      </trkpt>
      <trkpt lat="37.23353" lon="-8.71479">
        <ele>91.943237304688</ele>
        <time>2018-10-14T09:15:39Z</time>
      </trkpt>
      <trkpt lat="37.2338" lon="-8.71483">
        <ele>91.462524414062</ele>
        <time>2018-10-14T09:15:46Z</time>
      </trkpt>
      <trkpt lat="37.23417" lon="-8.71514">
        <ele>89.539916992188</ele>
        <time>2018-10-14T09:15:59Z</time>
      </trkpt>
      <trkpt lat="37.23446" lon="-8.71512">
        <ele>90.98193359375</ele>
        <time>2018-10-14T09:16:08Z</time>
      </trkpt>
      <trkpt lat="37.23442" lon="-8.71492">
        <ele>91.943237304688</ele>
        <time>2018-10-14T09:16:14Z</time>
      </trkpt>
      <trkpt lat="37.23425" lon="-8.71481">
        <ele>91.462524414062</ele>
        <time>2018-10-14T09:16:19Z</time>
      </trkpt>
      <trkpt lat="37.2343" lon="-8.71443">
        <ele>90.98193359375</ele>
        <time>2018-10-14T09:16:27Z</time>
      </trkpt>
      <trkpt lat="37.23434" lon="-8.71441">
        <ele>91.462524414062</ele>
        <time>2018-10-14T09:16:28Z</time>
      </trkpt>
      <trkpt lat="37.23479" lon="-8.71414">
        <ele>90.98193359375</ele>
        <time>2018-10-14T09:16:39Z</time>
      </trkpt>
      <trkpt lat="37.23555" lon="-8.7137">
        <ele>90.020629882812</ele>
        <time>2018-10-14T09:16:58Z</time>
      </trkpt>
      <trkpt lat="37.23568" lon="-8.71363">
        <ele>90.020629882812</ele>
        <time>2018-10-14T09:17:01Z</time>
      </trkpt>
      <trkpt lat="37.23602" lon="-8.71327">
        <ele>90.98193359375</ele>
        <time>2018-10-14T09:17:10Z</time>
      </trkpt>
      <trkpt lat="37.23614" lon="-8.71313">
        <ele>90.020629882812</ele>
        <time>2018-10-14T09:17:14Z</time>
      </trkpt>
      <trkpt lat="37.2366" lon="-8.7124">
        <ele>92.423950195312</ele>
        <time>2018-10-14T09:17:33Z</time>
      </trkpt>
      <trkpt lat="37.23673" lon="-8.71219">
        <ele>90.501342773438</ele>
        <time>2018-10-14T09:17:38Z</time>
      </trkpt>
      <trkpt lat="37.23679" lon="-8.71196">
        <ele>90.020629882812</ele>
        <time>2018-10-14T09:17:42Z</time>
      </trkpt>
      <trkpt lat="37.23694" lon="-8.71111">
        <ele>89.539916992188</ele>
        <time>2018-10-14T09:17:58Z</time>
      </trkpt>
      <trkpt lat="37.23721" lon="-8.71062">
        <ele>89.059326171875</ele>
        <time>2018-10-14T09:18:09Z</time>
      </trkpt>
      <trkpt lat="37.23762" lon="-8.71023">
        <ele>90.501342773438</ele>
        <time>2018-10-14T09:18:24Z</time>
      </trkpt>
      <trkpt lat="37.23762" lon="-8.71023">
        <ele>91.462524414062</ele>
        <time>2018-10-14T09:18:43Z</time>
      </trkpt>
      <trkpt lat="37.23762" lon="-8.71023">
        <ele>91.462524414062</ele>
        <time>2018-10-14T09:20:22Z</time>
      </trkpt>
      <trkpt lat="37.23761" lon="-8.7101">
        <ele>90.501342773438</ele>
        <time>2018-10-14T09:20:26Z</time>
      </trkpt>
      <trkpt lat="37.23757" lon="-8.70964">
        <ele>89.059326171875</ele>
        <time>2018-10-14T09:20:37Z</time>
      </trkpt>
      <trkpt lat="37.23752" lon="-8.70954">
        <ele>89.539916992188</ele>
        <time>2018-10-14T09:20:41Z</time>
      </trkpt>
      <trkpt lat="37.2374" lon="-8.70941">
        <ele>90.501342773438</ele>
        <time>2018-10-14T09:20:48Z</time>
      </trkpt>
      <trkpt lat="37.23728" lon="-8.70933">
        <ele>92.423950195312</ele>
        <time>2018-10-14T09:20:54Z</time>
      </trkpt>
      <trkpt lat="37.23695" lon="-8.7095">
        <ele>94.8271484375</ele>
        <time>2018-10-14T09:21:08Z</time>
      </trkpt>
      <trkpt lat="37.23654" lon="-8.70985">
        <ele>94.8271484375</ele>
        <time>2018-10-14T09:21:23Z</time>
      </trkpt>
      <trkpt lat="37.23618" lon="-8.71047">
        <ele>96.269287109375</ele>
        <time>2018-10-14T09:21:44Z</time>
      </trkpt>
      <trkpt lat="37.23605" lon="-8.71096">
        <ele>97.711181640625</ele>
        <time>2018-10-14T09:21:57Z</time>
      </trkpt>
      <trkpt lat="37.23604" lon="-8.71115">
        <ele>97.23046875</ele>
        <time>2018-10-14T09:22:01Z</time>
      </trkpt>
      <trkpt lat="37.23595" lon="-8.71146">
        <ele>95.307739257812</ele>
        <time>2018-10-14T09:22:06Z</time>
      </trkpt>
      <trkpt lat="37.23583" lon="-8.7118">
        <ele>94.346557617188</ele>
        <time>2018-10-14T09:22:11Z</time>
      </trkpt>
      <trkpt lat="37.23573" lon="-8.71202">
        <ele>92.904541015625</ele>
        <time>2018-10-14T09:22:15Z</time>
      </trkpt>
      <trkpt lat="37.2354" lon="-8.7125">
        <ele>92.904541015625</ele>
        <time>2018-10-14T09:22:29Z</time>
      </trkpt>
      <trkpt lat="37.23516" lon="-8.71309">
        <ele>93.385131835938</ele>
        <time>2018-10-14T09:22:44Z</time>
      </trkpt>
      <trkpt lat="37.23484" lon="-8.71346">
        <ele>94.346557617188</ele>
        <time>2018-10-14T09:22:56Z</time>
      </trkpt>
      <trkpt lat="37.23461" lon="-8.7135">
        <ele>93.385131835938</ele>
        <time>2018-10-14T09:23:02Z</time>
      </trkpt>
      <trkpt lat="37.23437" lon="-8.71342">
        <ele>92.904541015625</ele>
        <time>2018-10-14T09:23:07Z</time>
      </trkpt>
      <trkpt lat="37.23426" lon="-8.71341">
        <ele>91.943237304688</ele>
        <time>2018-10-14T09:23:09Z</time>
      </trkpt>
      <trkpt lat="37.23402" lon="-8.71344">
        <ele>90.98193359375</ele>
        <time>2018-10-14T09:23:14Z</time>
      </trkpt>
      <trkpt lat="37.23353" lon="-8.71352">
        <ele>90.501342773438</ele>
        <time>2018-10-14T09:23:27Z</time>
      </trkpt>
      <trkpt lat="37.23331" lon="-8.71363">
        <ele>90.98193359375</ele>
        <time>2018-10-14T09:23:33Z</time>
      </trkpt>
      <trkpt lat="37.23261" lon="-8.71402">
        <ele>90.98193359375</ele>
        <time>2018-10-14T09:23:50Z</time>
      </trkpt>
      <trkpt lat="37.23231" lon="-8.71416">
        <ele>90.501342773438</ele>
        <time>2018-10-14T09:23:57Z</time>
      </trkpt>
      <trkpt lat="37.23204" lon="-8.71426">
        <ele>90.020629882812</ele>
        <time>2018-10-14T09:24:03Z</time>
      </trkpt>
      <trkpt lat="37.23143" lon="-8.71447">
        <ele>92.423950195312</ele>
        <time>2018-10-14T09:24:19Z</time>
      </trkpt>
      <trkpt lat="37.23123" lon="-8.71447">
        <ele>91.943237304688</ele>
        <time>2018-10-14T09:24:24Z</time>
      </trkpt>
      <trkpt lat="37.23085" lon="-8.71444">
        <ele>92.423950195312</ele>
        <time>2018-10-14T09:24:37Z</time>
      </trkpt>
      <trkpt lat="37.23029" lon="-8.71428">
        <ele>93.865844726562</ele>
        <time>2018-10-14T09:24:54Z</time>
      </trkpt>
      <trkpt lat="37.22995" lon="-8.71395">
        <ele>97.23046875</ele>
        <time>2018-10-14T09:25:07Z</time>
      </trkpt>
      <trkpt lat="37.22989" lon="-8.71389">
        <ele>97.711181640625</ele>
        <time>2018-10-14T09:25:09Z</time>
      </trkpt>
      <trkpt lat="37.22965" lon="-8.71344">
        <ele>101.07568359375</ele>
        <time>2018-10-14T09:25:22Z</time>
      </trkpt>
      <trkpt lat="37.22946" lon="-8.71318">
        <ele>100.11450195312</ele>
        <time>2018-10-14T09:25:30Z</time>
      </trkpt>
      <trkpt lat="37.22927" lon="-8.71313">
        <ele>99.6337890625</ele>
        <time>2018-10-14T09:25:35Z</time>
      </trkpt>
      <trkpt lat="37.22856" lon="-8.71286">
        <ele>99.6337890625</ele>
        <time>2018-10-14T09:25:51Z</time>
      </trkpt>
      <trkpt lat="37.22799" lon="-8.71255">
        <ele>100.11450195312</ele>
        <time>2018-10-14T09:26:05Z</time>
      </trkpt>
      <trkpt lat="37.22752" lon="-8.71228">
        <ele>98.19189453125</ele>
        <time>2018-10-14T09:26:17Z</time>
      </trkpt>
      <trkpt lat="37.22708" lon="-8.71197">
        <ele>97.711181640625</ele>
        <time>2018-10-14T09:26:27Z</time>
      </trkpt>
      <trkpt lat="37.22702" lon="-8.71186">
        <ele>97.711181640625</ele>
        <time>2018-10-14T09:26:30Z</time>
      </trkpt>
      <trkpt lat="37.22698" lon="-8.7113">
        <ele>100.59509277344</ele>
        <time>2018-10-14T09:26:45Z</time>
      </trkpt>
      <trkpt lat="37.22704" lon="-8.71125">
        <ele>100.59509277344</ele>
        <time>2018-10-14T09:26:47Z</time>
      </trkpt>
      <trkpt lat="37.22759" lon="-8.71078">
        <ele>100.11450195312</ele>
        <time>2018-10-14T09:27:04Z</time>
      </trkpt>
      <trkpt lat="37.22773" lon="-8.71066">
        <ele>100.59509277344</ele>
        <time>2018-10-14T09:27:09Z</time>
      </trkpt>
      <trkpt lat="37.22789" lon="-8.71052">
        <ele>101.07568359375</ele>
        <time>2018-10-14T09:27:14Z</time>
      </trkpt>
      <trkpt lat="37.22808" lon="-8.71039">
        <ele>101.55639648438</ele>
        <time>2018-10-14T09:27:20Z</time>
      </trkpt>
      <trkpt lat="37.22844" lon="-8.71018">
        <ele>101.07568359375</ele>
        <time>2018-10-14T09:27:30Z</time>
      </trkpt>
      <trkpt lat="37.2285" lon="-8.71007">
        <ele>101.07568359375</ele>
        <time>2018-10-14T09:27:33Z</time>
      </trkpt>
      <trkpt lat="37.22872" lon="-8.70991">
        <ele>100.59509277344</ele>
        <time>2018-10-14T09:27:40Z</time>
      </trkpt>
      <trkpt lat="37.22895" lon="-8.70981">
        <ele>100.11450195312</ele>
        <time>2018-10-14T09:27:46Z</time>
      </trkpt>
      <trkpt lat="37.22907" lon="-8.70976">
        <ele>99.153076171875</ele>
        <time>2018-10-14T09:27:49Z</time>
      </trkpt>
      <trkpt lat="37.22922" lon="-8.70956">
        <ele>98.672485351562</ele>
        <time>2018-10-14T09:27:54Z</time>
      </trkpt>
      <trkpt lat="37.22941" lon="-8.70925">
        <ele>97.711181640625</ele>
        <time>2018-10-14T09:28:01Z</time>
      </trkpt>
      <trkpt lat="37.22965" lon="-8.70904">
        <ele>94.8271484375</ele>
        <time>2018-10-14T09:28:06Z</time>
      </trkpt>
      <trkpt lat="37.22974" lon="-8.70895">
        <ele>94.8271484375</ele>
        <time>2018-10-14T09:28:08Z</time>
      </trkpt>
      <trkpt lat="37.23012" lon="-8.70855">
        <ele>93.385131835938</ele>
        <time>2018-10-14T09:28:19Z</time>
      </trkpt>
      <trkpt lat="37.22998" lon="-8.70843">
        <ele>94.346557617188</ele>
        <time>2018-10-14T09:28:26Z</time>
      </trkpt>
      <trkpt lat="37.22975" lon="-8.7085">
        <ele>97.711181640625</ele>
        <time>2018-10-14T09:28:34Z</time>
      </trkpt>
      <trkpt lat="37.22972" lon="-8.70851">
        <ele>97.711181640625</ele>
        <time>2018-10-14T09:28:35Z</time>
      </trkpt>
      <trkpt lat="37.22901" lon="-8.70868">
        <ele>100.11450195312</ele>
        <time>2018-10-14T09:28:57Z</time>
      </trkpt>
      <trkpt lat="37.22868" lon="-8.70869">
        <ele>101.55639648438</ele>
        <time>2018-10-14T09:29:09Z</time>
      </trkpt>
      <trkpt lat="37.22837" lon="-8.70867">
        <ele>104.92102050781</ele>
        <time>2018-10-14T09:29:21Z</time>
      </trkpt>
      <trkpt lat="37.22808" lon="-8.7085">
        <ele>106.84362792969</ele>
        <time>2018-10-14T09:29:34Z</time>
      </trkpt>
      <trkpt lat="37.22782" lon="-8.70817">
        <ele>107.80505371094</ele>
        <time>2018-10-14T09:29:46Z</time>
      </trkpt>
      <trkpt lat="37.22781" lon="-8.70814">
        <ele>107.80505371094</ele>
        <time>2018-10-14T09:29:47Z</time>
      </trkpt>
      <trkpt lat="37.22786" lon="-8.70792">
        <ele>108.28564453125</ele>
        <time>2018-10-14T09:29:54Z</time>
      </trkpt>
      <trkpt lat="37.22806" lon="-8.70765">
        <ele>108.28564453125</ele>
        <time>2018-10-14T09:30:02Z</time>
      </trkpt>
      <trkpt lat="37.22806" lon="-8.70736">
        <ele>107.80505371094</ele>
        <time>2018-10-14T09:30:11Z</time>
      </trkpt>
      <trkpt lat="37.22796" lon="-8.70732">
        <ele>107.32434082031</ele>
        <time>2018-10-14T09:30:15Z</time>
      </trkpt>
      <trkpt lat="37.22739" lon="-8.70694">
        <ele>106.84362792969</ele>
        <time>2018-10-14T09:30:33Z</time>
      </trkpt>
      <trkpt lat="37.22733" lon="-8.70678">
        <ele>106.36303710938</ele>
        <time>2018-10-14T09:30:36Z</time>
      </trkpt>
      <trkpt lat="37.22736" lon="-8.70649">
        <ele>104.4404296875</ele>
        <time>2018-10-14T09:30:42Z</time>
      </trkpt>
      <trkpt lat="37.2274" lon="-8.70638">
        <ele>104.4404296875</ele>
        <time>2018-10-14T09:30:44Z</time>
      </trkpt>
      <trkpt lat="37.2275" lon="-8.70616">
        <ele>103.95971679688</ele>
        <time>2018-10-14T09:30:48Z</time>
      </trkpt>
      <trkpt lat="37.22771" lon="-8.70583">
        <ele>102.99829101562</ele>
        <time>2018-10-14T09:30:55Z</time>
      </trkpt>
      <trkpt lat="37.22783" lon="-8.70563">
        <ele>102.99829101562</ele>
        <time>2018-10-14T09:31:00Z</time>
      </trkpt>
      <trkpt lat="37.22802" lon="-8.70527">
        <ele>103.47900390625</ele>
        <time>2018-10-14T09:31:11Z</time>
      </trkpt>
      <trkpt lat="37.22816" lon="-8.70484">
        <ele>106.36303710938</ele>
        <time>2018-10-14T09:31:24Z</time>
      </trkpt>
      <trkpt lat="37.22812" lon="-8.70428">
        <ele>104.4404296875</ele>
        <time>2018-10-14T09:31:35Z</time>
      </trkpt>
      <trkpt lat="37.22813" lon="-8.7041">
        <ele>102.99829101562</ele>
        <time>2018-10-14T09:31:38Z</time>
      </trkpt>
      <trkpt lat="37.22829" lon="-8.70368">
        <ele>102.037109375</ele>
        <time>2018-10-14T09:31:46Z</time>
      </trkpt>
      <trkpt lat="37.22832" lon="-8.70364">
        <ele>102.037109375</ele>
        <time>2018-10-14T09:31:47Z</time>
      </trkpt>
      <trkpt lat="37.22861" lon="-8.70333">
        <ele>101.55639648438</ele>
        <time>2018-10-14T09:32:00Z</time>
      </trkpt>
      <trkpt lat="37.22861" lon="-8.70331">
        <ele>102.51770019531</ele>
        <time>2018-10-14T09:35:53Z</time>
      </trkpt>
      <trkpt lat="37.22846" lon="-8.70324">
        <ele>102.037109375</ele>
        <time>2018-10-14T09:36:00Z</time>
      </trkpt>
      <trkpt lat="37.22793" lon="-8.70341">
        <ele>101.55639648438</ele>
        <time>2018-10-14T09:36:16Z</time>
      </trkpt>
      <trkpt lat="37.22773" lon="-8.70359">
        <ele>101.07568359375</ele>
        <time>2018-10-14T09:36:22Z</time>
      </trkpt>
      <trkpt lat="37.2276" lon="-8.7037">
        <ele>99.6337890625</ele>
        <time>2018-10-14T09:36:26Z</time>
      </trkpt>
      <trkpt lat="37.22745" lon="-8.70375">
        <ele>99.153076171875</ele>
        <time>2018-10-14T09:36:30Z</time>
      </trkpt>
      <trkpt lat="37.22735" lon="-8.70375">
        <ele>98.672485351562</ele>
        <time>2018-10-14T09:36:32Z</time>
      </trkpt>
      <trkpt lat="37.22712" lon="-8.70385">
        <ele>98.672485351562</ele>
        <time>2018-10-14T09:36:37Z</time>
      </trkpt>
      <trkpt lat="37.22701" lon="-8.70392">
        <ele>97.711181640625</ele>
        <time>2018-10-14T09:36:40Z</time>
      </trkpt>
      <trkpt lat="37.2267" lon="-8.70399">
        <ele>96.749877929688</ele>
        <time>2018-10-14T09:36:47Z</time>
      </trkpt>
      <trkpt lat="37.22638" lon="-8.70394">
        <ele>94.346557617188</ele>
        <time>2018-10-14T09:36:55Z</time>
      </trkpt>
      <trkpt lat="37.22622" lon="-8.7038">
        <ele>93.865844726562</ele>
        <time>2018-10-14T09:37:00Z</time>
      </trkpt>
      <trkpt lat="37.22597" lon="-8.70376">
        <ele>92.904541015625</ele>
        <time>2018-10-14T09:37:06Z</time>
      </trkpt>
      <trkpt lat="37.22567" lon="-8.70375">
        <ele>93.385131835938</ele>
        <time>2018-10-14T09:37:13Z</time>
      </trkpt>
      <trkpt lat="37.2255" lon="-8.70368">
        <ele>93.385131835938</ele>
        <time>2018-10-14T09:37:17Z</time>
      </trkpt>
      <trkpt lat="37.22521" lon="-8.7035">
        <ele>91.462524414062</ele>
        <time>2018-10-14T09:37:25Z</time>
      </trkpt>
      <trkpt lat="37.22504" lon="-8.70346">
        <ele>91.462524414062</ele>
        <time>2018-10-14T09:37:29Z</time>
      </trkpt>
      <trkpt lat="37.22466" lon="-8.70332">
        <ele>90.501342773438</ele>
        <time>2018-10-14T09:37:37Z</time>
      </trkpt>
      <trkpt lat="37.22432" lon="-8.70282">
        <ele>90.98193359375</ele>
        <time>2018-10-14T09:37:49Z</time>
      </trkpt>
      <trkpt lat="37.22399" lon="-8.70245">
        <ele>92.423950195312</ele>
        <time>2018-10-14T09:37:59Z</time>
      </trkpt>
      <trkpt lat="37.22395" lon="-8.7023">
        <ele>92.423950195312</ele>
        <time>2018-10-14T09:38:03Z</time>
      </trkpt>
      <trkpt lat="37.22367" lon="-8.70219">
        <ele>92.904541015625</ele>
        <time>2018-10-14T09:38:12Z</time>
      </trkpt>
      <trkpt lat="37.22356" lon="-8.70205">
        <ele>92.904541015625</ele>
        <time>2018-10-14T09:38:16Z</time>
      </trkpt>
      <trkpt lat="37.22341" lon="-8.7018">
        <ele>92.423950195312</ele>
        <time>2018-10-14T09:38:27Z</time>
      </trkpt>
      <trkpt lat="37.22329" lon="-8.70158">
        <ele>91.462524414062</ele>
        <time>2018-10-14T09:38:37Z</time>
      </trkpt>
      <trkpt lat="37.22322" lon="-8.70147">
        <ele>92.423950195312</ele>
        <time>2018-10-14T09:38:40Z</time>
      </trkpt>
      <trkpt lat="37.22315" lon="-8.70144">
        <ele>91.943237304688</ele>
        <time>2018-10-14T09:38:42Z</time>
      </trkpt>
      <trkpt lat="37.22307" lon="-8.70137">
        <ele>90.98193359375</ele>
        <time>2018-10-14T09:38:44Z</time>
      </trkpt>
      <trkpt lat="37.22287" lon="-8.70108">
        <ele>91.462524414062</ele>
        <time>2018-10-14T09:38:52Z</time>
      </trkpt>
      <trkpt lat="37.22276" lon="-8.70093">
        <ele>90.98193359375</ele>
        <time>2018-10-14T09:38:56Z</time>
      </trkpt>
      <trkpt lat="37.22244" lon="-8.70056">
        <ele>93.865844726562</ele>
        <time>2018-10-14T09:39:08Z</time>
      </trkpt>
      <trkpt lat="37.22237" lon="-8.70049">
        <ele>94.8271484375</ele>
        <time>2018-10-14T09:39:11Z</time>
      </trkpt>
      <trkpt lat="37.22223" lon="-8.70037">
        <ele>97.23046875</ele>
        <time>2018-10-14T09:39:17Z</time>
      </trkpt>
      <trkpt lat="37.22211" lon="-8.70027">
        <ele>99.6337890625</ele>
        <time>2018-10-14T09:39:23Z</time>
      </trkpt>
      <trkpt lat="37.22162" lon="-8.70008">
        <ele>101.07568359375</ele>
        <time>2018-10-14T09:39:41Z</time>
      </trkpt>
      <trkpt lat="37.22144" lon="-8.70013">
        <ele>97.711181640625</ele>
        <time>2018-10-14T09:39:46Z</time>
      </trkpt>
      <trkpt lat="37.22141" lon="-8.70014">
        <ele>97.711181640625</ele>
        <time>2018-10-14T09:39:47Z</time>
      </trkpt>
      <trkpt lat="37.22126" lon="-8.70018">
        <ele>94.8271484375</ele>
        <time>2018-10-14T09:39:51Z</time>
      </trkpt>
      <trkpt lat="37.221" lon="-8.70005">
        <ele>91.943237304688</ele>
        <time>2018-10-14T09:39:57Z</time>
      </trkpt>
      <trkpt lat="37.22076" lon="-8.69991">
        <ele>91.462524414062</ele>
        <time>2018-10-14T09:40:02Z</time>
      </trkpt>
      <trkpt lat="37.22065" lon="-8.69949">
        <ele>90.98193359375</ele>
        <time>2018-10-14T09:40:10Z</time>
      </trkpt>
      <trkpt lat="37.22064" lon="-8.69941">
        <ele>90.98193359375</ele>
        <time>2018-10-14T09:40:12Z</time>
      </trkpt>
      <trkpt lat="37.22061" lon="-8.69929">
        <ele>91.462524414062</ele>
        <time>2018-10-14T09:40:15Z</time>
      </trkpt>
      <trkpt lat="37.22042" lon="-8.69921">
        <ele>90.98193359375</ele>
        <time>2018-10-14T09:40:24Z</time>
      </trkpt>
      <trkpt lat="37.22042" lon="-8.69921">
        <ele>90.98193359375</ele>
        <time>2018-10-14T09:40:42Z</time>
      </trkpt>
      <trkpt lat="37.22042" lon="-8.69921">
        <ele>89.539916992188</ele>
        <time>2018-10-14T09:41:26Z</time>
      </trkpt>
      <trkpt lat="37.22042" lon="-8.69921">
        <ele>89.539916992188</ele>
        <time>2018-10-14T09:42:16Z</time>
      </trkpt>
      <trkpt lat="37.22042" lon="-8.69921">
        <ele>90.501342773438</ele>
        <time>2018-10-14T09:43:04Z</time>
      </trkpt>
      <trkpt lat="37.22038" lon="-8.69918">
        <ele>90.98193359375</ele>
        <time>2018-10-14T09:44:22Z</time>
      </trkpt>
      <trkpt lat="37.22023" lon="-8.69907">
        <ele>90.020629882812</ele>
        <time>2018-10-14T09:44:29Z</time>
      </trkpt>
      <trkpt lat="37.22008" lon="-8.69909">
        <ele>90.020629882812</ele>
        <time>2018-10-14T09:44:33Z</time>
      </trkpt>
      <trkpt lat="37.21962" lon="-8.69909">
        <ele>90.501342773438</ele>
        <time>2018-10-14T09:44:46Z</time>
      </trkpt>
      <trkpt lat="37.21958" lon="-8.69901">
        <ele>89.059326171875</ele>
        <time>2018-10-14T09:44:48Z</time>
      </trkpt>
      <trkpt lat="37.21956" lon="-8.69867">
        <ele>89.539916992188</ele>
        <time>2018-10-14T09:44:57Z</time>
      </trkpt>
      <trkpt lat="37.2198" lon="-8.69834">
        <ele>89.539916992188</ele>
        <time>2018-10-14T09:45:06Z</time>
      </trkpt>
      <trkpt lat="37.22006" lon="-8.69823">
        <ele>90.020629882812</ele>
        <time>2018-10-14T09:45:13Z</time>
      </trkpt>
      <trkpt lat="37.22042" lon="-8.69819">
        <ele>90.501342773438</ele>
        <time>2018-10-14T09:45:23Z</time>
      </trkpt>
      <trkpt lat="37.22083" lon="-8.69842">
        <ele>90.501342773438</ele>
        <time>2018-10-14T09:45:34Z</time>
      </trkpt>
      <trkpt lat="37.2211" lon="-8.69831">
        <ele>91.462524414062</ele>
        <time>2018-10-14T09:45:42Z</time>
      </trkpt>
      <trkpt lat="37.22129" lon="-8.6984">
        <ele>91.943237304688</ele>
        <time>2018-10-14T09:45:47Z</time>
      </trkpt>
      <trkpt lat="37.22151" lon="-8.69868">
        <ele>92.904541015625</ele>
        <time>2018-10-14T09:45:56Z</time>
      </trkpt>
      <trkpt lat="37.22165" lon="-8.69881">
        <ele>92.904541015625</ele>
        <time>2018-10-14T09:46:00Z</time>
      </trkpt>
      <trkpt lat="37.22177" lon="-8.69895">
        <ele>92.904541015625</ele>
        <time>2018-10-14T09:46:04Z</time>
      </trkpt>
      <trkpt lat="37.22182" lon="-8.69902">
        <ele>92.423950195312</ele>
        <time>2018-10-14T09:46:06Z</time>
      </trkpt>
      <trkpt lat="37.22193" lon="-8.69903">
        <ele>91.943237304688</ele>
        <time>2018-10-14T09:46:10Z</time>
      </trkpt>
      <trkpt lat="37.22198" lon="-8.69899">
        <ele>92.423950195312</ele>
        <time>2018-10-14T09:46:12Z</time>
      </trkpt>
      <trkpt lat="37.22206" lon="-8.69899">
        <ele>91.943237304688</ele>
        <time>2018-10-14T09:46:16Z</time>
      </trkpt>
      <trkpt lat="37.22223" lon="-8.699">
        <ele>93.865844726562</ele>
        <time>2018-10-14T09:46:21Z</time>
      </trkpt>
      <trkpt lat="37.22224" lon="-8.69887">
        <ele>93.385131835938</ele>
        <time>2018-10-14T09:46:27Z</time>
      </trkpt>
      <trkpt lat="37.22184" lon="-8.69853">
        <ele>90.98193359375</ele>
        <time>2018-10-14T09:46:37Z</time>
      </trkpt>
      <trkpt lat="37.22156" lon="-8.69799">
        <ele>91.943237304688</ele>
        <time>2018-10-14T09:46:51Z</time>
      </trkpt>
      <trkpt lat="37.22179" lon="-8.69778">
        <ele>91.943237304688</ele>
        <time>2018-10-14T09:47:01Z</time>
      </trkpt>
      <trkpt lat="37.22187" lon="-8.69777">
        <ele>91.943237304688</ele>
        <time>2018-10-14T09:47:03Z</time>
      </trkpt>
      <trkpt lat="37.22208" lon="-8.69776">
        <ele>91.943237304688</ele>
        <time>2018-10-14T09:47:08Z</time>
      </trkpt>
      <trkpt lat="37.22224" lon="-8.69775">
        <ele>92.904541015625</ele>
        <time>2018-10-14T09:47:12Z</time>
      </trkpt>
      <trkpt lat="37.22237" lon="-8.69775">
        <ele>92.904541015625</ele>
        <time>2018-10-14T09:47:15Z</time>
      </trkpt>
      <trkpt lat="37.22252" lon="-8.69775">
        <ele>93.385131835938</ele>
        <time>2018-10-14T09:47:19Z</time>
      </trkpt>
      <trkpt lat="37.22262" lon="-8.69777">
        <ele>94.8271484375</ele>
        <time>2018-10-14T09:47:22Z</time>
      </trkpt>
      <trkpt lat="37.22268" lon="-8.69779">
        <ele>96.269287109375</ele>
        <time>2018-10-14T09:47:24Z</time>
      </trkpt>
      <trkpt lat="37.22278" lon="-8.69782">
        <ele>97.711181640625</ele>
        <time>2018-10-14T09:47:28Z</time>
      </trkpt>
      <trkpt lat="37.22333" lon="-8.69789">
        <ele>97.23046875</ele>
        <time>2018-10-14T09:47:44Z</time>
      </trkpt>
      <trkpt lat="37.2234" lon="-8.6979">
        <ele>97.23046875</ele>
        <time>2018-10-14T09:47:46Z</time>
      </trkpt>
      <trkpt lat="37.22359" lon="-8.69785">
        <ele>95.788452148438</ele>
        <time>2018-10-14T09:47:51Z</time>
      </trkpt>
      <trkpt lat="37.22365" lon="-8.6978">
        <ele>95.307739257812</ele>
        <time>2018-10-14T09:47:55Z</time>
      </trkpt>
      <trkpt lat="37.22365" lon="-8.69772">
        <ele>94.8271484375</ele>
        <time>2018-10-14T09:47:59Z</time>
      </trkpt>
      <trkpt lat="37.22334" lon="-8.69758">
        <ele>95.307739257812</ele>
        <time>2018-10-14T09:48:11Z</time>
      </trkpt>
      <trkpt lat="37.2233" lon="-8.69757">
        <ele>95.307739257812</ele>
        <time>2018-10-14T09:48:12Z</time>
      </trkpt>
      <trkpt lat="37.22305" lon="-8.69746">
        <ele>93.865844726562</ele>
        <time>2018-10-14T09:48:18Z</time>
      </trkpt>
      <trkpt lat="37.22266" lon="-8.6972">
        <ele>91.462524414062</ele>
        <time>2018-10-14T09:48:27Z</time>
      </trkpt>
      <trkpt lat="37.22249" lon="-8.69721">
        <ele>91.943237304688</ele>
        <time>2018-10-14T09:48:31Z</time>
      </trkpt>
      <trkpt lat="37.22214" lon="-8.6972">
        <ele>91.462524414062</ele>
        <time>2018-10-14T09:48:40Z</time>
      </trkpt>
      <trkpt lat="37.22177" lon="-8.69713">
        <ele>92.423950195312</ele>
        <time>2018-10-14T09:48:49Z</time>
      </trkpt>
      <trkpt lat="37.22129" lon="-8.69707">
        <ele>90.98193359375</ele>
        <time>2018-10-14T09:49:00Z</time>
      </trkpt>
      <trkpt lat="37.22111" lon="-8.69695">
        <ele>90.020629882812</ele>
        <time>2018-10-14T09:49:04Z</time>
      </trkpt>
      <trkpt lat="37.22113" lon="-8.69672">
        <ele>89.539916992188</ele>
        <time>2018-10-14T09:49:11Z</time>
      </trkpt>
      <trkpt lat="37.22135" lon="-8.69631">
        <ele>89.539916992188</ele>
        <time>2018-10-14T09:49:20Z</time>
      </trkpt>
      <trkpt lat="37.2218" lon="-8.69593">
        <ele>89.539916992188</ele>
        <time>2018-10-14T09:49:32Z</time>
      </trkpt>
      <trkpt lat="37.22239" lon="-8.69582">
        <ele>91.462524414062</ele>
        <time>2018-10-14T09:49:46Z</time>
      </trkpt>
      <trkpt lat="37.22299" lon="-8.69572">
        <ele>91.943237304688</ele>
        <time>2018-10-14T09:50:00Z</time>
      </trkpt>
      <trkpt lat="37.22299" lon="-8.69552">
        <ele>92.423950195312</ele>
        <time>2018-10-14T09:50:08Z</time>
      </trkpt>
      <trkpt lat="37.22295" lon="-8.69551">
        <ele>91.943237304688</ele>
        <time>2018-10-14T09:50:09Z</time>
      </trkpt>
      <trkpt lat="37.22238" lon="-8.69547">
        <ele>92.904541015625</ele>
        <time>2018-10-14T09:50:22Z</time>
      </trkpt>
      <trkpt lat="37.22225" lon="-8.69541">
        <ele>93.385131835938</ele>
        <time>2018-10-14T09:50:25Z</time>
      </trkpt>
      <trkpt lat="37.22208" lon="-8.69522">
        <ele>92.423950195312</ele>
        <time>2018-10-14T09:50:30Z</time>
      </trkpt>
      <trkpt lat="37.22197" lon="-8.6951">
        <ele>90.98193359375</ele>
        <time>2018-10-14T09:50:33Z</time>
      </trkpt>
      <trkpt lat="37.22179" lon="-8.69495">
        <ele>91.943237304688</ele>
        <time>2018-10-14T09:50:40Z</time>
      </trkpt>
      <trkpt lat="37.22168" lon="-8.69471">
        <ele>90.98193359375</ele>
        <time>2018-10-14T09:50:46Z</time>
      </trkpt>
      <trkpt lat="37.22168" lon="-8.6946">
        <ele>91.462524414062</ele>
        <time>2018-10-14T09:50:48Z</time>
      </trkpt>
      <trkpt lat="37.22163" lon="-8.69429">
        <ele>90.98193359375</ele>
        <time>2018-10-14T09:50:54Z</time>
      </trkpt>
      <trkpt lat="37.22155" lon="-8.69414">
        <ele>90.501342773438</ele>
        <time>2018-10-14T09:50:57Z</time>
      </trkpt>
      <trkpt lat="37.22159" lon="-8.69386">
        <ele>91.462524414062</ele>
        <time>2018-10-14T09:51:05Z</time>
      </trkpt>
      <trkpt lat="37.22163" lon="-8.69384">
        <ele>91.943237304688</ele>
        <time>2018-10-14T09:51:06Z</time>
      </trkpt>
      <trkpt lat="37.22206" lon="-8.69376">
        <ele>91.943237304688</ele>
        <time>2018-10-14T09:51:17Z</time>
      </trkpt>
      <trkpt lat="37.2221" lon="-8.69379">
        <ele>91.943237304688</ele>
        <time>2018-10-14T09:51:18Z</time>
      </trkpt>
      <trkpt lat="37.22234" lon="-8.69395">
        <ele>91.462524414062</ele>
        <time>2018-10-14T09:51:24Z</time>
      </trkpt>
      <trkpt lat="37.22314" lon="-8.69416">
        <ele>93.865844726562</ele>
        <time>2018-10-14T09:51:43Z</time>
      </trkpt>
      <trkpt lat="37.22348" lon="-8.69415">
        <ele>92.904541015625</ele>
        <time>2018-10-14T09:51:52Z</time>
      </trkpt>
      <trkpt lat="37.22348" lon="-8.69402">
        <ele>91.943237304688</ele>
        <time>2018-10-14T09:52:00Z</time>
      </trkpt>
      <trkpt lat="37.22348" lon="-8.69402">
        <ele>91.462524414062</ele>
        <time>2018-10-14T09:52:22Z</time>
      </trkpt>
      <trkpt lat="37.22348" lon="-8.69402">
        <ele>93.385131835938</ele>
        <time>2018-10-14T09:53:33Z</time>
      </trkpt>
      <trkpt lat="37.22348" lon="-8.69402">
        <ele>92.904541015625</ele>
        <time>2018-10-14T09:53:38Z</time>
      </trkpt>
      <trkpt lat="37.22339" lon="-8.69397">
        <ele>92.904541015625</ele>
        <time>2018-10-14T09:53:42Z</time>
      </trkpt>
      <trkpt lat="37.2229" lon="-8.6937">
        <ele>91.943237304688</ele>
        <time>2018-10-14T09:53:57Z</time>
      </trkpt>
      <trkpt lat="37.22285" lon="-8.69364">
        <ele>91.943237304688</ele>
        <time>2018-10-14T09:54:00Z</time>
      </trkpt>
      <trkpt lat="37.22289" lon="-8.69349">
        <ele>92.423950195312</ele>
        <time>2018-10-14T09:54:05Z</time>
      </trkpt>
      <trkpt lat="37.22327" lon="-8.69311">
        <ele>91.943237304688</ele>
        <time>2018-10-14T09:54:17Z</time>
      </trkpt>
      <trkpt lat="37.2237" lon="-8.69286">
        <ele>91.943237304688</ele>
        <time>2018-10-14T09:54:29Z</time>
      </trkpt>
      <trkpt lat="37.22424" lon="-8.69258">
        <ele>95.307739257812</ele>
        <time>2018-10-14T09:54:44Z</time>
      </trkpt>
      <trkpt lat="37.22473" lon="-8.69245">
        <ele>94.8271484375</ele>
        <time>2018-10-14T09:54:57Z</time>
      </trkpt>
      <trkpt lat="37.2249" lon="-8.69244">
        <ele>94.346557617188</ele>
        <time>2018-10-14T09:55:01Z</time>
      </trkpt>
      <trkpt lat="37.22527" lon="-8.69236">
        <ele>94.346557617188</ele>
        <time>2018-10-14T09:55:10Z</time>
      </trkpt>
      <trkpt lat="37.22585" lon="-8.6924">
        <ele>93.865844726562</ele>
        <time>2018-10-14T09:55:25Z</time>
      </trkpt>
      <trkpt lat="37.22593" lon="-8.69255">
        <ele>94.8271484375</ele>
        <time>2018-10-14T09:55:29Z</time>
      </trkpt>
      <trkpt lat="37.22611" lon="-8.69274">
        <ele>94.8271484375</ele>
        <time>2018-10-14T09:55:35Z</time>
      </trkpt>
      <trkpt lat="37.22624" lon="-8.69276">
        <ele>94.8271484375</ele>
        <time>2018-10-14T09:55:42Z</time>
      </trkpt>
      <trkpt lat="37.22628" lon="-8.69274">
        <ele>94.8271484375</ele>
        <time>2018-10-14T09:55:44Z</time>
      </trkpt>
      <trkpt lat="37.22647" lon="-8.69271">
        <ele>92.904541015625</ele>
        <time>2018-10-14T09:55:50Z</time>
      </trkpt>
      <trkpt lat="37.22675" lon="-8.69279">
        <ele>91.943237304688</ele>
        <time>2018-10-14T09:55:58Z</time>
      </trkpt>
      <trkpt lat="37.22686" lon="-8.69282">
        <ele>94.346557617188</ele>
        <time>2018-10-14T09:56:02Z</time>
      </trkpt>
      <trkpt lat="37.22701" lon="-8.69301">
        <ele>93.865844726562</ele>
        <time>2018-10-14T09:56:09Z</time>
      </trkpt>
      <trkpt lat="37.22711" lon="-8.69298">
        <ele>94.346557617188</ele>
        <time>2018-10-14T09:56:14Z</time>
      </trkpt>
      <trkpt lat="37.22733" lon="-8.69273">
        <ele>94.346557617188</ele>
        <time>2018-10-14T09:56:23Z</time>
      </trkpt>
      <trkpt lat="37.22752" lon="-8.69266">
        <ele>93.865844726562</ele>
        <time>2018-10-14T09:56:28Z</time>
      </trkpt>
      <trkpt lat="37.22816" lon="-8.69251">
        <ele>94.346557617188</ele>
        <time>2018-10-14T09:56:44Z</time>
      </trkpt>
      <trkpt lat="37.22876" lon="-8.69243">
        <ele>92.904541015625</ele>
        <time>2018-10-14T09:56:57Z</time>
      </trkpt>
      <trkpt lat="37.22924" lon="-8.69241">
        <ele>93.385131835938</ele>
        <time>2018-10-14T09:57:10Z</time>
      </trkpt>
      <trkpt lat="37.22934" lon="-8.69249">
        <ele>93.385131835938</ele>
        <time>2018-10-14T09:57:13Z</time>
      </trkpt>
      <trkpt lat="37.22963" lon="-8.69272">
        <ele>93.385131835938</ele>
        <time>2018-10-14T09:57:23Z</time>
      </trkpt>
      <trkpt lat="37.22969" lon="-8.69257">
        <ele>93.385131835938</ele>
        <time>2018-10-14T09:57:29Z</time>
      </trkpt>
      <trkpt lat="37.22974" lon="-8.69233">
        <ele>94.346557617188</ele>
        <time>2018-10-14T09:57:35Z</time>
      </trkpt>
      <trkpt lat="37.22988" lon="-8.69215">
        <ele>93.865844726562</ele>
        <time>2018-10-14T09:57:40Z</time>
      </trkpt>
      <trkpt lat="37.23017" lon="-8.6919">
        <ele>93.865844726562</ele>
        <time>2018-10-14T09:57:49Z</time>
      </trkpt>
      <trkpt lat="37.23031" lon="-8.6918">
        <ele>93.385131835938</ele>
        <time>2018-10-14T09:57:53Z</time>
      </trkpt>
      <trkpt lat="37.23055" lon="-8.69161">
        <ele>91.943237304688</ele>
        <time>2018-10-14T09:57:59Z</time>
      </trkpt>
      <trkpt lat="37.2308" lon="-8.69151">
        <ele>91.943237304688</ele>
        <time>2018-10-14T09:58:05Z</time>
      </trkpt>
      <trkpt lat="37.23138" lon="-8.69156">
        <ele>92.423950195312</ele>
        <time>2018-10-14T09:58:20Z</time>
      </trkpt>
      <trkpt lat="37.23183" lon="-8.69156">
        <ele>93.385131835938</ele>
        <time>2018-10-14T09:58:32Z</time>
      </trkpt>
      <trkpt lat="37.23217" lon="-8.6914">
        <ele>92.904541015625</ele>
        <time>2018-10-14T09:58:43Z</time>
      </trkpt>
      <trkpt lat="37.23221" lon="-8.69136">
        <ele>92.904541015625</ele>
        <time>2018-10-14T09:59:06Z</time>
      </trkpt>
      <trkpt lat="37.23216" lon="-8.69122">
        <ele>95.307739257812</ele>
        <time>2018-10-14T09:59:13Z</time>
      </trkpt>
      <trkpt lat="37.23183" lon="-8.691">
        <ele>98.19189453125</ele>
        <time>2018-10-14T09:59:29Z</time>
      </trkpt>
      <trkpt lat="37.23163" lon="-8.69092">
        <ele>101.55639648438</ele>
        <time>2018-10-14T09:59:38Z</time>
      </trkpt>
      <trkpt lat="37.23128" lon="-8.69078">
        <ele>104.92102050781</ele>
        <time>2018-10-14T09:59:53Z</time>
      </trkpt>
      <trkpt lat="37.23096" lon="-8.69067">
        <ele>107.80505371094</ele>
        <time>2018-10-14T10:00:06Z</time>
      </trkpt>
      <trkpt lat="37.23069" lon="-8.69055">
        <ele>110.68884277344</ele>
        <time>2018-10-14T10:00:18Z</time>
      </trkpt>
      <trkpt lat="37.23036" lon="-8.6903">
        <ele>113.09228515625</ele>
        <time>2018-10-14T10:00:33Z</time>
      </trkpt>
      <trkpt lat="37.23011" lon="-8.69016">
        <ele>115.97619628906</ele>
        <time>2018-10-14T10:00:44Z</time>
      </trkpt>
      <trkpt lat="37.22978" lon="-8.68984">
        <ele>117.89880371094</ele>
        <time>2018-10-14T10:01:00Z</time>
      </trkpt>
      <trkpt lat="37.22949" lon="-8.68975">
        <ele>120.78283691406</ele>
        <time>2018-10-14T10:01:12Z</time>
      </trkpt>
      <trkpt lat="37.22925" lon="-8.6897">
        <ele>123.66674804688</ele>
        <time>2018-10-14T10:01:22Z</time>
      </trkpt>
      <trkpt lat="37.22881" lon="-8.68984">
        <ele>127.03137207031</ele>
        <time>2018-10-14T10:01:41Z</time>
      </trkpt>
      <trkpt lat="37.22836" lon="-8.69001">
        <ele>128.9541015625</ele>
        <time>2018-10-14T10:01:58Z</time>
      </trkpt>
      <trkpt lat="37.22812" lon="-8.69008">
        <ele>132.31860351562</ele>
        <time>2018-10-14T10:02:07Z</time>
      </trkpt>
      <trkpt lat="37.22809" lon="-8.69008">
        <ele>132.31860351562</ele>
        <time>2018-10-14T10:02:08Z</time>
      </trkpt>
      <trkpt lat="37.22792" lon="-8.69006">
        <ele>136.16394042969</ele>
        <time>2018-10-14T10:02:15Z</time>
      </trkpt>
      <trkpt lat="37.22789" lon="-8.69006">
        <ele>135.68310546875</ele>
        <time>2018-10-14T10:02:16Z</time>
      </trkpt>
      <trkpt lat="37.22771" lon="-8.68979">
        <ele>136.16394042969</ele>
        <time>2018-10-14T10:02:28Z</time>
      </trkpt>
      <trkpt lat="37.22775" lon="-8.68921">
        <ele>132.79931640625</ele>
        <time>2018-10-14T10:02:41Z</time>
      </trkpt>
      <trkpt lat="37.22772" lon="-8.68904">
        <ele>131.837890625</ele>
        <time>2018-10-14T10:02:43Z</time>
      </trkpt>
      <trkpt lat="37.22763" lon="-8.68881">
        <ele>132.31860351562</ele>
        <time>2018-10-14T10:02:46Z</time>
      </trkpt>
      <trkpt lat="37.22753" lon="-8.68861">
        <ele>128.9541015625</ele>
        <time>2018-10-14T10:02:49Z</time>
      </trkpt>
      <trkpt lat="37.2273" lon="-8.68839">
        <ele>127.03137207031</ele>
        <time>2018-10-14T10:02:53Z</time>
      </trkpt>
      <trkpt lat="37.22687" lon="-8.68805">
        <ele>122.22473144531</ele>
        <time>2018-10-14T10:02:59Z</time>
      </trkpt>
      <trkpt lat="37.22656" lon="-8.68779">
        <ele>118.37939453125</ele>
        <time>2018-10-14T10:03:03Z</time>
      </trkpt>
      <trkpt lat="37.22634" lon="-8.68759">
        <ele>116.9375</ele>
        <time>2018-10-14T10:03:06Z</time>
      </trkpt>
      <trkpt lat="37.22613" lon="-8.68743">
        <ele>113.57299804688</ele>
        <time>2018-10-14T10:03:09Z</time>
      </trkpt>
      <trkpt lat="37.22565" lon="-8.68711">
        <ele>108.76623535156</ele>
        <time>2018-10-14T10:03:16Z</time>
      </trkpt>
      <trkpt lat="37.22558" lon="-8.687">
        <ele>107.80505371094</ele>
        <time>2018-10-14T10:03:18Z</time>
      </trkpt>
      <trkpt lat="37.2255" lon="-8.68677">
        <ele>107.32434082031</ele>
        <time>2018-10-14T10:03:22Z</time>
      </trkpt>
      <trkpt lat="37.22553" lon="-8.68643">
        <ele>104.4404296875</ele>
        <time>2018-10-14T10:03:26Z</time>
      </trkpt>
      <trkpt lat="37.22583" lon="-8.68619">
        <ele>102.037109375</ele>
        <time>2018-10-14T10:03:33Z</time>
      </trkpt>
      <trkpt lat="37.22587" lon="-8.68621">
        <ele>101.55639648438</ele>
        <time>2018-10-14T10:03:34Z</time>
      </trkpt>
      <trkpt lat="37.22651" lon="-8.68643">
        <ele>101.55639648438</ele>
        <time>2018-10-14T10:03:47Z</time>
      </trkpt>
      <trkpt lat="37.22659" lon="-8.68627">
        <ele>100.11450195312</ele>
        <time>2018-10-14T10:03:51Z</time>
      </trkpt>
      <trkpt lat="37.2265" lon="-8.68619">
        <ele>101.55639648438</ele>
        <time>2018-10-14T10:03:54Z</time>
      </trkpt>
      <trkpt lat="37.2262" lon="-8.68595">
        <ele>102.037109375</ele>
        <time>2018-10-14T10:04:04Z</time>
      </trkpt>
      <trkpt lat="37.22606" lon="-8.68581">
        <ele>101.55639648438</ele>
        <time>2018-10-14T10:04:08Z</time>
      </trkpt>
      <trkpt lat="37.22584" lon="-8.68561">
        <ele>98.19189453125</ele>
        <time>2018-10-14T10:04:13Z</time>
      </trkpt>
      <trkpt lat="37.22574" lon="-8.68553">
        <ele>97.23046875</ele>
        <time>2018-10-14T10:04:15Z</time>
      </trkpt>
      <trkpt lat="37.2257" lon="-8.68521">
        <ele>96.269287109375</ele>
        <time>2018-10-14T10:04:20Z</time>
      </trkpt>
      <trkpt lat="37.22589" lon="-8.68447">
        <ele>96.269287109375</ele>
        <time>2018-10-14T10:04:32Z</time>
      </trkpt>
      <trkpt lat="37.22617" lon="-8.68423">
        <ele>94.346557617188</ele>
        <time>2018-10-14T10:04:38Z</time>
      </trkpt>
      <trkpt lat="37.22631" lon="-8.6843">
        <ele>93.865844726562</ele>
        <time>2018-10-14T10:04:41Z</time>
      </trkpt>
      <trkpt lat="37.22653" lon="-8.68445">
        <ele>93.865844726562</ele>
        <time>2018-10-14T10:04:46Z</time>
      </trkpt>
      <trkpt lat="37.2267" lon="-8.68426">
        <ele>92.904541015625</ele>
        <time>2018-10-14T10:04:52Z</time>
      </trkpt>
      <trkpt lat="37.22659" lon="-8.68379">
        <ele>93.385131835938</ele>
        <time>2018-10-14T10:05:01Z</time>
      </trkpt>
      <trkpt lat="37.2267" lon="-8.68366">
        <ele>93.385131835938</ele>
        <time>2018-10-14T10:05:04Z</time>
      </trkpt>
      <trkpt lat="37.22698" lon="-8.6833">
        <ele>90.98193359375</ele>
        <time>2018-10-14T10:05:10Z</time>
      </trkpt>
      <trkpt lat="37.22731" lon="-8.68277">
        <ele>90.501342773438</ele>
        <time>2018-10-14T10:05:19Z</time>
      </trkpt>
      <trkpt lat="37.22748" lon="-8.68264">
        <ele>89.059326171875</ele>
        <time>2018-10-14T10:05:23Z</time>
      </trkpt>
      <trkpt lat="37.22765" lon="-8.68255">
        <ele>89.539916992188</ele>
        <time>2018-10-14T10:05:27Z</time>
      </trkpt>
      <trkpt lat="37.22811" lon="-8.6821">
        <ele>91.943237304688</ele>
        <time>2018-10-14T10:05:43Z</time>
      </trkpt>
      <trkpt lat="37.22852" lon="-8.6819">
        <ele>92.904541015625</ele>
        <time>2018-10-14T10:05:56Z</time>
      </trkpt>
      <trkpt lat="37.22884" lon="-8.6819">
        <ele>92.423950195312</ele>
        <time>2018-10-14T10:06:03Z</time>
      </trkpt>
      <trkpt lat="37.22912" lon="-8.68183">
        <ele>91.462524414062</ele>
        <time>2018-10-14T10:06:09Z</time>
      </trkpt>
      <trkpt lat="37.22967" lon="-8.68159">
        <ele>92.904541015625</ele>
        <time>2018-10-14T10:06:23Z</time>
      </trkpt>
      <trkpt lat="37.23009" lon="-8.68115">
        <ele>92.904541015625</ele>
        <time>2018-10-14T10:06:37Z</time>
      </trkpt>
      <trkpt lat="37.23019" lon="-8.68105">
        <ele>91.943237304688</ele>
        <time>2018-10-14T10:06:40Z</time>
      </trkpt>
      <trkpt lat="37.23079" lon="-8.68067">
        <ele>91.462524414062</ele>
        <time>2018-10-14T10:06:57Z</time>
      </trkpt>
      <trkpt lat="37.23094" lon="-8.68031">
        <ele>93.865844726562</ele>
        <time>2018-10-14T10:07:09Z</time>
      </trkpt>
      <trkpt lat="37.23108" lon="-8.67972">
        <ele>93.385131835938</ele>
        <time>2018-10-14T10:07:24Z</time>
      </trkpt>
      <trkpt lat="37.23106" lon="-8.67911">
        <ele>92.423950195312</ele>
        <time>2018-10-14T10:07:38Z</time>
      </trkpt>
      <trkpt lat="37.2307" lon="-8.67925">
        <ele>91.943237304688</ele>
        <time>2018-10-14T10:07:48Z</time>
      </trkpt>
      <trkpt lat="37.22979" lon="-8.67969">
        <ele>92.423950195312</ele>
        <time>2018-10-14T10:08:09Z</time>
      </trkpt>
      <trkpt lat="37.22939" lon="-8.67988">
        <ele>91.943237304688</ele>
        <time>2018-10-14T10:08:17Z</time>
      </trkpt>
      <trkpt lat="37.22907" lon="-8.6799">
        <ele>92.904541015625</ele>
        <time>2018-10-14T10:08:24Z</time>
      </trkpt>
      <trkpt lat="37.22863" lon="-8.67989">
        <ele>96.269287109375</ele>
        <time>2018-10-14T10:08:35Z</time>
      </trkpt>
      <trkpt lat="37.22821" lon="-8.68004">
        <ele>95.788452148438</ele>
        <time>2018-10-14T10:08:46Z</time>
      </trkpt>
      <trkpt lat="37.22801" lon="-8.68015">
        <ele>95.307739257812</ele>
        <time>2018-10-14T10:08:50Z</time>
      </trkpt>
      <trkpt lat="37.22786" lon="-8.68022">
        <ele>95.788452148438</ele>
        <time>2018-10-14T10:08:53Z</time>
      </trkpt>
      <trkpt lat="37.22768" lon="-8.68029">
        <ele>94.346557617188</ele>
        <time>2018-10-14T10:08:57Z</time>
      </trkpt>
      <trkpt lat="37.22753" lon="-8.68028">
        <ele>92.904541015625</ele>
        <time>2018-10-14T10:09:00Z</time>
      </trkpt>
      <trkpt lat="37.22738" lon="-8.68049">
        <ele>91.943237304688</ele>
        <time>2018-10-14T10:09:05Z</time>
      </trkpt>
      <trkpt lat="37.22719" lon="-8.68114">
        <ele>94.346557617188</ele>
        <time>2018-10-14T10:09:18Z</time>
      </trkpt>
      <trkpt lat="37.22715" lon="-8.6813">
        <ele>90.501342773438</ele>
        <time>2018-10-14T10:09:21Z</time>
      </trkpt>
      <trkpt lat="37.22712" lon="-8.68135">
        <ele>90.98193359375</ele>
        <time>2018-10-14T10:09:22Z</time>
      </trkpt>
      <trkpt lat="37.22687" lon="-8.682">
        <ele>90.98193359375</ele>
        <time>2018-10-14T10:09:35Z</time>
      </trkpt>
      <trkpt lat="37.22671" lon="-8.6823">
        <ele>90.98193359375</ele>
        <time>2018-10-14T10:09:41Z</time>
      </trkpt>
      <trkpt lat="37.22665" lon="-8.68238">
        <ele>91.462524414062</ele>
        <time>2018-10-14T10:09:43Z</time>
      </trkpt>
      <trkpt lat="37.22654" lon="-8.68247">
        <ele>90.98193359375</ele>
        <time>2018-10-14T10:09:45Z</time>
      </trkpt>
      <trkpt lat="37.22646" lon="-8.6825">
        <ele>90.020629882812</ele>
        <time>2018-10-14T10:09:47Z</time>
      </trkpt>
      <trkpt lat="37.22615" lon="-8.68255">
        <ele>89.539916992188</ele>
        <time>2018-10-14T10:09:54Z</time>
      </trkpt>
      <trkpt lat="37.22605" lon="-8.68256">
        <ele>90.020629882812</ele>
        <time>2018-10-14T10:09:56Z</time>
      </trkpt>
      <trkpt lat="37.22548" lon="-8.68298">
        <ele>90.501342773438</ele>
        <time>2018-10-14T10:10:11Z</time>
      </trkpt>
      <trkpt lat="37.22536" lon="-8.68303">
        <ele>90.98193359375</ele>
        <time>2018-10-14T10:10:14Z</time>
      </trkpt>
      <trkpt lat="37.2252" lon="-8.68309">
        <ele>91.462524414062</ele>
        <time>2018-10-14T10:10:18Z</time>
      </trkpt>
      <trkpt lat="37.22503" lon="-8.68321">
        <ele>91.943237304688</ele>
        <time>2018-10-14T10:10:22Z</time>
      </trkpt>
      <trkpt lat="37.22461" lon="-8.68391">
        <ele>90.98193359375</ele>
        <time>2018-10-14T10:10:37Z</time>
      </trkpt>
      <trkpt lat="37.22457" lon="-8.68395">
        <ele>90.98193359375</ele>
        <time>2018-10-14T10:10:38Z</time>
      </trkpt>
      <trkpt lat="37.22396" lon="-8.68457">
        <ele>90.020629882812</ele>
        <time>2018-10-14T10:10:54Z</time>
      </trkpt>
      <trkpt lat="37.22383" lon="-8.68468">
        <ele>89.539916992188</ele>
        <time>2018-10-14T10:10:57Z</time>
      </trkpt>
      <trkpt lat="37.22371" lon="-8.68483">
        <ele>90.020629882812</ele>
        <time>2018-10-14T10:11:01Z</time>
      </trkpt>
      <trkpt lat="37.22337" lon="-8.68518">
        <ele>93.385131835938</ele>
        <time>2018-10-14T10:11:13Z</time>
      </trkpt>
      <trkpt lat="37.22303" lon="-8.68542">
        <ele>96.749877929688</ele>
        <time>2018-10-14T10:11:26Z</time>
      </trkpt>
      <trkpt lat="37.223" lon="-8.6855">
        <ele>99.153076171875</ele>
        <time>2018-10-14T10:11:31Z</time>
      </trkpt>
      <trkpt lat="37.22282" lon="-8.68554">
        <ele>101.07568359375</ele>
        <time>2018-10-14T10:11:34Z</time>
      </trkpt>
      <trkpt lat="37.22239" lon="-8.68589">
        <ele>103.47900390625</ele>
        <time>2018-10-14T10:11:51Z</time>
      </trkpt>
      <trkpt lat="37.2222" lon="-8.68629">
        <ele>103.47900390625</ele>
        <time>2018-10-14T10:12:02Z</time>
      </trkpt>
      <trkpt lat="37.22163" lon="-8.68659">
        <ele>104.92102050781</ele>
        <time>2018-10-14T10:12:19Z</time>
      </trkpt>
      <trkpt lat="37.22127" lon="-8.6869">
        <ele>106.84362792969</ele>
        <time>2018-10-14T10:12:32Z</time>
      </trkpt>
      <trkpt lat="37.22103" lon="-8.68709">
        <ele>110.20825195312</ele>
        <time>2018-10-14T10:12:42Z</time>
      </trkpt>
      <trkpt lat="37.22087" lon="-8.68721">
        <ele>112.13098144531</ele>
        <time>2018-10-14T10:12:48Z</time>
      </trkpt>
      <trkpt lat="37.2207" lon="-8.68734">
        <ele>115.49560546875</ele>
        <time>2018-10-14T10:12:56Z</time>
      </trkpt>
      <trkpt lat="37.22038" lon="-8.68732">
        <ele>118.37939453125</ele>
        <time>2018-10-14T10:13:10Z</time>
      </trkpt>
      <trkpt lat="37.22018" lon="-8.687">
        <ele>116.9375</ele>
        <time>2018-10-14T10:13:17Z</time>
      </trkpt>
      <trkpt lat="37.22002" lon="-8.68697">
        <ele>116.9375</ele>
        <time>2018-10-14T10:13:23Z</time>
      </trkpt>
      <trkpt lat="37.22001" lon="-8.68702">
        <ele>116.45678710938</ele>
        <time>2018-10-14T10:13:24Z</time>
      </trkpt>
      <trkpt lat="37.21986" lon="-8.68745">
        <ele>115.01489257812</ele>
        <time>2018-10-14T10:13:33Z</time>
      </trkpt>
      <trkpt lat="37.21981" lon="-8.68753">
        <ele>115.01489257812</ele>
        <time>2018-10-14T10:13:35Z</time>
      </trkpt>
      <trkpt lat="37.21967" lon="-8.6877">
        <ele>113.57299804688</ele>
        <time>2018-10-14T10:13:39Z</time>
      </trkpt>
      <trkpt lat="37.21933" lon="-8.68796">
        <ele>110.20825195312</ele>
        <time>2018-10-14T10:13:45Z</time>
      </trkpt>
      <trkpt lat="37.21915" lon="-8.68812">
        <ele>110.20825195312</ele>
        <time>2018-10-14T10:13:48Z</time>
      </trkpt>
      <trkpt lat="37.21898" lon="-8.68859">
        <ele>107.32434082031</ele>
        <time>2018-10-14T10:13:55Z</time>
      </trkpt>
      <trkpt lat="37.21892" lon="-8.68866">
        <ele>106.84362792969</ele>
        <time>2018-10-14T10:13:56Z</time>
      </trkpt>
      <trkpt lat="37.21876" lon="-8.68883">
        <ele>102.51770019531</ele>
        <time>2018-10-14T10:13:59Z</time>
      </trkpt>
      <trkpt lat="37.21871" lon="-8.68888">
        <ele>102.037109375</ele>
        <time>2018-10-14T10:14:00Z</time>
      </trkpt>
      <trkpt lat="37.21861" lon="-8.68897">
        <ele>101.07568359375</ele>
        <time>2018-10-14T10:14:02Z</time>
      </trkpt>
      <trkpt lat="37.2182" lon="-8.68919">
        <ele>97.23046875</ele>
        <time>2018-10-14T10:14:08Z</time>
      </trkpt>
      <trkpt lat="37.21813" lon="-8.68923">
        <ele>97.23046875</ele>
        <time>2018-10-14T10:14:09Z</time>
      </trkpt>
      <trkpt lat="37.21798" lon="-8.68938">
        <ele>95.788452148438</ele>
        <time>2018-10-14T10:14:12Z</time>
      </trkpt>
      <trkpt lat="37.21772" lon="-8.68951">
        <ele>93.865844726562</ele>
        <time>2018-10-14T10:14:18Z</time>
      </trkpt>
      <trkpt lat="37.21765" lon="-8.6894">
        <ele>93.865844726562</ele>
        <time>2018-10-14T10:14:20Z</time>
      </trkpt>
      <trkpt lat="37.21747" lon="-8.68905">
        <ele>91.462524414062</ele>
        <time>2018-10-14T10:14:25Z</time>
      </trkpt>
      <trkpt lat="37.21718" lon="-8.68818">
        <ele>91.462524414062</ele>
        <time>2018-10-14T10:14:39Z</time>
      </trkpt>
      <trkpt lat="37.21716" lon="-8.68787">
        <ele>91.943237304688</ele>
        <time>2018-10-14T10:14:44Z</time>
      </trkpt>
      <trkpt lat="37.21719" lon="-8.68761">
        <ele>91.462524414062</ele>
        <time>2018-10-14T10:14:48Z</time>
      </trkpt>
      <trkpt lat="37.21724" lon="-8.68743">
        <ele>92.423950195312</ele>
        <time>2018-10-14T10:14:51Z</time>
      </trkpt>
      <trkpt lat="37.21707" lon="-8.68726">
        <ele>90.98193359375</ele>
        <time>2018-10-14T10:14:58Z</time>
      </trkpt>
      <trkpt lat="37.21706" lon="-8.6873">
        <ele>91.462524414062</ele>
        <time>2018-10-14T10:14:59Z</time>
      </trkpt>
      <trkpt lat="37.21702" lon="-8.68738">
        <ele>91.462524414062</ele>
        <time>2018-10-14T10:15:01Z</time>
      </trkpt>
      <trkpt lat="37.21668" lon="-8.68788">
        <ele>94.346557617188</ele>
        <time>2018-10-14T10:15:14Z</time>
      </trkpt>
      <trkpt lat="37.21637" lon="-8.68769">
        <ele>95.307739257812</ele>
        <time>2018-10-14T10:15:22Z</time>
      </trkpt>
      <trkpt lat="37.21624" lon="-8.68757">
        <ele>95.307739257812</ele>
        <time>2018-10-14T10:15:26Z</time>
      </trkpt>
      <trkpt lat="37.21616" lon="-8.68745">
        <ele>94.8271484375</ele>
        <time>2018-10-14T10:15:29Z</time>
      </trkpt>
      <trkpt lat="37.21607" lon="-8.68734">
        <ele>94.8271484375</ele>
        <time>2018-10-14T10:15:32Z</time>
      </trkpt>
      <trkpt lat="37.21598" lon="-8.68748">
        <ele>95.307739257812</ele>
        <time>2018-10-14T10:15:39Z</time>
      </trkpt>
      <trkpt lat="37.21599" lon="-8.68752">
        <ele>95.307739257812</ele>
        <time>2018-10-14T10:15:40Z</time>
      </trkpt>
      <trkpt lat="37.21614" lon="-8.68789">
        <ele>98.19189453125</ele>
        <time>2018-10-14T10:15:50Z</time>
      </trkpt>
      <trkpt lat="37.21619" lon="-8.6882">
        <ele>101.55639648438</ele>
        <time>2018-10-14T10:15:59Z</time>
      </trkpt>
      <trkpt lat="37.21619" lon="-8.68823">
        <ele>102.037109375</ele>
        <time>2018-10-14T10:16:00Z</time>
      </trkpt>
      <trkpt lat="37.21613" lon="-8.6883">
        <ele>105.40173339844</ele>
        <time>2018-10-14T10:16:03Z</time>
      </trkpt>
      <trkpt lat="37.21583" lon="-8.68861">
        <ele>107.80505371094</ele>
        <time>2018-10-14T10:16:19Z</time>
      </trkpt>
      <trkpt lat="37.21557" lon="-8.68881">
        <ele>111.16955566406</ele>
        <time>2018-10-14T10:16:31Z</time>
      </trkpt>
      <trkpt lat="37.21556" lon="-8.68884">
        <ele>111.16955566406</ele>
        <time>2018-10-14T10:16:32Z</time>
      </trkpt>
      <trkpt lat="37.21552" lon="-8.6891">
        <ele>111.16955566406</ele>
        <time>2018-10-14T10:16:40Z</time>
      </trkpt>
      <trkpt lat="37.21554" lon="-8.68926">
        <ele>108.76623535156</ele>
        <time>2018-10-14T10:16:43Z</time>
      </trkpt>
      <trkpt lat="37.21555" lon="-8.68938">
        <ele>107.80505371094</ele>
        <time>2018-10-14T10:16:45Z</time>
      </trkpt>
      <trkpt lat="37.21558" lon="-8.68972">
        <ele>105.88244628906</ele>
        <time>2018-10-14T10:16:50Z</time>
      </trkpt>
      <trkpt lat="37.21555" lon="-8.69006">
        <ele>104.4404296875</ele>
        <time>2018-10-14T10:16:55Z</time>
      </trkpt>
      <trkpt lat="37.21559" lon="-8.69038">
        <ele>102.037109375</ele>
        <time>2018-10-14T10:17:00Z</time>
      </trkpt>
      <trkpt lat="37.21568" lon="-8.69085">
        <ele>98.672485351562</ele>
        <time>2018-10-14T10:17:08Z</time>
      </trkpt>
      <trkpt lat="37.21562" lon="-8.69126">
        <ele>95.307739257812</ele>
        <time>2018-10-14T10:17:17Z</time>
      </trkpt>
      <trkpt lat="37.21557" lon="-8.6913">
        <ele>94.8271484375</ele>
        <time>2018-10-14T10:17:29Z</time>
      </trkpt>
      <trkpt lat="37.21545" lon="-8.69148">
        <ele>94.8271484375</ele>
        <time>2018-10-14T10:17:40Z</time>
      </trkpt>
      <trkpt lat="37.21521" lon="-8.69167">
        <ele>97.711181640625</ele>
        <time>2018-10-14T10:17:52Z</time>
      </trkpt>
      <trkpt lat="37.21511" lon="-8.69172">
        <ele>99.6337890625</ele>
        <time>2018-10-14T10:17:57Z</time>
      </trkpt>
      <trkpt lat="37.21468" lon="-8.69189">
        <ele>102.51770019531</ele>
        <time>2018-10-14T10:18:15Z</time>
      </trkpt>
      <trkpt lat="37.21423" lon="-8.69202">
        <ele>105.40173339844</ele>
        <time>2018-10-14T10:18:31Z</time>
      </trkpt>
      <trkpt lat="37.2141" lon="-8.69208">
        <ele>107.32434082031</ele>
        <time>2018-10-14T10:18:36Z</time>
      </trkpt>
      <trkpt lat="37.21368" lon="-8.69246">
        <ele>109.24694824219</ele>
        <time>2018-10-14T10:18:55Z</time>
      </trkpt>
      <trkpt lat="37.21365" lon="-8.69276">
        <ele>112.61157226562</ele>
        <time>2018-10-14T10:19:05Z</time>
      </trkpt>
      <trkpt lat="37.21371" lon="-8.69289">
        <ele>115.01489257812</ele>
        <time>2018-10-14T10:19:10Z</time>
      </trkpt>
      <trkpt lat="37.21381" lon="-8.69299">
        <ele>117.41821289062</ele>
        <time>2018-10-14T10:19:16Z</time>
      </trkpt>
      <trkpt lat="37.21385" lon="-8.69301">
        <ele>119.3408203125</ele>
        <time>2018-10-14T10:19:18Z</time>
      </trkpt>
      <trkpt lat="37.21413" lon="-8.69302">
        <ele>122.22473144531</ele>
        <time>2018-10-14T10:19:33Z</time>
      </trkpt>
      <trkpt lat="37.21435" lon="-8.69307">
        <ele>126.06994628906</ele>
        <time>2018-10-14T10:19:43Z</time>
      </trkpt>
      <trkpt lat="37.21451" lon="-8.69315">
        <ele>129.43469238281</ele>
        <time>2018-10-14T10:19:50Z</time>
      </trkpt>
      <trkpt lat="37.21456" lon="-8.69317">
        <ele>130.39599609375</ele>
        <time>2018-10-14T10:19:52Z</time>
      </trkpt>
      <trkpt lat="37.2147" lon="-8.69323">
        <ele>133.76049804688</ele>
        <time>2018-10-14T10:19:59Z</time>
      </trkpt>
      <trkpt lat="37.21472" lon="-8.69324">
        <ele>133.76049804688</ele>
        <time>2018-10-14T10:20:00Z</time>
      </trkpt>
      <trkpt lat="37.21478" lon="-8.6933">
        <ele>135.20251464844</ele>
        <time>2018-10-14T10:20:04Z</time>
      </trkpt>
      <trkpt lat="37.21495" lon="-8.69355">
        <ele>138.08654785156</ele>
        <time>2018-10-14T10:20:16Z</time>
      </trkpt>
      <trkpt lat="37.21502" lon="-8.69383">
        <ele>141.45104980469</ele>
        <time>2018-10-14T10:20:26Z</time>
      </trkpt>
      <trkpt lat="37.21499" lon="-8.69403">
        <ele>143.85437011719</ele>
        <time>2018-10-14T10:20:33Z</time>
      </trkpt>
      <trkpt lat="37.21483" lon="-8.69418">
        <ele>147.69970703125</ele>
        <time>2018-10-14T10:20:41Z</time>
      </trkpt>
      <trkpt lat="37.21454" lon="-8.69429">
        <ele>150.10302734375</ele>
        <time>2018-10-14T10:20:53Z</time>
      </trkpt>
      <trkpt lat="37.21449" lon="-8.69431">
        <ele>150.10302734375</ele>
        <time>2018-10-14T10:21:02Z</time>
      </trkpt>
      <trkpt lat="37.21449" lon="-8.69431">
        <ele>149.1416015625</ele>
        <time>2018-10-14T10:22:12Z</time>
      </trkpt>
      <trkpt lat="37.21449" lon="-8.69431">
        <ele>149.1416015625</ele>
        <time>2018-10-14T10:23:35Z</time>
      </trkpt>
      <trkpt lat="37.21449" lon="-8.69431">
        <ele>149.1416015625</ele>
        <time>2018-10-14T10:23:37Z</time>
      </trkpt>
      <trkpt lat="37.21491" lon="-8.69464">
        <ele>148.18041992188</ele>
        <time>2018-10-14T10:23:53Z</time>
      </trkpt>
      <trkpt lat="37.21499" lon="-8.69477">
        <ele>145.29638671875</ele>
        <time>2018-10-14T10:23:57Z</time>
      </trkpt>
      <trkpt lat="37.21512" lon="-8.69506">
        <ele>141.93176269531</ele>
        <time>2018-10-14T10:24:05Z</time>
      </trkpt>
      <trkpt lat="37.21519" lon="-8.69528">
        <ele>138.08654785156</ele>
        <time>2018-10-14T10:24:10Z</time>
      </trkpt>
      <trkpt lat="37.21523" lon="-8.69546">
        <ele>135.20251464844</ele>
        <time>2018-10-14T10:24:13Z</time>
      </trkpt>
      <trkpt lat="37.21527" lon="-8.69557">
        <ele>134.2412109375</ele>
        <time>2018-10-14T10:24:15Z</time>
      </trkpt>
      <trkpt lat="37.21541" lon="-8.69587">
        <ele>130.39599609375</ele>
        <time>2018-10-14T10:24:22Z</time>
      </trkpt>
      <trkpt lat="37.21557" lon="-8.69609">
        <ele>126.55065917969</ele>
        <time>2018-10-14T10:24:28Z</time>
      </trkpt>
      <trkpt lat="37.21566" lon="-8.69625">
        <ele>124.62805175781</ele>
        <time>2018-10-14T10:24:33Z</time>
      </trkpt>
      <trkpt lat="37.21569" lon="-8.69641">
        <ele>122.22473144531</ele>
        <time>2018-10-14T10:24:37Z</time>
      </trkpt>
      <trkpt lat="37.21557" lon="-8.69659">
        <ele>118.37939453125</ele>
        <time>2018-10-14T10:24:44Z</time>
      </trkpt>
      <trkpt lat="37.21553" lon="-8.69661">
        <ele>118.86010742188</ele>
        <time>2018-10-14T10:24:45Z</time>
      </trkpt>
      <trkpt lat="37.21526" lon="-8.69668">
        <ele>115.49560546875</ele>
        <time>2018-10-14T10:24:53Z</time>
      </trkpt>
      <trkpt lat="37.21515" lon="-8.69694">
        <ele>112.61157226562</ele>
        <time>2018-10-14T10:24:58Z</time>
      </trkpt>
      <trkpt lat="37.21508" lon="-8.69714">
        <ele>111.65026855469</ele>
        <time>2018-10-14T10:25:01Z</time>
      </trkpt>
      <trkpt lat="37.21465" lon="-8.6979">
        <ele>109.72766113281</ele>
        <time>2018-10-14T10:25:15Z</time>
      </trkpt>
      <trkpt lat="37.21451" lon="-8.69817">
        <ele>110.20825195312</ele>
        <time>2018-10-14T10:25:21Z</time>
      </trkpt>
      <trkpt lat="37.21438" lon="-8.69835">
        <ele>107.80505371094</ele>
        <time>2018-10-14T10:25:25Z</time>
      </trkpt>
      <trkpt lat="37.21425" lon="-8.69852">
        <ele>106.36303710938</ele>
        <time>2018-10-14T10:25:28Z</time>
      </trkpt>
      <trkpt lat="37.21411" lon="-8.69878">
        <ele>103.95971679688</ele>
        <time>2018-10-14T10:25:33Z</time>
      </trkpt>
      <trkpt lat="37.21401" lon="-8.69893">
        <ele>102.037109375</ele>
        <time>2018-10-14T10:25:36Z</time>
      </trkpt>
      <trkpt lat="37.21396" lon="-8.69897">
        <ele>101.55639648438</ele>
        <time>2018-10-14T10:25:37Z</time>
      </trkpt>
      <trkpt lat="37.21365" lon="-8.69924">
        <ele>97.711181640625</ele>
        <time>2018-10-14T10:25:43Z</time>
      </trkpt>
      <trkpt lat="37.21349" lon="-8.69939">
        <ele>93.865844726562</ele>
        <time>2018-10-14T10:25:46Z</time>
      </trkpt>
      <trkpt lat="37.21337" lon="-8.69944">
        <ele>92.904541015625</ele>
        <time>2018-10-14T10:25:49Z</time>
      </trkpt>
      <trkpt lat="37.21333" lon="-8.69934">
        <ele>92.423950195312</ele>
        <time>2018-10-14T10:25:54Z</time>
      </trkpt>
      <trkpt lat="37.2134" lon="-8.69908">
        <ele>90.020629882812</ele>
        <time>2018-10-14T10:25:58Z</time>
      </trkpt>
      <trkpt lat="37.21342" lon="-8.69902">
        <ele>89.539916992188</ele>
        <time>2018-10-14T10:25:59Z</time>
      </trkpt>
      <trkpt lat="37.21373" lon="-8.69858">
        <ele>87.136596679688</ele>
        <time>2018-10-14T10:26:08Z</time>
      </trkpt>
      <trkpt lat="37.21366" lon="-8.69847">
        <ele>88.098022460938</ele>
        <time>2018-10-14T10:26:14Z</time>
      </trkpt>
      <trkpt lat="37.2133" lon="-8.69841">
        <ele>89.059326171875</ele>
        <time>2018-10-14T10:26:24Z</time>
      </trkpt>
      <trkpt lat="37.2132" lon="-8.69846">
        <ele>88.098022460938</ele>
        <time>2018-10-14T10:26:28Z</time>
      </trkpt>
      <trkpt lat="37.21312" lon="-8.6987">
        <ele>88.098022460938</ele>
        <time>2018-10-14T10:26:33Z</time>
      </trkpt>
      <trkpt lat="37.21267" lon="-8.69881">
        <ele>88.098022460938</ele>
        <time>2018-10-14T10:26:44Z</time>
      </trkpt>
      <trkpt lat="37.21259" lon="-8.6989">
        <ele>88.098022460938</ele>
        <time>2018-10-14T10:26:47Z</time>
      </trkpt>
      <trkpt lat="37.21241" lon="-8.69902">
        <ele>89.059326171875</ele>
        <time>2018-10-14T10:26:52Z</time>
      </trkpt>
      <trkpt lat="37.21218" lon="-8.69885">
        <ele>90.020629882812</ele>
        <time>2018-10-14T10:26:59Z</time>
      </trkpt>
      <trkpt lat="37.21213" lon="-8.69893">
        <ele>90.501342773438</ele>
        <time>2018-10-14T10:27:05Z</time>
      </trkpt>
      <trkpt lat="37.21213" lon="-8.69915">
        <ele>89.059326171875</ele>
        <time>2018-10-14T10:27:11Z</time>
      </trkpt>
      <trkpt lat="37.21212" lon="-8.69936">
        <ele>87.6171875</ele>
        <time>2018-10-14T10:27:16Z</time>
      </trkpt>
      <trkpt lat="37.21187" lon="-8.69967">
        <ele>87.136596679688</ele>
        <time>2018-10-14T10:27:28Z</time>
      </trkpt>
      <trkpt lat="37.21154" lon="-8.69992">
        <ele>87.136596679688</ele>
        <time>2018-10-14T10:27:37Z</time>
      </trkpt>
      <trkpt lat="37.21133" lon="-8.69998">
        <ele>87.6171875</ele>
        <time>2018-10-14T10:27:44Z</time>
      </trkpt>
      <trkpt lat="37.21123" lon="-8.69999">
        <ele>87.136596679688</ele>
        <time>2018-10-14T10:27:47Z</time>
      </trkpt>
      <trkpt lat="37.21103" lon="-8.70015">
        <ele>87.6171875</ele>
        <time>2018-10-14T10:27:52Z</time>
      </trkpt>
      <trkpt lat="37.21087" lon="-8.70028">
        <ele>89.059326171875</ele>
        <time>2018-10-14T10:28:00Z</time>
      </trkpt>
      <trkpt lat="37.21084" lon="-8.70027">
        <ele>89.539916992188</ele>
        <time>2018-10-14T10:28:01Z</time>
      </trkpt>
      <trkpt lat="37.21075" lon="-8.70024">
        <ele>90.98193359375</ele>
        <time>2018-10-14T10:28:04Z</time>
      </trkpt>
      <trkpt lat="37.2107" lon="-8.70021">
        <ele>90.98193359375</ele>
        <time>2018-10-14T10:28:06Z</time>
      </trkpt>
      <trkpt lat="37.21061" lon="-8.70044">
        <ele>91.462524414062</ele>
        <time>2018-10-14T10:28:10Z</time>
      </trkpt>
      <trkpt lat="37.21061" lon="-8.7006">
        <ele>90.98193359375</ele>
        <time>2018-10-14T10:28:13Z</time>
      </trkpt>
      <trkpt lat="37.21034" lon="-8.70102">
        <ele>88.098022460938</ele>
        <time>2018-10-14T10:28:23Z</time>
      </trkpt>
      <trkpt lat="37.21011" lon="-8.70095">
        <ele>89.539916992188</ele>
        <time>2018-10-14T10:28:29Z</time>
      </trkpt>
      <trkpt lat="37.20972" lon="-8.70051">
        <ele>91.462524414062</ele>
        <time>2018-10-14T10:28:43Z</time>
      </trkpt>
      <trkpt lat="37.20962" lon="-8.70078">
        <ele>90.020629882812</ele>
        <time>2018-10-14T10:28:51Z</time>
      </trkpt>
      <trkpt lat="37.20964" lon="-8.70101">
        <ele>88.098022460938</ele>
        <time>2018-10-14T10:28:55Z</time>
      </trkpt>
      <trkpt lat="37.20951" lon="-8.70143">
        <ele>86.17529296875</ele>
        <time>2018-10-14T10:29:04Z</time>
      </trkpt>
      <trkpt lat="37.20947" lon="-8.70143">
        <ele>86.17529296875</ele>
        <time>2018-10-14T10:29:05Z</time>
      </trkpt>
      <trkpt lat="37.20928" lon="-8.70146">
        <ele>86.656005859375</ele>
        <time>2018-10-14T10:29:09Z</time>
      </trkpt>
      <trkpt lat="37.20902" lon="-8.70139">
        <ele>86.656005859375</ele>
        <time>2018-10-14T10:29:15Z</time>
      </trkpt>
      <trkpt lat="37.20875" lon="-8.7013">
        <ele>88.578735351562</ele>
        <time>2018-10-14T10:29:21Z</time>
      </trkpt>
      <trkpt lat="37.20862" lon="-8.70128">
        <ele>87.6171875</ele>
        <time>2018-10-14T10:29:24Z</time>
      </trkpt>
      <trkpt lat="37.20817" lon="-8.70125">
        <ele>87.6171875</ele>
        <time>2018-10-14T10:29:34Z</time>
      </trkpt>
      <trkpt lat="37.20813" lon="-8.70122">
        <ele>87.6171875</ele>
        <time>2018-10-14T10:29:35Z</time>
      </trkpt>
      <trkpt lat="37.208" lon="-8.70115">
        <ele>87.136596679688</ele>
        <time>2018-10-14T10:29:38Z</time>
      </trkpt>
      <trkpt lat="37.20778" lon="-8.70105">
        <ele>87.6171875</ele>
        <time>2018-10-14T10:29:43Z</time>
      </trkpt>
      <trkpt lat="37.20754" lon="-8.70088">
        <ele>87.136596679688</ele>
        <time>2018-10-14T10:29:49Z</time>
      </trkpt>
      <trkpt lat="37.20736" lon="-8.7007">
        <ele>88.098022460938</ele>
        <time>2018-10-14T10:29:54Z</time>
      </trkpt>
      <trkpt lat="37.20709" lon="-8.7005">
        <ele>87.6171875</ele>
        <time>2018-10-14T10:30:01Z</time>
      </trkpt>
      <trkpt lat="37.20692" lon="-8.70043">
        <ele>87.136596679688</ele>
        <time>2018-10-14T10:30:05Z</time>
      </trkpt>
      <trkpt lat="37.20676" lon="-8.70031">
        <ele>86.656005859375</ele>
        <time>2018-10-14T10:30:09Z</time>
      </trkpt>
      <trkpt lat="37.20636" lon="-8.70006">
        <ele>86.656005859375</ele>
        <time>2018-10-14T10:30:19Z</time>
      </trkpt>
      <trkpt lat="37.20632" lon="-8.70003">
        <ele>86.656005859375</ele>
        <time>2018-10-14T10:30:20Z</time>
      </trkpt>
      <trkpt lat="37.206" lon="-8.69974">
        <ele>87.136596679688</ele>
        <time>2018-10-14T10:30:28Z</time>
      </trkpt>
      <trkpt lat="37.20581" lon="-8.69953">
        <ele>87.6171875</ele>
        <time>2018-10-14T10:30:34Z</time>
      </trkpt>
      <trkpt lat="37.20566" lon="-8.6992">
        <ele>87.6171875</ele>
        <time>2018-10-14T10:30:42Z</time>
      </trkpt>
      <trkpt lat="37.20576" lon="-8.69893">
        <ele>88.098022460938</ele>
        <time>2018-10-14T10:30:49Z</time>
      </trkpt>
      <trkpt lat="37.20582" lon="-8.69879">
        <ele>88.098022460938</ele>
        <time>2018-10-14T10:30:52Z</time>
      </trkpt>
      <trkpt lat="37.20587" lon="-8.69866">
        <ele>87.6171875</ele>
        <time>2018-10-14T10:30:55Z</time>
      </trkpt>
      <trkpt lat="37.20595" lon="-8.69835">
        <ele>88.098022460938</ele>
        <time>2018-10-14T10:31:01Z</time>
      </trkpt>
      <trkpt lat="37.20606" lon="-8.69812">
        <ele>87.6171875</ele>
        <time>2018-10-14T10:31:07Z</time>
      </trkpt>
      <trkpt lat="37.20613" lon="-8.69806">
        <ele>87.6171875</ele>
        <time>2018-10-14T10:31:09Z</time>
      </trkpt>
      <trkpt lat="37.20656" lon="-8.6977">
        <ele>87.136596679688</ele>
        <time>2018-10-14T10:31:20Z</time>
      </trkpt>
      <trkpt lat="37.20708" lon="-8.69739">
        <ele>87.136596679688</ele>
        <time>2018-10-14T10:31:34Z</time>
      </trkpt>
      <trkpt lat="37.2073" lon="-8.69731">
        <ele>88.098022460938</ele>
        <time>2018-10-14T10:31:39Z</time>
      </trkpt>
      <trkpt lat="37.20747" lon="-8.69724">
        <ele>88.098022460938</ele>
        <time>2018-10-14T10:31:43Z</time>
      </trkpt>
      <trkpt lat="37.20784" lon="-8.6971">
        <ele>88.098022460938</ele>
        <time>2018-10-14T10:31:52Z</time>
      </trkpt>
      <trkpt lat="37.20803" lon="-8.69703">
        <ele>88.098022460938</ele>
        <time>2018-10-14T10:31:57Z</time>
      </trkpt>
      <trkpt lat="37.20813" lon="-8.69676">
        <ele>88.578735351562</ele>
        <time>2018-10-14T10:32:03Z</time>
      </trkpt>
      <trkpt lat="37.20812" lon="-8.69655">
        <ele>88.098022460938</ele>
        <time>2018-10-14T10:32:07Z</time>
      </trkpt>
      <trkpt lat="37.2084" lon="-8.69631">
        <ele>89.059326171875</ele>
        <time>2018-10-14T10:32:17Z</time>
      </trkpt>
      <trkpt lat="37.2086" lon="-8.6962">
        <ele>88.578735351562</ele>
        <time>2018-10-14T10:32:22Z</time>
      </trkpt>
      <trkpt lat="37.20892" lon="-8.69613">
        <ele>88.098022460938</ele>
        <time>2018-10-14T10:32:31Z</time>
      </trkpt>
      <trkpt lat="37.20895" lon="-8.69614">
        <ele>88.098022460938</ele>
        <time>2018-10-14T10:32:32Z</time>
      </trkpt>
      <trkpt lat="37.20908" lon="-8.69628">
        <ele>89.539916992188</ele>
        <time>2018-10-14T10:32:36Z</time>
      </trkpt>
      <trkpt lat="37.20914" lon="-8.69635">
        <ele>90.020629882812</ele>
        <time>2018-10-14T10:32:38Z</time>
      </trkpt>
      <trkpt lat="37.20949" lon="-8.6968">
        <ele>93.865844726562</ele>
        <time>2018-10-14T10:32:52Z</time>
      </trkpt>
      <trkpt lat="37.20983" lon="-8.69683">
        <ele>96.269287109375</ele>
        <time>2018-10-14T10:33:06Z</time>
      </trkpt>
      <trkpt lat="37.20979" lon="-8.69655">
        <ele>97.711181640625</ele>
        <time>2018-10-14T10:33:14Z</time>
      </trkpt>
      <trkpt lat="37.20989" lon="-8.69631">
        <ele>98.19189453125</ele>
        <time>2018-10-14T10:33:23Z</time>
      </trkpt>
      <trkpt lat="37.20995" lon="-8.69625">
        <ele>97.23046875</ele>
        <time>2018-10-14T10:33:25Z</time>
      </trkpt>
      <trkpt lat="37.21013" lon="-8.69602">
        <ele>96.269287109375</ele>
        <time>2018-10-14T10:33:30Z</time>
      </trkpt>
      <trkpt lat="37.21046" lon="-8.69578">
        <ele>92.904541015625</ele>
        <time>2018-10-14T10:33:36Z</time>
      </trkpt>
      <trkpt lat="37.2107" lon="-8.69559">
        <ele>90.501342773438</ele>
        <time>2018-10-14T10:33:42Z</time>
      </trkpt>
      <trkpt lat="37.21067" lon="-8.69549">
        <ele>88.578735351562</ele>
        <time>2018-10-14T10:33:47Z</time>
      </trkpt>
      <trkpt lat="37.21059" lon="-8.69548">
        <ele>88.098022460938</ele>
        <time>2018-10-14T10:33:49Z</time>
      </trkpt>
      <trkpt lat="37.21002" lon="-8.69541">
        <ele>88.578735351562</ele>
        <time>2018-10-14T10:34:02Z</time>
      </trkpt>
      <trkpt lat="37.20985" lon="-8.69534">
        <ele>88.578735351562</ele>
        <time>2018-10-14T10:34:06Z</time>
      </trkpt>
      <trkpt lat="37.2096" lon="-8.69523">
        <ele>88.578735351562</ele>
        <time>2018-10-14T10:34:12Z</time>
      </trkpt>
      <trkpt lat="37.20951" lon="-8.69495">
        <ele>88.578735351562</ele>
        <time>2018-10-14T10:34:19Z</time>
      </trkpt>
      <trkpt lat="37.20958" lon="-8.69469">
        <ele>88.578735351562</ele>
        <time>2018-10-14T10:34:25Z</time>
      </trkpt>
      <trkpt lat="37.20973" lon="-8.69431">
        <ele>88.098022460938</ele>
        <time>2018-10-14T10:34:33Z</time>
      </trkpt>
      <trkpt lat="37.20957" lon="-8.6941">
        <ele>88.578735351562</ele>
        <time>2018-10-14T10:34:40Z</time>
      </trkpt>
      <trkpt lat="37.20951" lon="-8.69405">
        <ele>88.098022460938</ele>
        <time>2018-10-14T10:34:42Z</time>
      </trkpt>
      <trkpt lat="37.20945" lon="-8.69403">
        <ele>86.656005859375</ele>
        <time>2018-10-14T10:34:44Z</time>
      </trkpt>
      <trkpt lat="37.20943" lon="-8.69404">
        <ele>86.17529296875</ele>
        <time>2018-10-14T10:34:45Z</time>
      </trkpt>
      <trkpt lat="37.20934" lon="-8.69405">
        <ele>86.17529296875</ele>
        <time>2018-10-14T10:34:50Z</time>
      </trkpt>
      <trkpt lat="37.20921" lon="-8.69458">
        <ele>86.17529296875</ele>
        <time>2018-10-14T10:35:08Z</time>
      </trkpt>
      <trkpt lat="37.20897" lon="-8.69492">
        <ele>86.656005859375</ele>
        <time>2018-10-14T10:35:19Z</time>
      </trkpt>
      <trkpt lat="37.20883" lon="-8.69507">
        <ele>86.656005859375</ele>
        <time>2018-10-14T10:35:23Z</time>
      </trkpt>
      <trkpt lat="37.20862" lon="-8.69517">
        <ele>87.136596679688</ele>
        <time>2018-10-14T10:35:28Z</time>
      </trkpt>
      <trkpt lat="37.20831" lon="-8.6952">
        <ele>88.098022460938</ele>
        <time>2018-10-14T10:35:35Z</time>
      </trkpt>
      <trkpt lat="37.20807" lon="-8.69532">
        <ele>88.578735351562</ele>
        <time>2018-10-14T10:35:41Z</time>
      </trkpt>
      <trkpt lat="37.20753" lon="-8.69563">
        <ele>89.059326171875</ele>
        <time>2018-10-14T10:35:56Z</time>
      </trkpt>
      <trkpt lat="37.20716" lon="-8.6957">
        <ele>89.059326171875</ele>
        <time>2018-10-14T10:36:05Z</time>
      </trkpt>
      <trkpt lat="37.20684" lon="-8.69579">
        <ele>89.059326171875</ele>
        <time>2018-10-14T10:36:12Z</time>
      </trkpt>
      <trkpt lat="37.20666" lon="-8.69584">
        <ele>89.059326171875</ele>
        <time>2018-10-14T10:36:16Z</time>
      </trkpt>
      <trkpt lat="37.20607" lon="-8.69592">
        <ele>91.943237304688</ele>
        <time>2018-10-14T10:36:30Z</time>
      </trkpt>
      <trkpt lat="37.20554" lon="-8.69576">
        <ele>91.943237304688</ele>
        <time>2018-10-14T10:36:44Z</time>
      </trkpt>
      <trkpt lat="37.20542" lon="-8.69568">
        <ele>92.904541015625</ele>
        <time>2018-10-14T10:36:47Z</time>
      </trkpt>
      <trkpt lat="37.20505" lon="-8.69548">
        <ele>91.943237304688</ele>
        <time>2018-10-14T10:36:56Z</time>
      </trkpt>
      <trkpt lat="37.2049" lon="-8.69544">
        <ele>89.539916992188</ele>
        <time>2018-10-14T10:36:58Z</time>
      </trkpt>
      <trkpt lat="37.20462" lon="-8.69536">
        <ele>89.059326171875</ele>
        <time>2018-10-14T10:37:02Z</time>
      </trkpt>
      <trkpt lat="37.20434" lon="-8.69544">
        <ele>87.136596679688</ele>
        <time>2018-10-14T10:37:09Z</time>
      </trkpt>
      <trkpt lat="37.20414" lon="-8.69567">
        <ele>86.656005859375</ele>
        <time>2018-10-14T10:37:15Z</time>
      </trkpt>
      <trkpt lat="37.20383" lon="-8.69588">
        <ele>87.136596679688</ele>
        <time>2018-10-14T10:37:28Z</time>
      </trkpt>
      <trkpt lat="37.20361" lon="-8.6959">
        <ele>86.656005859375</ele>
        <time>2018-10-14T10:37:39Z</time>
      </trkpt>
      <trkpt lat="37.2036" lon="-8.69608">
        <ele>86.656005859375</ele>
        <time>2018-10-14T10:37:44Z</time>
      </trkpt>
      <trkpt lat="37.20332" lon="-8.69637">
        <ele>87.6171875</ele>
        <time>2018-10-14T10:37:55Z</time>
      </trkpt>
      <trkpt lat="37.20321" lon="-8.69646">
        <ele>87.6171875</ele>
        <time>2018-10-14T10:37:59Z</time>
      </trkpt>
      <trkpt lat="37.20319" lon="-8.6966">
        <ele>87.6171875</ele>
        <time>2018-10-14T10:38:06Z</time>
      </trkpt>
      <trkpt lat="37.20326" lon="-8.69684">
        <ele>89.059326171875</ele>
        <time>2018-10-14T10:38:11Z</time>
      </trkpt>
      <trkpt lat="37.20339" lon="-8.6976">
        <ele>90.98193359375</ele>
        <time>2018-10-14T10:38:27Z</time>
      </trkpt>
      <trkpt lat="37.20338" lon="-8.69776">
        <ele>90.020629882812</ele>
        <time>2018-10-14T10:38:30Z</time>
      </trkpt>
      <trkpt lat="37.20326" lon="-8.69832">
        <ele>90.501342773438</ele>
        <time>2018-10-14T10:38:43Z</time>
      </trkpt>
      <trkpt lat="37.203" lon="-8.69827">
        <ele>89.059326171875</ele>
        <time>2018-10-14T10:38:54Z</time>
      </trkpt>
      <trkpt lat="37.20267" lon="-8.69805">
        <ele>89.059326171875</ele>
        <time>2018-10-14T10:39:07Z</time>
      </trkpt>
      <trkpt lat="37.20234" lon="-8.69774">
        <ele>89.539916992188</ele>
        <time>2018-10-14T10:39:20Z</time>
      </trkpt>
      <trkpt lat="37.20227" lon="-8.69765">
        <ele>90.020629882812</ele>
        <time>2018-10-14T10:39:36Z</time>
      </trkpt>
      <trkpt lat="37.20216" lon="-8.69756">
        <ele>89.059326171875</ele>
        <time>2018-10-14T10:39:44Z</time>
      </trkpt>
      <trkpt lat="37.20212" lon="-8.69755">
        <ele>88.098022460938</ele>
        <time>2018-10-14T10:39:46Z</time>
      </trkpt>
      <trkpt lat="37.2021" lon="-8.69758">
        <ele>88.098022460938</ele>
        <time>2018-10-14T10:39:48Z</time>
      </trkpt>
      <trkpt lat="37.20216" lon="-8.69805">
        <ele>89.059326171875</ele>
        <time>2018-10-14T10:40:02Z</time>
      </trkpt>
      <trkpt lat="37.2019" lon="-8.69858">
        <ele>88.098022460938</ele>
        <time>2018-10-14T10:40:16Z</time>
      </trkpt>
      <trkpt lat="37.20161" lon="-8.6987">
        <ele>88.098022460938</ele>
        <time>2018-10-14T10:40:31Z</time>
      </trkpt>
      <trkpt lat="37.20145" lon="-8.69875">
        <ele>88.098022460938</ele>
        <time>2018-10-14T10:40:39Z</time>
      </trkpt>
      <trkpt lat="37.20121" lon="-8.69854">
        <ele>90.501342773438</ele>
        <time>2018-10-14T10:40:47Z</time>
      </trkpt>
      <trkpt lat="37.20101" lon="-8.69836">
        <ele>93.865844726562</ele>
        <time>2018-10-14T10:40:55Z</time>
      </trkpt>
      <trkpt lat="37.20091" lon="-8.69829">
        <ele>96.269287109375</ele>
        <time>2018-10-14T10:40:59Z</time>
      </trkpt>
      <trkpt lat="37.20067" lon="-8.6981">
        <ele>99.153076171875</ele>
        <time>2018-10-14T10:41:09Z</time>
      </trkpt>
      <trkpt lat="37.20047" lon="-8.69794">
        <ele>102.51770019531</ele>
        <time>2018-10-14T10:41:17Z</time>
      </trkpt>
      <trkpt lat="37.20026" lon="-8.69782">
        <ele>105.88244628906</ele>
        <time>2018-10-14T10:41:25Z</time>
      </trkpt>
      <trkpt lat="37.20023" lon="-8.69782">
        <ele>105.88244628906</ele>
        <time>2018-10-14T10:41:26Z</time>
      </trkpt>
      <trkpt lat="37.20004" lon="-8.6981">
        <ele>108.76623535156</ele>
        <time>2018-10-14T10:41:36Z</time>
      </trkpt>
      <trkpt lat="37.20018" lon="-8.69845">
        <ele>110.68884277344</ele>
        <time>2018-10-14T10:41:46Z</time>
      </trkpt>
      <trkpt lat="37.2007" lon="-8.69918">
        <ele>113.57299804688</ele>
        <time>2018-10-14T10:42:07Z</time>
      </trkpt>
      <trkpt lat="37.20086" lon="-8.69945">
        <ele>113.09228515625</ele>
        <time>2018-10-14T10:42:19Z</time>
      </trkpt>
      <trkpt lat="37.20086" lon="-8.69945">
        <ele>112.61157226562</ele>
        <time>2018-10-14T10:42:29Z</time>
      </trkpt>
      <trkpt lat="37.20086" lon="-8.69945">
        <ele>113.09228515625</ele>
        <time>2018-10-14T10:43:56Z</time>
      </trkpt>
      <trkpt lat="37.20097" lon="-8.69948">
        <ele>114.5341796875</ele>
        <time>2018-10-14T10:44:04Z</time>
      </trkpt>
      <trkpt lat="37.20097" lon="-8.70036">
        <ele>118.37939453125</ele>
        <time>2018-10-14T10:44:22Z</time>
      </trkpt>
      <trkpt lat="37.20094" lon="-8.70059">
        <ele>120.30212402344</ele>
        <time>2018-10-14T10:44:27Z</time>
      </trkpt>
      <trkpt lat="37.20091" lon="-8.70076">
        <ele>120.78283691406</ele>
        <time>2018-10-14T10:44:31Z</time>
      </trkpt>
      <trkpt lat="37.20079" lon="-8.70118">
        <ele>123.66674804688</ele>
        <time>2018-10-14T10:44:41Z</time>
      </trkpt>
      <trkpt lat="37.20069" lon="-8.70151">
        <ele>125.58935546875</ele>
        <time>2018-10-14T10:44:49Z</time>
      </trkpt>
      <trkpt lat="37.20057" lon="-8.70188">
        <ele>129.43469238281</ele>
        <time>2018-10-14T10:44:58Z</time>
      </trkpt>
      <trkpt lat="37.20056" lon="-8.70192">
        <ele>128.9541015625</ele>
        <time>2018-10-14T10:44:59Z</time>
      </trkpt>
      <trkpt lat="37.2004" lon="-8.7027">
        <ele>132.79931640625</ele>
        <time>2018-10-14T10:45:17Z</time>
      </trkpt>
      <trkpt lat="37.20032" lon="-8.70321">
        <ele>135.68310546875</ele>
        <time>2018-10-14T10:45:28Z</time>
      </trkpt>
      <trkpt lat="37.20016" lon="-8.70395">
        <ele>135.20251464844</ele>
        <time>2018-10-14T10:45:43Z</time>
      </trkpt>
      <trkpt lat="37.19962" lon="-8.70453">
        <ele>135.68310546875</ele>
        <time>2018-10-14T10:45:58Z</time>
      </trkpt>
      <trkpt lat="37.19877" lon="-8.70517">
        <ele>134.2412109375</ele>
        <time>2018-10-14T10:46:16Z</time>
      </trkpt>
      <trkpt lat="37.1978" lon="-8.70579">
        <ele>135.68310546875</ele>
        <time>2018-10-14T10:46:36Z</time>
      </trkpt>
      <trkpt lat="37.19758" lon="-8.70584">
        <ele>134.2412109375</ele>
        <time>2018-10-14T10:46:41Z</time>
      </trkpt>
      <trkpt lat="37.19743" lon="-8.70587">
        <ele>134.2412109375</ele>
        <time>2018-10-14T10:46:45Z</time>
      </trkpt>
      <trkpt lat="37.19749" lon="-8.70601">
        <ele>135.20251464844</ele>
        <time>2018-10-14T10:46:51Z</time>
      </trkpt>
      <trkpt lat="37.19789" lon="-8.70629">
        <ele>138.08654785156</ele>
        <time>2018-10-14T10:47:04Z</time>
      </trkpt>
      <trkpt lat="37.19797" lon="-8.70645">
        <ele>137.60583496094</ele>
        <time>2018-10-14T10:47:08Z</time>
      </trkpt>
      <trkpt lat="37.19816" lon="-8.70695">
        <ele>134.2412109375</ele>
        <time>2018-10-14T10:47:19Z</time>
      </trkpt>
      <trkpt lat="37.19826" lon="-8.70721">
        <ele>131.35729980469</ele>
        <time>2018-10-14T10:47:24Z</time>
      </trkpt>
      <trkpt lat="37.1983" lon="-8.70735">
        <ele>129.91528320312</ele>
        <time>2018-10-14T10:47:27Z</time>
      </trkpt>
      <trkpt lat="37.19836" lon="-8.70764">
        <ele>127.03137207031</ele>
        <time>2018-10-14T10:47:34Z</time>
      </trkpt>
      <trkpt lat="37.19839" lon="-8.70774">
        <ele>124.62805175781</ele>
        <time>2018-10-14T10:47:37Z</time>
      </trkpt>
      <trkpt lat="37.19842" lon="-8.70778">
        <ele>123.66674804688</ele>
        <time>2018-10-14T10:47:39Z</time>
      </trkpt>
      <trkpt lat="37.19851" lon="-8.70792">
        <ele>120.30212402344</ele>
        <time>2018-10-14T10:47:45Z</time>
      </trkpt>
      <trkpt lat="37.19864" lon="-8.70809">
        <ele>117.89880371094</ele>
        <time>2018-10-14T10:47:51Z</time>
      </trkpt>
      <trkpt lat="37.19877" lon="-8.70828">
        <ele>116.45678710938</ele>
        <time>2018-10-14T10:47:55Z</time>
      </trkpt>
      <trkpt lat="37.19893" lon="-8.70866">
        <ele>117.89880371094</ele>
        <time>2018-10-14T10:48:05Z</time>
      </trkpt>
      <trkpt lat="37.19892" lon="-8.70873">
        <ele>118.86010742188</ele>
        <time>2018-10-14T10:48:07Z</time>
      </trkpt>
      <trkpt lat="37.19891" lon="-8.70885">
        <ele>120.78283691406</ele>
        <time>2018-10-14T10:48:11Z</time>
      </trkpt>
      <trkpt lat="37.19883" lon="-8.70911">
        <ele>124.14733886719</ele>
        <time>2018-10-14T10:48:20Z</time>
      </trkpt>
      <trkpt lat="37.1988" lon="-8.7092">
        <ele>125.58935546875</ele>
        <time>2018-10-14T10:48:23Z</time>
      </trkpt>
      <trkpt lat="37.19877" lon="-8.70942">
        <ele>128.9541015625</ele>
        <time>2018-10-14T10:48:31Z</time>
      </trkpt>
      <trkpt lat="37.19877" lon="-8.70945">
        <ele>128.9541015625</ele>
        <time>2018-10-14T10:48:32Z</time>
      </trkpt>
      <trkpt lat="37.19881" lon="-8.70963">
        <ele>132.31860351562</ele>
        <time>2018-10-14T10:48:39Z</time>
      </trkpt>
      <trkpt lat="37.19881" lon="-8.70965">
        <ele>132.31860351562</ele>
        <time>2018-10-14T10:48:40Z</time>
      </trkpt>
      <trkpt lat="37.19893" lon="-8.7096">
        <ele>132.31860351562</ele>
        <time>2018-10-14T10:48:44Z</time>
      </trkpt>
      <trkpt lat="37.19939" lon="-8.70914">
        <ele>134.72192382812</ele>
        <time>2018-10-14T10:49:04Z</time>
      </trkpt>
      <trkpt lat="37.19957" lon="-8.70906">
        <ele>137.60583496094</ele>
        <time>2018-10-14T10:49:12Z</time>
      </trkpt>
      <trkpt lat="37.1996" lon="-8.70905">
        <ele>138.08654785156</ele>
        <time>2018-10-14T10:49:13Z</time>
      </trkpt>
      <trkpt lat="37.19968" lon="-8.70902">
        <ele>139.52844238281</ele>
        <time>2018-10-14T10:49:17Z</time>
      </trkpt>
      <trkpt lat="37.20002" lon="-8.70917">
        <ele>139.52844238281</ele>
        <time>2018-10-14T10:49:33Z</time>
      </trkpt>
      <trkpt lat="37.20012" lon="-8.70929">
        <ele>137.60583496094</ele>
        <time>2018-10-14T10:49:36Z</time>
      </trkpt>
      <trkpt lat="37.20082" lon="-8.70979">
        <ele>135.20251464844</ele>
        <time>2018-10-14T10:49:54Z</time>
      </trkpt>
      <trkpt lat="37.20125" lon="-8.71031">
        <ele>132.79931640625</ele>
        <time>2018-10-14T10:50:09Z</time>
      </trkpt>
      <trkpt lat="37.20159" lon="-8.71072">
        <ele>129.91528320312</ele>
        <time>2018-10-14T10:50:18Z</time>
      </trkpt>
      <trkpt lat="37.20163" lon="-8.71076">
        <ele>129.43469238281</ele>
        <time>2018-10-14T10:50:19Z</time>
      </trkpt>
      <trkpt lat="37.2018" lon="-8.71097">
        <ele>127.99255371094</ele>
        <time>2018-10-14T10:50:23Z</time>
      </trkpt>
      <trkpt lat="37.20193" lon="-8.71117">
        <ele>127.51196289062</ele>
        <time>2018-10-14T10:50:27Z</time>
      </trkpt>
      <trkpt lat="37.20199" lon="-8.71127">
        <ele>127.99255371094</ele>
        <time>2018-10-14T10:50:29Z</time>
      </trkpt>
      <trkpt lat="37.20237" lon="-8.71169">
        <ele>131.35729980469</ele>
        <time>2018-10-14T10:50:43Z</time>
      </trkpt>
      <trkpt lat="37.20253" lon="-8.71187">
        <ele>134.72192382812</ele>
        <time>2018-10-14T10:50:51Z</time>
      </trkpt>
      <trkpt lat="37.20255" lon="-8.7119">
        <ele>134.72192382812</ele>
        <time>2018-10-14T10:50:52Z</time>
      </trkpt>
      <trkpt lat="37.20273" lon="-8.71227">
        <ele>135.20251464844</ele>
        <time>2018-10-14T10:51:07Z</time>
      </trkpt>
      <trkpt lat="37.20355" lon="-8.71226">
        <ele>136.64465332031</ele>
        <time>2018-10-14T10:51:20Z</time>
      </trkpt>
      <trkpt lat="37.20414" lon="-8.71242">
        <ele>139.52844238281</ele>
        <time>2018-10-14T10:51:39Z</time>
      </trkpt>
      <trkpt lat="37.20457" lon="-8.7125">
        <ele>141.45104980469</ele>
        <time>2018-10-14T10:51:57Z</time>
      </trkpt>
      <trkpt lat="37.20459" lon="-8.71253">
        <ele>141.45104980469</ele>
        <time>2018-10-14T10:52:08Z</time>
      </trkpt>
      <trkpt lat="37.20462" lon="-8.71252">
        <ele>141.93176269531</ele>
        <time>2018-10-14T10:53:38Z</time>
      </trkpt>
      <trkpt lat="37.20474" lon="-8.71247">
        <ele>140.97045898438</ele>
        <time>2018-10-14T10:53:44Z</time>
      </trkpt>
      <trkpt lat="37.2048" lon="-8.71244">
        <ele>140.00915527344</ele>
        <time>2018-10-14T10:53:46Z</time>
      </trkpt>
      <trkpt lat="37.20506" lon="-8.71257">
        <ele>136.64465332031</ele>
        <time>2018-10-14T10:53:52Z</time>
      </trkpt>
      <trkpt lat="37.2051" lon="-8.71262">
        <ele>135.68310546875</ele>
        <time>2018-10-14T10:53:53Z</time>
      </trkpt>
      <trkpt lat="37.20531" lon="-8.71287">
        <ele>130.87670898438</ele>
        <time>2018-10-14T10:53:58Z</time>
      </trkpt>
      <trkpt lat="37.20547" lon="-8.71315">
        <ele>127.03137207031</ele>
        <time>2018-10-14T10:54:03Z</time>
      </trkpt>
      <trkpt lat="37.2055" lon="-8.71329">
        <ele>125.58935546875</ele>
        <time>2018-10-14T10:54:05Z</time>
      </trkpt>
      <trkpt lat="37.20551" lon="-8.71345">
        <ele>124.62805175781</ele>
        <time>2018-10-14T10:54:07Z</time>
      </trkpt>
      <trkpt lat="37.20553" lon="-8.71368">
        <ele>121.744140625</ele>
        <time>2018-10-14T10:54:10Z</time>
      </trkpt>
      <trkpt lat="37.20556" lon="-8.7139">
        <ele>118.86010742188</ele>
        <time>2018-10-14T10:54:13Z</time>
      </trkpt>
      <trkpt lat="37.20552" lon="-8.71418">
        <ele>117.41821289062</ele>
        <time>2018-10-14T10:54:17Z</time>
      </trkpt>
      <trkpt lat="37.20539" lon="-8.71439">
        <ele>115.01489257812</ele>
        <time>2018-10-14T10:54:20Z</time>
      </trkpt>
      <trkpt lat="37.20526" lon="-8.7145">
        <ele>113.57299804688</ele>
        <time>2018-10-14T10:54:22Z</time>
      </trkpt>
      <trkpt lat="37.20495" lon="-8.71497">
        <ele>110.20825195312</ele>
        <time>2018-10-14T10:54:28Z</time>
      </trkpt>
      <trkpt lat="37.20489" lon="-8.71511">
        <ele>109.24694824219</ele>
        <time>2018-10-14T10:54:30Z</time>
      </trkpt>
      <trkpt lat="37.20463" lon="-8.7154">
        <ele>106.84362792969</ele>
        <time>2018-10-14T10:54:35Z</time>
      </trkpt>
      <trkpt lat="37.2045" lon="-8.71549">
        <ele>106.36303710938</ele>
        <time>2018-10-14T10:54:37Z</time>
      </trkpt>
      <trkpt lat="37.20413" lon="-8.71589">
        <ele>107.80505371094</ele>
        <time>2018-10-09T08:02:26Z</time>
      </trkpt>
      <trkpt lat="37.20498" lon="-8.71656">
        <ele>105.88244628906</ele>
        <time>2018-10-09T08:02:51Z</time>
      </trkpt>
      <trkpt lat="37.20523" lon="-8.71672">
        <ele>105.40173339844</ele>
        <time>2018-10-09T08:02:57Z</time>
      </trkpt>
      <trkpt lat="37.20605" lon="-8.71692">
        <ele>103.95971679688</ele>
        <time>2018-10-09T08:03:15Z</time>
      </trkpt>
      <trkpt lat="37.20718" lon="-8.71711">
        <ele>102.99829101562</ele>
        <time>2018-10-09T08:03:39Z</time>
      </trkpt>
      <trkpt lat="37.20743" lon="-8.71709">
        <ele>102.99829101562</ele>
        <time>2018-10-09T08:03:44Z</time>
      </trkpt>
      <trkpt lat="37.20774" lon="-8.71696">
        <ele>102.51770019531</ele>
        <time>2018-10-09T08:03:51Z</time>
      </trkpt>
      <trkpt lat="37.20854" lon="-8.71653">
        <ele>102.99829101562</ele>
        <time>2018-10-09T08:04:10Z</time>
      </trkpt>
      <trkpt lat="37.20887" lon="-8.71647">
        <ele>103.47900390625</ele>
        <time>2018-10-09T08:04:17Z</time>
      </trkpt>
      <trkpt lat="37.20909" lon="-8.71654">
        <ele>102.99829101562</ele>
        <time>2018-10-09T08:04:22Z</time>
      </trkpt>
      <trkpt lat="37.20973" lon="-8.71693">
        <ele>103.95971679688</ele>
        <time>2018-10-09T08:04:37Z</time>
      </trkpt>
      <trkpt lat="37.21024" lon="-8.71772">
        <ele>103.95971679688</ele>
        <time>2018-10-09T08:04:54Z</time>
      </trkpt>
      <trkpt lat="37.21035" lon="-8.71791">
        <ele>103.47900390625</ele>
        <time>2018-10-09T08:04:58Z</time>
      </trkpt>
      <trkpt lat="37.21098" lon="-8.7187">
        <ele>104.4404296875</ele>
        <time>2018-10-09T08:05:17Z</time>
      </trkpt>
      <trkpt lat="37.21153" lon="-8.71957">
        <ele>103.47900390625</ele>
        <time>2018-10-09T08:05:37Z</time>
      </trkpt>
      <trkpt lat="37.21182" lon="-8.72022">
        <ele>103.47900390625</ele>
        <time>2018-10-09T08:05:51Z</time>
      </trkpt>
      <trkpt lat="37.21215" lon="-8.72109">
        <ele>102.51770019531</ele>
        <time>2018-10-09T08:06:08Z</time>
      </trkpt>
      <trkpt lat="37.21268" lon="-8.72164">
        <ele>104.4404296875</ele>
        <time>2018-10-09T08:06:25Z</time>
      </trkpt>
      <trkpt lat="37.21308" lon="-8.72188">
        <ele>104.92102050781</ele>
        <time>2018-10-09T08:06:41Z</time>
      </trkpt>
      <trkpt lat="37.21312" lon="-8.7219">
        <ele>103.95971679688</ele>
        <time>2018-10-09T08:06:43Z</time>
      </trkpt>
      <trkpt lat="37.2133" lon="-8.722">
        <ele>100.59509277344</ele>
        <time>2018-10-09T08:06:49Z</time>
      </trkpt>
      <trkpt lat="37.21337" lon="-8.72204">
        <ele>99.153076171875</ele>
        <time>2018-10-09T08:06:51Z</time>
      </trkpt>
      <trkpt lat="37.21365" lon="-8.72221">
        <ele>96.749877929688</ele>
        <time>2018-10-09T08:06:59Z</time>
      </trkpt>
      <trkpt lat="37.21388" lon="-8.72235">
        <ele>95.307739257812</ele>
        <time>2018-10-09T08:10:33Z</time>
      </trkpt>
      <trkpt lat="37.21348" lon="-8.72211">
        <ele>98.672485351562</ele>
        <time>2018-10-09T08:10:53Z</time>
      </trkpt>
      <trkpt lat="37.21317" lon="-8.72193">
        <ele>102.51770019531</ele>
        <time>2018-10-09T08:11:10Z</time>
      </trkpt>
      <trkpt lat="37.21301" lon="-8.72183">
        <ele>105.88244628906</ele>
        <time>2018-10-09T08:11:23Z</time>
      </trkpt>
      <trkpt lat="37.213" lon="-8.72183">
        <ele>105.88244628906</ele>
        <time>2018-10-09T08:11:24Z</time>
      </trkpt>
      <trkpt lat="37.21309" lon="-8.72182">
        <ele>106.36303710938</ele>
        <time>2018-10-09T08:11:31Z</time>
      </trkpt>
      <trkpt lat="37.21353" lon="-8.72207">
        <ele>107.80505371094</ele>
        <time>2018-10-09T08:11:53Z</time>
      </trkpt>
      <trkpt lat="37.21411" lon="-8.72249">
        <ele>106.36303710938</ele>
        <time>2018-10-09T08:12:12Z</time>
      </trkpt>
      <trkpt lat="37.21491" lon="-8.72296">
        <ele>103.95971679688</ele>
        <time>2018-10-09T08:12:29Z</time>
      </trkpt>
      <trkpt lat="37.21552" lon="-8.7233">
        <ele>103.47900390625</ele>
        <time>2018-10-09T08:12:41Z</time>
      </trkpt>
      <trkpt lat="37.21612" lon="-8.7236">
        <ele>106.84362792969</ele>
        <time>2018-10-09T08:12:58Z</time>
      </trkpt>
      <trkpt lat="37.21633" lon="-8.72368">
        <ele>108.76623535156</ele>
        <time>2018-10-09T08:13:05Z</time>
      </trkpt>
      <trkpt lat="37.21692" lon="-8.72383">
        <ele>112.13098144531</ele>
        <time>2018-10-09T08:13:25Z</time>
      </trkpt>
      <trkpt lat="37.21738" lon="-8.72391">
        <ele>115.49560546875</ele>
        <time>2018-10-09T08:13:41Z</time>
      </trkpt>
      <trkpt lat="37.21786" lon="-8.72397">
        <ele>118.86010742188</ele>
        <time>2018-10-09T08:13:59Z</time>
      </trkpt>
      <trkpt lat="37.2183" lon="-8.72398">
        <ele>122.22473144531</ele>
        <time>2018-10-09T08:14:16Z</time>
      </trkpt>
      <trkpt lat="37.21869" lon="-8.72396">
        <ele>125.58935546875</ele>
        <time>2018-10-09T08:14:31Z</time>
      </trkpt>
      <trkpt lat="37.21911" lon="-8.72394">
        <ele>128.9541015625</ele>
        <time>2018-10-09T08:14:49Z</time>
      </trkpt>
      <trkpt lat="37.21914" lon="-8.72394">
        <ele>128.9541015625</ele>
        <time>2018-10-09T08:14:50Z</time>
      </trkpt>
      <trkpt lat="37.2196" lon="-8.72385">
        <ele>132.31860351562</ele>
        <time>2018-10-09T08:15:11Z</time>
      </trkpt>
      <trkpt lat="37.21997" lon="-8.72374">
        <ele>135.68310546875</ele>
        <time>2018-10-09T08:15:29Z</time>
      </trkpt>
      <trkpt lat="37.22011" lon="-8.7237">
        <ele>137.60583496094</ele>
        <time>2018-10-09T08:15:36Z</time>
      </trkpt>
      <trkpt lat="37.22045" lon="-8.72362">
        <ele>140.48986816406</ele>
        <time>2018-10-09T08:15:52Z</time>
      </trkpt>
      <trkpt lat="37.22073" lon="-8.72363">
        <ele>143.37365722656</ele>
        <time>2018-10-09T08:16:06Z</time>
      </trkpt>
      <trkpt lat="37.22093" lon="-8.72368">
        <ele>146.73840332031</ele>
        <time>2018-10-09T08:16:18Z</time>
      </trkpt>
      <trkpt lat="37.22096" lon="-8.72369">
        <ele>148.18041992188</ele>
        <time>2018-10-09T08:16:22Z</time>
      </trkpt>
      <trkpt lat="37.22103" lon="-8.72372">
        <ele>150.10302734375</ele>
        <time>2018-10-09T08:16:29Z</time>
      </trkpt>
      <trkpt lat="37.22114" lon="-8.72379">
        <ele>151.544921875</ele>
        <time>2018-10-09T08:16:32Z</time>
      </trkpt>
      <trkpt lat="37.22114" lon="-8.72379">
        <ele>151.544921875</ele>
        <time>2018-10-09T08:16:34Z</time>
      </trkpt>
      <trkpt lat="37.22114" lon="-8.72379">
        <ele>152.02575683594</ele>
        <time>2018-10-09T08:16:46Z</time>
      </trkpt>
      <trkpt lat="37.22114" lon="-8.72379">
        <ele>152.02575683594</ele>
        <time>2018-10-09T08:18:45Z</time>
      </trkpt>
      <trkpt lat="37.22114" lon="-8.72379">
        <ele>150.58361816406</ele>
        <time>2018-10-09T08:19:43Z</time>
      </trkpt>
      <trkpt lat="37.22114" lon="-8.72379">
        <ele>151.06420898438</ele>
        <time>2018-10-09T08:19:48Z</time>
      </trkpt>
      <trkpt lat="37.22108" lon="-8.72294">
        <ele>154.42895507812</ele>
        <time>2018-10-09T08:20:01Z</time>
      </trkpt>
      <trkpt lat="37.22092" lon="-8.72261">
        <ele>158.27416992188</ele>
        <time>2018-10-09T08:20:19Z</time>
      </trkpt>
      <trkpt lat="37.22085" lon="-8.72211">
        <ele>161.63891601562</ele>
        <time>2018-10-09T08:20:41Z</time>
      </trkpt>
      <trkpt lat="37.22074" lon="-8.72175">
        <ele>165.48413085938</ele>
        <time>2018-10-09T08:20:57Z</time>
      </trkpt>
      <trkpt lat="37.22058" lon="-8.72124">
        <ele>167.88732910156</ele>
        <time>2018-10-09T08:21:19Z</time>
      </trkpt>
      <trkpt lat="37.22043" lon="-8.72098">
        <ele>170.77136230469</ele>
        <time>2018-10-09T08:21:32Z</time>
      </trkpt>
      <trkpt lat="37.22023" lon="-8.72064">
        <ele>174.13586425781</ele>
        <time>2018-10-09T08:21:49Z</time>
      </trkpt>
      <trkpt lat="37.22019" lon="-8.72053">
        <ele>176.05859375</ele>
        <time>2018-10-09T08:21:54Z</time>
      </trkpt>
      <trkpt lat="37.22001" lon="-8.71996">
        <ele>178.4619140625</ele>
        <time>2018-10-09T08:22:18Z</time>
      </trkpt>
      <trkpt lat="37.21987" lon="-8.71967">
        <ele>181.82641601562</ele>
        <time>2018-10-09T08:22:30Z</time>
      </trkpt>
      <trkpt lat="37.21982" lon="-8.71957">
        <ele>182.30712890625</ele>
        <time>2018-10-09T08:22:45Z</time>
      </trkpt>
      <trkpt lat="37.21975" lon="-8.71933">
        <ele>180.38452148438</ele>
        <time>2018-10-09T08:23:51Z</time>
      </trkpt>
      <trkpt lat="37.21989" lon="-8.71888">
        <ele>181.34582519531</ele>
        <time>2018-10-09T08:24:06Z</time>
      </trkpt>
      <trkpt lat="37.21992" lon="-8.71884">
        <ele>182.30712890625</ele>
        <time>2018-10-09T08:24:08Z</time>
      </trkpt>
      <trkpt lat="37.22025" lon="-8.71829">
        <ele>181.34582519531</ele>
        <time>2018-10-09T08:24:27Z</time>
      </trkpt>
      <trkpt lat="37.22034" lon="-8.71786">
        <ele>179.42321777344</ele>
        <time>2018-10-09T08:24:35Z</time>
      </trkpt>
      <trkpt lat="37.22019" lon="-8.71749">
        <ele>176.05859375</ele>
        <time>2018-10-09T08:24:42Z</time>
      </trkpt>
      <trkpt lat="37.22013" lon="-8.71746">
        <ele>175.57788085938</ele>
        <time>2018-10-09T08:24:43Z</time>
      </trkpt>
      <trkpt lat="37.21979" lon="-8.71734">
        <ele>172.21325683594</ele>
        <time>2018-10-09T08:24:48Z</time>
      </trkpt>
      <trkpt lat="37.21946" lon="-8.71717">
        <ele>169.81005859375</ele>
        <time>2018-10-09T08:24:53Z</time>
      </trkpt>
      <trkpt lat="37.21919" lon="-8.71714">
        <ele>165.96472167969</ele>
        <time>2018-10-09T08:24:57Z</time>
      </trkpt>
      <trkpt lat="37.21899" lon="-8.71717">
        <ele>162.60009765625</ele>
        <time>2018-10-09T08:25:00Z</time>
      </trkpt>
      <trkpt lat="37.21893" lon="-8.71718">
        <ele>161.63891601562</ele>
        <time>2018-10-09T08:25:01Z</time>
      </trkpt>
      <trkpt lat="37.21871" lon="-8.71713">
        <ele>159.71618652344</ele>
        <time>2018-10-09T08:25:05Z</time>
      </trkpt>
      <trkpt lat="37.21866" lon="-8.71711">
        <ele>159.71618652344</ele>
        <time>2018-10-09T08:25:06Z</time>
      </trkpt>
      <trkpt lat="37.21859" lon="-8.71707">
        <ele>158.27416992188</ele>
        <time>2018-10-09T08:25:08Z</time>
      </trkpt>
      <trkpt lat="37.21845" lon="-8.71701">
        <ele>156.83215332031</ele>
        <time>2018-10-09T08:25:17Z</time>
      </trkpt>
      <trkpt lat="37.21831" lon="-8.71696">
        <ele>154.90954589844</ele>
        <time>2018-10-09T08:25:36Z</time>
      </trkpt>
      <trkpt lat="37.21828" lon="-8.71695">
        <ele>154.90954589844</ele>
        <time>2018-10-09T08:25:37Z</time>
      </trkpt>
      <trkpt lat="37.21808" lon="-8.71688">
        <ele>152.02575683594</ele>
        <time>2018-10-09T08:25:41Z</time>
      </trkpt>
      <trkpt lat="37.21756" lon="-8.7166">
        <ele>152.02575683594</ele>
        <time>2018-10-09T08:25:55Z</time>
      </trkpt>
      <trkpt lat="37.21713" lon="-8.71625">
        <ele>150.58361816406</ele>
        <time>2018-10-09T08:26:10Z</time>
      </trkpt>
      <trkpt lat="37.21663" lon="-8.71621">
        <ele>149.1416015625</ele>
        <time>2018-10-09T08:26:25Z</time>
      </trkpt>
      <trkpt lat="37.21648" lon="-8.71606">
        <ele>148.18041992188</ele>
        <time>2018-10-09T08:26:35Z</time>
      </trkpt>
      <trkpt lat="37.21624" lon="-8.71576">
        <ele>144.33520507812</ele>
        <time>2018-10-09T08:26:46Z</time>
      </trkpt>
      <trkpt lat="37.21622" lon="-8.71572">
        <ele>144.33520507812</ele>
        <time>2018-10-09T08:26:47Z</time>
      </trkpt>
      <trkpt lat="37.21613" lon="-8.71559">
        <ele>143.85437011719</ele>
        <time>2018-10-09T08:26:50Z</time>
      </trkpt>
      <trkpt lat="37.21598" lon="-8.71546">
        <ele>143.37365722656</ele>
        <time>2018-10-09T08:26:54Z</time>
      </trkpt>
      <trkpt lat="37.21592" lon="-8.71525">
        <ele>141.93176269531</ele>
        <time>2018-10-09T08:26:59Z</time>
      </trkpt>
      <trkpt lat="37.21595" lon="-8.71501">
        <ele>139.52844238281</ele>
        <time>2018-10-09T08:27:07Z</time>
      </trkpt>
      <trkpt lat="37.21572" lon="-8.71468">
        <ele>138.56726074219</ele>
        <time>2018-10-09T08:27:20Z</time>
      </trkpt>
      <trkpt lat="37.21538" lon="-8.71449">
        <ele>137.12524414062</ele>
        <time>2018-10-09T08:27:32Z</time>
      </trkpt>
      <trkpt lat="37.21502" lon="-8.71421">
        <ele>134.72192382812</ele>
        <time>2018-10-09T08:27:43Z</time>
      </trkpt>
      <trkpt lat="37.21503" lon="-8.71415">
        <ele>134.72192382812</ele>
        <time>2018-10-09T08:27:45Z</time>
      </trkpt>
      <trkpt lat="37.21495" lon="-8.71375">
        <ele>131.837890625</ele>
        <time>2018-10-09T08:27:59Z</time>
      </trkpt>
      <trkpt lat="37.21484" lon="-8.71366">
        <ele>129.91528320312</ele>
        <time>2018-10-09T08:28:04Z</time>
      </trkpt>
      <trkpt lat="37.21435" lon="-8.71335">
        <ele>127.99255371094</ele>
        <time>2018-10-09T08:28:22Z</time>
      </trkpt>
      <trkpt lat="37.21418" lon="-8.71306">
        <ele>126.55065917969</ele>
        <time>2018-10-09T08:28:35Z</time>
      </trkpt>
      <trkpt lat="37.21408" lon="-8.71257">
        <ele>123.66674804688</ele>
        <time>2018-10-09T08:28:47Z</time>
      </trkpt>
      <trkpt lat="37.21382" lon="-8.71214">
        <ele>120.30212402344</ele>
        <time>2018-10-09T08:28:59Z</time>
      </trkpt>
      <trkpt lat="37.21375" lon="-8.71198">
        <ele>118.37939453125</ele>
        <time>2018-10-09T08:29:03Z</time>
      </trkpt>
      <trkpt lat="37.21372" lon="-8.71169">
        <ele>115.01489257812</ele>
        <time>2018-10-09T08:29:10Z</time>
      </trkpt>
      <trkpt lat="37.21351" lon="-8.71134">
        <ele>113.57299804688</ele>
        <time>2018-10-09T08:29:20Z</time>
      </trkpt>
      <trkpt lat="37.21325" lon="-8.71108">
        <ele>110.20825195312</ele>
        <time>2018-10-09T08:29:33Z</time>
      </trkpt>
      <trkpt lat="37.21311" lon="-8.71093">
        <ele>106.84362792969</ele>
        <time>2018-10-09T08:29:40Z</time>
      </trkpt>
      <trkpt lat="37.21309" lon="-8.7109">
        <ele>106.84362792969</ele>
        <time>2018-10-09T08:29:41Z</time>
      </trkpt>
      <trkpt lat="37.21312" lon="-8.71084">
        <ele>107.32434082031</ele>
        <time>2018-10-09T08:29:52Z</time>
      </trkpt>
      <trkpt lat="37.21315" lon="-8.71085">
        <ele>107.32434082031</ele>
        <time>2018-10-09T08:30:12Z</time>
      </trkpt>
      <trkpt lat="37.21316" lon="-8.71085">
        <ele>107.32434082031</ele>
        <time>2018-10-09T08:30:15Z</time>
      </trkpt>
      <trkpt lat="37.21327" lon="-8.7107">
        <ele>103.95971679688</ele>
        <time>2018-10-09T08:30:24Z</time>
      </trkpt>
      <trkpt lat="37.21334" lon="-8.71062">
        <ele>102.51770019531</ele>
        <time>2018-10-09T08:30:28Z</time>
      </trkpt>
      <trkpt lat="37.21337" lon="-8.71057">
        <ele>101.55639648438</ele>
        <time>2018-10-09T08:30:30Z</time>
      </trkpt>
      <trkpt lat="37.21341" lon="-8.71049">
        <ele>98.672485351562</ele>
        <time>2018-10-09T08:30:34Z</time>
      </trkpt>
      <trkpt lat="37.21347" lon="-8.71038">
        <ele>95.788452148438</ele>
        <time>2018-10-09T08:30:40Z</time>
      </trkpt>
      <trkpt lat="37.21363" lon="-8.71032">
        <ele>92.423950195312</ele>
        <time>2018-10-09T08:30:53Z</time>
      </trkpt>
      <trkpt lat="37.21373" lon="-8.71033">
        <ele>93.385131835938</ele>
        <time>2018-10-09T08:31:53Z</time>
      </trkpt>
      <trkpt lat="37.21406" lon="-8.71021">
        <ele>92.904541015625</ele>
        <time>2018-10-09T08:32:06Z</time>
      </trkpt>
      <trkpt lat="37.21415" lon="-8.71006">
        <ele>92.904541015625</ele>
        <time>2018-10-09T08:32:11Z</time>
      </trkpt>
      <trkpt lat="37.21428" lon="-8.7095">
        <ele>92.423950195312</ele>
        <time>2018-10-09T08:32:26Z</time>
      </trkpt>
      <trkpt lat="37.21436" lon="-8.70893">
        <ele>92.423950195312</ele>
        <time>2018-10-09T08:32:43Z</time>
      </trkpt>
      <trkpt lat="37.21458" lon="-8.70899">
        <ele>91.462524414062</ele>
        <time>2018-10-09T08:32:53Z</time>
      </trkpt>
      <trkpt lat="37.21483" lon="-8.7094">
        <ele>91.943237304688</ele>
        <time>2018-10-09T08:33:09Z</time>
      </trkpt>
      <trkpt lat="37.21492" lon="-8.70957">
        <ele>92.423950195312</ele>
        <time>2018-10-09T08:33:16Z</time>
      </trkpt>
      <trkpt lat="37.21515" lon="-8.70947">
        <ele>91.943237304688</ele>
        <time>2018-10-09T08:33:26Z</time>
      </trkpt>
      <trkpt lat="37.21535" lon="-8.70947">
        <ele>91.943237304688</ele>
        <time>2018-10-09T08:33:36Z</time>
      </trkpt>
      <trkpt lat="37.21547" lon="-8.70939">
        <ele>91.462524414062</ele>
        <time>2018-10-09T08:33:41Z</time>
      </trkpt>
      <trkpt lat="37.216" lon="-8.70935">
        <ele>91.462524414062</ele>
        <time>2018-10-09T08:33:58Z</time>
      </trkpt>
      <trkpt lat="37.2164" lon="-8.70942">
        <ele>92.904541015625</ele>
        <time>2018-10-09T08:34:13Z</time>
      </trkpt>
      <trkpt lat="37.21671" lon="-8.70962">
        <ele>93.385131835938</ele>
        <time>2018-10-09T08:34:26Z</time>
      </trkpt>
      <trkpt lat="37.21679" lon="-8.70937">
        <ele>94.346557617188</ele>
        <time>2018-10-09T08:34:37Z</time>
      </trkpt>
      <trkpt lat="37.21646" lon="-8.70895">
        <ele>93.865844726562</ele>
        <time>2018-10-09T08:34:53Z</time>
      </trkpt>
      <trkpt lat="37.21595" lon="-8.70877">
        <ele>92.423950195312</ele>
        <time>2018-10-09T08:35:10Z</time>
      </trkpt>
      <trkpt lat="37.21547" lon="-8.70845">
        <ele>92.423950195312</ele>
        <time>2018-10-09T08:35:29Z</time>
      </trkpt>
      <trkpt lat="37.21559" lon="-8.70816">
        <ele>92.423950195312</ele>
        <time>2018-10-09T08:35:39Z</time>
      </trkpt>
      <trkpt lat="37.21603" lon="-8.70818">
        <ele>92.423950195312</ele>
        <time>2018-10-09T08:35:54Z</time>
      </trkpt>
      <trkpt lat="37.21655" lon="-8.70809">
        <ele>92.423950195312</ele>
        <time>2018-10-09T08:36:12Z</time>
      </trkpt>
      <trkpt lat="37.21673" lon="-8.70811">
        <ele>92.423950195312</ele>
        <time>2018-10-09T08:36:18Z</time>
      </trkpt>
      <trkpt lat="37.21681" lon="-8.70795">
        <ele>92.423950195312</ele>
        <time>2018-10-09T08:36:24Z</time>
      </trkpt>
      <trkpt lat="37.21705" lon="-8.70754">
        <ele>91.943237304688</ele>
        <time>2018-10-09T08:36:38Z</time>
      </trkpt>
      <trkpt lat="37.21752" lon="-8.70729">
        <ele>91.462524414062</ele>
        <time>2018-10-09T08:36:56Z</time>
      </trkpt>
      <trkpt lat="37.21786" lon="-8.70745">
        <ele>91.462524414062</ele>
        <time>2018-10-09T08:37:09Z</time>
      </trkpt>
      <trkpt lat="37.21816" lon="-8.70743">
        <ele>90.501342773438</ele>
        <time>2018-10-09T08:37:20Z</time>
      </trkpt>
      <trkpt lat="37.21867" lon="-8.7072">
        <ele>90.98193359375</ele>
        <time>2018-10-09T08:37:38Z</time>
      </trkpt>
      <trkpt lat="37.21902" lon="-8.70732">
        <ele>90.98193359375</ele>
        <time>2018-10-09T08:37:51Z</time>
      </trkpt>
      <trkpt lat="37.2195" lon="-8.70737">
        <ele>91.462524414062</ele>
        <time>2018-10-09T08:38:07Z</time>
      </trkpt>
      <trkpt lat="37.21988" lon="-8.70763">
        <ele>90.98193359375</ele>
        <time>2018-10-09T08:38:23Z</time>
      </trkpt>
      <trkpt lat="37.2201" lon="-8.70795">
        <ele>90.98193359375</ele>
        <time>2018-10-09T08:38:34Z</time>
      </trkpt>
      <trkpt lat="37.22022" lon="-8.70849">
        <ele>91.943237304688</ele>
        <time>2018-10-09T08:38:49Z</time>
      </trkpt>
      <trkpt lat="37.22039" lon="-8.70889">
        <ele>91.943237304688</ele>
        <time>2018-10-09T08:39:02Z</time>
      </trkpt>
      <trkpt lat="37.22078" lon="-8.70901">
        <ele>91.462524414062</ele>
        <time>2018-10-09T08:39:17Z</time>
      </trkpt>
      <trkpt lat="37.22113" lon="-8.70917">
        <ele>91.943237304688</ele>
        <time>2018-10-09T08:39:30Z</time>
      </trkpt>
      <trkpt lat="37.22152" lon="-8.70952">
        <ele>91.943237304688</ele>
        <time>2018-10-09T08:39:47Z</time>
      </trkpt>
      <trkpt lat="37.22178" lon="-8.70989">
        <ele>91.462524414062</ele>
        <time>2018-10-09T08:40:01Z</time>
      </trkpt>
      <trkpt lat="37.22178" lon="-8.70996">
        <ele>91.462524414062</ele>
        <time>2018-10-09T08:40:03Z</time>
      </trkpt>
      <trkpt lat="37.22185" lon="-8.71042">
        <ele>91.943237304688</ele>
        <time>2018-10-09T08:40:17Z</time>
      </trkpt>
      <trkpt lat="37.22191" lon="-8.71102">
        <ele>91.462524414062</ele>
        <time>2018-10-09T08:40:33Z</time>
      </trkpt>
      <trkpt lat="37.22199" lon="-8.71143">
        <ele>91.462524414062</ele>
        <time>2018-10-09T08:40:45Z</time>
      </trkpt>
      <trkpt lat="37.2221" lon="-8.71177">
        <ele>91.943237304688</ele>
        <time>2018-10-09T08:40:56Z</time>
      </trkpt>
      <trkpt lat="37.22218" lon="-8.71186">
        <ele>91.943237304688</ele>
        <time>2018-10-09T08:41:00Z</time>
      </trkpt>
      <trkpt lat="37.22243" lon="-8.71229">
        <ele>91.462524414062</ele>
        <time>2018-10-09T08:41:15Z</time>
      </trkpt>
      <trkpt lat="37.22248" lon="-8.7127">
        <ele>90.501342773438</ele>
        <time>2018-10-09T08:41:27Z</time>
      </trkpt>
      <trkpt lat="37.22251" lon="-8.71288">
        <ele>91.462524414062</ele>
        <time>2018-10-09T08:41:32Z</time>
      </trkpt>
      <trkpt lat="37.22277" lon="-8.71317">
        <ele>90.98193359375</ele>
        <time>2018-10-09T08:41:45Z</time>
      </trkpt>
      <trkpt lat="37.22269" lon="-8.71347">
        <ele>90.98193359375</ele>
        <time>2018-10-09T08:41:55Z</time>
      </trkpt>
      <trkpt lat="37.2223" lon="-8.71367">
        <ele>90.98193359375</ele>
        <time>2018-10-09T08:42:10Z</time>
      </trkpt>
      <trkpt lat="37.22203" lon="-8.71401">
        <ele>90.501342773438</ele>
        <time>2018-10-09T08:42:23Z</time>
      </trkpt>
      <trkpt lat="37.22187" lon="-8.71435">
        <ele>90.98193359375</ele>
        <time>2018-10-09T08:42:35Z</time>
      </trkpt>
      <trkpt lat="37.22205" lon="-8.7143">
        <ele>90.020629882812</ele>
        <time>2018-10-09T08:42:44Z</time>
      </trkpt>
      <trkpt lat="37.22251" lon="-8.71406">
        <ele>90.501342773438</ele>
        <time>2018-10-09T08:43:00Z</time>
      </trkpt>
      <trkpt lat="37.223" lon="-8.71405">
        <ele>90.98193359375</ele>
        <time>2018-10-09T08:43:17Z</time>
      </trkpt>
      <trkpt lat="37.22327" lon="-8.7142">
        <ele>90.98193359375</ele>
        <time>2018-10-09T08:43:28Z</time>
      </trkpt>
      <trkpt lat="37.22329" lon="-8.7148">
        <ele>91.462524414062</ele>
        <time>2018-10-09T08:43:45Z</time>
      </trkpt>
      <trkpt lat="37.22315" lon="-8.71543">
        <ele>92.423950195312</ele>
        <time>2018-10-09T08:44:04Z</time>
      </trkpt>
      <trkpt lat="37.22297" lon="-8.71589">
        <ele>91.943237304688</ele>
        <time>2018-10-09T08:44:17Z</time>
      </trkpt>
      <trkpt lat="37.22281" lon="-8.71643">
        <ele>91.943237304688</ele>
        <time>2018-10-09T08:44:32Z</time>
      </trkpt>
      <trkpt lat="37.22255" lon="-8.71699">
        <ele>91.943237304688</ele>
        <time>2018-10-09T08:44:49Z</time>
      </trkpt>
      <trkpt lat="37.22235" lon="-8.71754">
        <ele>91.462524414062</ele>
        <time>2018-10-09T08:45:06Z</time>
      </trkpt>
      <trkpt lat="37.22231" lon="-8.71802">
        <ele>90.501342773438</ele>
        <time>2018-10-09T08:45:20Z</time>
      </trkpt>
      <trkpt lat="37.22232" lon="-8.71848">
        <ele>90.501342773438</ele>
        <time>2018-10-09T08:45:34Z</time>
      </trkpt>
      <trkpt lat="37.22248" lon="-8.71896">
        <ele>91.462524414062</ele>
        <time>2018-10-09T08:45:49Z</time>
      </trkpt>
      <trkpt lat="37.22274" lon="-8.7194">
        <ele>91.943237304688</ele>
        <time>2018-10-09T08:46:04Z</time>
      </trkpt>
      <trkpt lat="37.22308" lon="-8.71987">
        <ele>91.943237304688</ele>
        <time>2018-10-09T08:46:21Z</time>
      </trkpt>
      <trkpt lat="37.22328" lon="-8.7203">
        <ele>91.943237304688</ele>
        <time>2018-10-09T08:46:36Z</time>
      </trkpt>
      <trkpt lat="37.22343" lon="-8.72072">
        <ele>91.462524414062</ele>
        <time>2018-10-09T08:46:49Z</time>
      </trkpt>
      <trkpt lat="37.22327" lon="-8.72109">
        <ele>91.462524414062</ele>
        <time>2018-10-09T08:47:00Z</time>
      </trkpt>
      <trkpt lat="37.22315" lon="-8.72164">
        <ele>91.943237304688</ele>
        <time>2018-10-09T08:47:17Z</time>
      </trkpt>
      <trkpt lat="37.22312" lon="-8.72231">
        <ele>91.462524414062</ele>
        <time>2018-10-09T08:47:36Z</time>
      </trkpt>
      <trkpt lat="37.22319" lon="-8.72292">
        <ele>90.501342773438</ele>
        <time>2018-10-09T08:47:53Z</time>
      </trkpt>
      <trkpt lat="37.22323" lon="-8.72347">
        <ele>90.501342773438</ele>
        <time>2018-10-09T08:48:10Z</time>
      </trkpt>
      <trkpt lat="37.22341" lon="-8.72388">
        <ele>90.98193359375</ele>
        <time>2018-10-09T08:48:23Z</time>
      </trkpt>
      <trkpt lat="37.22369" lon="-8.72428">
        <ele>90.98193359375</ele>
        <time>2018-10-09T08:48:37Z</time>
      </trkpt>
      <trkpt lat="37.22403" lon="-8.72459">
        <ele>91.462524414062</ele>
        <time>2018-10-09T08:48:51Z</time>
      </trkpt>
      <trkpt lat="37.22447" lon="-8.72482">
        <ele>92.904541015625</ele>
        <time>2018-10-09T08:49:08Z</time>
      </trkpt>
      <trkpt lat="37.22481" lon="-8.7254">
        <ele>94.346557617188</ele>
        <time>2018-10-09T08:49:28Z</time>
      </trkpt>
      <trkpt lat="37.22506" lon="-8.72587">
        <ele>96.269287109375</ele>
        <time>2018-10-09T08:49:45Z</time>
      </trkpt>
      <trkpt lat="37.22532" lon="-8.7263">
        <ele>99.153076171875</ele>
        <time>2018-10-09T08:50:02Z</time>
      </trkpt>
      <trkpt lat="37.22553" lon="-8.72638">
        <ele>99.6337890625</ele>
        <time>2018-10-09T08:50:13Z</time>
      </trkpt>
      <trkpt lat="37.22556" lon="-8.72628">
        <ele>99.153076171875</ele>
        <time>2018-10-09T08:50:17Z</time>
      </trkpt>
      <trkpt lat="37.22547" lon="-8.72588">
        <ele>99.153076171875</ele>
        <time>2018-10-09T08:50:25Z</time>
      </trkpt>
      <trkpt lat="37.22559" lon="-8.72575">
        <ele>99.153076171875</ele>
        <time>2018-10-09T08:50:31Z</time>
      </trkpt>
      <trkpt lat="37.22588" lon="-8.72607">
        <ele>100.11450195312</ele>
        <time>2018-10-09T08:50:47Z</time>
      </trkpt>
      <trkpt lat="37.22615" lon="-8.72674">
        <ele>101.55639648438</ele>
        <time>2018-10-09T08:51:08Z</time>
      </trkpt>
      <trkpt lat="37.22629" lon="-8.72738">
        <ele>102.037109375</ele>
        <time>2018-10-09T08:51:25Z</time>
      </trkpt>
      <trkpt lat="37.22636" lon="-8.72806">
        <ele>103.47900390625</ele>
        <time>2018-10-09T08:51:43Z</time>
      </trkpt>
      <trkpt lat="37.22658" lon="-8.72887">
        <ele>106.36303710938</ele>
        <time>2018-10-09T08:52:05Z</time>
      </trkpt>
      <trkpt lat="37.22671" lon="-8.72969">
        <ele>105.88244628906</ele>
        <time>2018-10-09T08:52:25Z</time>
      </trkpt>
      <trkpt lat="37.22676" lon="-8.73066">
        <ele>103.95971679688</ele>
        <time>2018-10-09T08:52:44Z</time>
      </trkpt>
      <trkpt lat="37.22652" lon="-8.73137">
        <ele>106.36303710938</ele>
        <time>2018-10-09T08:53:01Z</time>
      </trkpt>
      <trkpt lat="37.22644" lon="-8.73207">
        <ele>106.36303710938</ele>
        <time>2018-10-09T08:53:18Z</time>
      </trkpt>
      <trkpt lat="37.22612" lon="-8.73285">
        <ele>106.84362792969</ele>
        <time>2018-10-09T08:53:38Z</time>
      </trkpt>
      <trkpt lat="37.22604" lon="-8.73353">
        <ele>109.24694824219</ele>
        <time>2018-10-09T08:53:56Z</time>
      </trkpt>
      <trkpt lat="37.22604" lon="-8.73362">
        <ele>108.76623535156</ele>
        <time>2018-10-09T08:54:05Z</time>
      </trkpt>
      <trkpt lat="37.22604" lon="-8.73362">
        <ele>108.28564453125</ele>
        <time>2018-10-09T08:55:37Z</time>
      </trkpt>
      <trkpt lat="37.22604" lon="-8.73362">
        <ele>110.20825195312</ele>
        <time>2018-10-09T08:56:00Z</time>
      </trkpt>
      <trkpt lat="37.226" lon="-8.7341">
        <ele>111.16955566406</ele>
        <time>2018-10-09T08:56:16Z</time>
      </trkpt>
      <trkpt lat="37.22614" lon="-8.73484">
        <ele>111.16955566406</ele>
        <time>2018-10-09T08:56:36Z</time>
      </trkpt>
      <trkpt lat="37.22633" lon="-8.73543">
        <ele>112.61157226562</ele>
        <time>2018-10-09T08:56:53Z</time>
      </trkpt>
      <trkpt lat="37.22641" lon="-8.7363">
        <ele>114.5341796875</ele>
        <time>2018-10-09T08:57:16Z</time>
      </trkpt>
      <trkpt lat="37.22624" lon="-8.73678">
        <ele>115.97619628906</ele>
        <time>2018-10-09T08:57:32Z</time>
      </trkpt>
      <trkpt lat="37.226" lon="-8.73706">
        <ele>118.86010742188</ele>
        <time>2018-10-09T08:57:45Z</time>
      </trkpt>
      <trkpt lat="37.22576" lon="-8.7377">
        <ele>120.30212402344</ele>
        <time>2018-10-09T08:58:05Z</time>
      </trkpt>
      <trkpt lat="37.22551" lon="-8.73844">
        <ele>118.86010742188</ele>
        <time>2018-10-09T08:58:24Z</time>
      </trkpt>
      <trkpt lat="37.22544" lon="-8.7391">
        <ele>119.3408203125</ele>
        <time>2018-10-09T08:58:40Z</time>
      </trkpt>
      <trkpt lat="37.22563" lon="-8.73972">
        <ele>120.78283691406</ele>
        <time>2018-10-09T08:58:58Z</time>
      </trkpt>
      <trkpt lat="37.22587" lon="-8.7402">
        <ele>120.30212402344</ele>
        <time>2018-10-09T08:59:12Z</time>
      </trkpt>
      <trkpt lat="37.22596" lon="-8.7409">
        <ele>122.70544433594</ele>
        <time>2018-10-09T08:59:32Z</time>
      </trkpt>
      <trkpt lat="37.22584" lon="-8.74157">
        <ele>126.06994628906</ele>
        <time>2018-10-09T08:59:54Z</time>
      </trkpt>
      <trkpt lat="37.22561" lon="-8.74222">
        <ele>127.99255371094</ele>
        <time>2018-10-09T09:00:18Z</time>
      </trkpt>
      <trkpt lat="37.22542" lon="-8.7427">
        <ele>131.35729980469</ele>
        <time>2018-10-09T09:00:37Z</time>
      </trkpt>
      <trkpt lat="37.22519" lon="-8.74322">
        <ele>134.72192382812</ele>
        <time>2018-10-09T09:00:59Z</time>
      </trkpt>
      <trkpt lat="37.22496" lon="-8.74359">
        <ele>137.12524414062</ele>
        <time>2018-10-09T09:01:18Z</time>
      </trkpt>
      <trkpt lat="37.22468" lon="-8.7437">
        <ele>140.00915527344</ele>
        <time>2018-10-09T09:01:34Z</time>
      </trkpt>
      <trkpt lat="37.22468" lon="-8.74355">
        <ele>140.97045898438</ele>
        <time>2018-10-09T09:01:41Z</time>
      </trkpt>
      <trkpt lat="37.22477" lon="-8.74304">
        <ele>142.89306640625</ele>
        <time>2018-10-09T09:02:01Z</time>
      </trkpt>
      <trkpt lat="37.22493" lon="-8.74235">
        <ele>144.81579589844</ele>
        <time>2018-10-09T09:02:27Z</time>
      </trkpt>
      <trkpt lat="37.22486" lon="-8.74188">
        <ele>148.18041992188</ele>
        <time>2018-10-09T09:02:46Z</time>
      </trkpt>
      <trkpt lat="37.22457" lon="-8.74167">
        <ele>151.544921875</ele>
        <time>2018-10-09T09:03:02Z</time>
      </trkpt>
      <trkpt lat="37.22432" lon="-8.74159">
        <ele>154.42895507812</ele>
        <time>2018-10-09T09:03:11Z</time>
      </trkpt>
      <trkpt lat="37.22423" lon="-8.74156">
        <ele>155.87097167969</ele>
        <time>2018-10-09T09:03:26Z</time>
      </trkpt>
      <trkpt lat="37.22423" lon="-8.74156">
        <ele>156.3515625</ele>
        <time>2018-10-09T09:04:18Z</time>
      </trkpt>
      <trkpt lat="37.22369" lon="-8.74167">
        <ele>153.46765136719</ele>
        <time>2018-10-09T09:04:29Z</time>
      </trkpt>
      <trkpt lat="37.22319" lon="-8.7421">
        <ele>150.10302734375</ele>
        <time>2018-10-09T09:04:39Z</time>
      </trkpt>
      <trkpt lat="37.22302" lon="-8.74226">
        <ele>148.66101074219</ele>
        <time>2018-10-09T09:04:42Z</time>
      </trkpt>
      <trkpt lat="37.22268" lon="-8.74256">
        <ele>148.18041992188</ele>
        <time>2018-10-09T09:04:48Z</time>
      </trkpt>
      <trkpt lat="37.22239" lon="-8.7428">
        <ele>144.81579589844</ele>
        <time>2018-10-09T09:04:53Z</time>
      </trkpt>
      <trkpt lat="37.22215" lon="-8.74284">
        <ele>143.37365722656</ele>
        <time>2018-10-09T09:04:56Z</time>
      </trkpt>
      <trkpt lat="37.22207" lon="-8.74283">
        <ele>142.41247558594</ele>
        <time>2018-10-09T09:04:57Z</time>
      </trkpt>
      <trkpt lat="37.22161" lon="-8.74271">
        <ele>139.52844238281</ele>
        <time>2018-10-09T09:05:03Z</time>
      </trkpt>
      <trkpt lat="37.22154" lon="-8.74269">
        <ele>139.52844238281</ele>
        <time>2018-10-09T09:05:04Z</time>
      </trkpt>
      <trkpt lat="37.22133" lon="-8.74263">
        <ele>137.60583496094</ele>
        <time>2018-10-09T09:05:07Z</time>
      </trkpt>
      <trkpt lat="37.22083" lon="-8.74267">
        <ele>133.76049804688</ele>
        <time>2018-10-09T09:05:13Z</time>
      </trkpt>
      <trkpt lat="37.22066" lon="-8.74267">
        <ele>132.79931640625</ele>
        <time>2018-10-09T09:05:15Z</time>
      </trkpt>
      <trkpt lat="37.22036" lon="-8.74263">
        <ele>130.87670898438</ele>
        <time>2018-10-09T09:05:20Z</time>
      </trkpt>
      <trkpt lat="37.2203" lon="-8.74264">
        <ele>129.91528320312</ele>
        <time>2018-10-09T09:05:30Z</time>
      </trkpt>
      <trkpt lat="37.22012" lon="-8.74267">
        <ele>129.91528320312</ele>
        <time>2018-10-09T09:08:08Z</time>
      </trkpt>
      <trkpt lat="37.21979" lon="-8.74273">
        <ele>127.03137207031</ele>
        <time>2018-10-09T09:08:18Z</time>
      </trkpt>
      <trkpt lat="37.21953" lon="-8.74277">
        <ele>125.10876464844</ele>
        <time>2018-10-09T09:08:24Z</time>
      </trkpt>
      <trkpt lat="37.21918" lon="-8.74254">
        <ele>123.18615722656</ele>
        <time>2018-10-09T09:08:30Z</time>
      </trkpt>
      <trkpt lat="37.2187" lon="-8.74196">
        <ele>119.82141113281</ele>
        <time>2018-10-09T09:08:39Z</time>
      </trkpt>
      <trkpt lat="37.21816" lon="-8.74131">
        <ele>116.9375</ele>
        <time>2018-10-09T09:08:51Z</time>
      </trkpt>
      <trkpt lat="37.21753" lon="-8.74054">
        <ele>115.01489257812</ele>
        <time>2018-10-09T09:09:06Z</time>
      </trkpt>
      <trkpt lat="37.21732" lon="-8.74036">
        <ele>114.5341796875</ele>
        <time>2018-10-09T09:09:11Z</time>
      </trkpt>
      <trkpt lat="37.21721" lon="-8.74026">
        <ele>114.05358886719</ele>
        <time>2018-10-09T09:09:14Z</time>
      </trkpt>
      <trkpt lat="37.21701" lon="-8.74017">
        <ele>115.01489257812</ele>
        <time>2018-10-09T09:09:19Z</time>
      </trkpt>
      <trkpt lat="37.21642" lon="-8.74003">
        <ele>114.05358886719</ele>
        <time>2018-10-09T09:09:34Z</time>
      </trkpt>
      <trkpt lat="37.21615" lon="-8.73997">
        <ele>112.13098144531</ele>
        <time>2018-10-09T09:09:39Z</time>
      </trkpt>
      <trkpt lat="37.2159" lon="-8.73991">
        <ele>111.16955566406</ele>
        <time>2018-10-09T09:09:43Z</time>
      </trkpt>
      <trkpt lat="37.21578" lon="-8.73988">
        <ele>110.68884277344</ele>
        <time>2018-10-09T09:09:45Z</time>
      </trkpt>
      <trkpt lat="37.21559" lon="-8.73978">
        <ele>111.16955566406</ele>
        <time>2018-10-09T09:09:49Z</time>
      </trkpt>
      <trkpt lat="37.21522" lon="-8.7395">
        <ele>109.24694824219</ele>
        <time>2018-10-09T09:09:58Z</time>
      </trkpt>
      <trkpt lat="37.21501" lon="-8.73944">
        <ele>108.28564453125</ele>
        <time>2018-10-09T09:10:02Z</time>
      </trkpt>
      <trkpt lat="37.21417" lon="-8.73919">
        <ele>105.88244628906</ele>
        <time>2018-10-09T09:10:16Z</time>
      </trkpt>
      <trkpt lat="37.21324" lon="-8.73881">
        <ele>103.95971679688</ele>
        <time>2018-10-09T09:10:36Z</time>
      </trkpt>
      <trkpt lat="37.21298" lon="-8.73871">
        <ele>103.47900390625</ele>
        <time>2018-10-09T09:10:42Z</time>
      </trkpt>
      <trkpt lat="37.21222" lon="-8.7381">
        <ele>101.55639648438</ele>
        <time>2018-10-09T09:11:00Z</time>
      </trkpt>
      <trkpt lat="37.21206" lon="-8.73794">
        <ele>101.07568359375</ele>
        <time>2018-10-09T09:11:04Z</time>
      </trkpt>
      <trkpt lat="37.21171" lon="-8.73787">
        <ele>100.11450195312</ele>
        <time>2018-10-09T09:11:11Z</time>
      </trkpt>
      <trkpt lat="37.21076" lon="-8.738">
        <ele>98.19189453125</ele>
        <time>2018-10-09T09:11:30Z</time>
      </trkpt>
      <trkpt lat="37.21003" lon="-8.73848">
        <ele>96.269287109375</ele>
        <time>2018-10-09T09:11:46Z</time>
      </trkpt>
      <trkpt lat="37.20905" lon="-8.73882">
        <ele>94.346557617188</ele>
        <time>2018-10-09T09:12:07Z</time>
      </trkpt>
      <trkpt lat="37.2087" lon="-8.73886">
        <ele>93.385131835938</ele>
        <time>2018-10-09T09:12:14Z</time>
      </trkpt>
      <trkpt lat="37.20821" lon="-8.73889">
        <ele>92.423950195312</ele>
        <time>2018-10-09T09:12:24Z</time>
      </trkpt>
      <trkpt lat="37.20799" lon="-8.73875">
        <ele>91.943237304688</ele>
        <time>2018-10-09T09:12:29Z</time>
      </trkpt>
      <trkpt lat="37.20729" lon="-8.73827">
        <ele>90.020629882812</ele>
        <time>2018-10-09T09:12:47Z</time>
      </trkpt>
      <trkpt lat="37.20683" lon="-8.73817">
        <ele>90.501342773438</ele>
        <time>2018-10-09T09:12:59Z</time>
      </trkpt>
      <trkpt lat="37.20649" lon="-8.73813">
        <ele>90.020629882812</ele>
        <time>2018-10-09T09:13:06Z</time>
      </trkpt>
      <trkpt lat="37.20584" lon="-8.73833">
        <ele>90.98193359375</ele>
        <time>2018-10-09T09:13:22Z</time>
      </trkpt>
      <trkpt lat="37.20528" lon="-8.73853">
        <ele>93.865844726562</ele>
        <time>2018-10-09T09:13:39Z</time>
      </trkpt>
      <trkpt lat="37.20515" lon="-8.73865">
        <ele>96.269287109375</ele>
        <time>2018-10-09T09:13:48Z</time>
      </trkpt>
      <trkpt lat="37.2051" lon="-8.73865">
        <ele>96.749877929688</ele>
        <time>2018-10-09T09:13:59Z</time>
      </trkpt>
      <trkpt lat="37.20499" lon="-8.73855">
        <ele>93.385131835938</ele>
        <time>2018-10-09T09:14:17Z</time>
      </trkpt>
      <trkpt lat="37.20489" lon="-8.73844">
        <ele>91.943237304688</ele>
        <time>2018-10-09T09:14:20Z</time>
      </trkpt>
      <trkpt lat="37.20474" lon="-8.73822">
        <ele>88.098022460938</ele>
        <time>2018-10-09T09:14:25Z</time>
      </trkpt>
      <trkpt lat="37.20472" lon="-8.73811">
        <ele>86.656005859375</ele>
        <time>2018-10-09T09:14:27Z</time>
      </trkpt>
      <trkpt lat="37.20471" lon="-8.73777">
        <ele>85.213989257812</ele>
        <time>2018-10-09T09:14:32Z</time>
      </trkpt>
      <trkpt lat="37.20454" lon="-8.73745">
        <ele>85.694580078125</ele>
        <time>2018-10-09T09:14:38Z</time>
      </trkpt>
      <trkpt lat="37.20442" lon="-8.73738">
        <ele>83.77197265625</ele>
        <time>2018-10-09T09:14:41Z</time>
      </trkpt>
      <trkpt lat="37.20429" lon="-8.73734">
        <ele>84.7333984375</ele>
        <time>2018-10-09T09:14:44Z</time>
      </trkpt>
      <trkpt lat="37.2042" lon="-8.73732">
        <ele>85.213989257812</ele>
        <time>2018-10-09T09:14:46Z</time>
      </trkpt>
      <trkpt lat="37.20351" lon="-8.73746">
        <ele>83.77197265625</ele>
        <time>2018-10-09T09:15:02Z</time>
      </trkpt>
      <trkpt lat="37.20272" lon="-8.73709">
        <ele>83.291381835938</ele>
        <time>2018-10-09T09:15:21Z</time>
      </trkpt>
      <trkpt lat="37.20257" lon="-8.73695">
        <ele>81.849365234375</ele>
        <time>2018-10-09T09:15:25Z</time>
      </trkpt>
      <trkpt lat="37.20212" lon="-8.73618">
        <ele>81.849365234375</ele>
        <time>2018-10-09T09:15:44Z</time>
      </trkpt>
      <trkpt lat="37.20154" lon="-8.73571">
        <ele>81.368774414062</ele>
        <time>2018-10-09T09:16:01Z</time>
      </trkpt>
      <trkpt lat="37.20079" lon="-8.73507">
        <ele>79.446044921875</ele>
        <time>2018-10-09T09:16:22Z</time>
      </trkpt>
      <trkpt lat="37.20016" lon="-8.73453">
        <ele>78.484741210938</ele>
        <time>2018-10-09T09:16:41Z</time>
      </trkpt>
      <trkpt lat="37.19965" lon="-8.73413">
        <ele>78.484741210938</ele>
        <time>2018-10-09T09:16:56Z</time>
      </trkpt>
      <trkpt lat="37.19882" lon="-8.73349">
        <ele>77.042846679688</ele>
        <time>2018-10-09T09:17:17Z</time>
      </trkpt>
      <trkpt lat="37.19836" lon="-8.73279">
        <ele>76.081420898438</ele>
        <time>2018-10-09T09:17:33Z</time>
      </trkpt>
      <trkpt lat="37.19795" lon="-8.73173">
        <ele>74.158813476562</ele>
        <time>2018-10-09T09:17:53Z</time>
      </trkpt>
      <trkpt lat="37.19777" lon="-8.73126">
        <ele>73.197631835938</ele>
        <time>2018-10-09T09:18:01Z</time>
      </trkpt>
      <trkpt lat="37.19762" lon="-8.7311">
        <ele>73.197631835938</ele>
        <time>2018-10-09T09:18:06Z</time>
      </trkpt>
      <trkpt lat="37.19698" lon="-8.73055">
        <ele>70.3134765625</ele>
        <time>2018-10-09T09:18:22Z</time>
      </trkpt>
      <trkpt lat="37.19634" lon="-8.72966">
        <ele>67.910278320312</ele>
        <time>2018-10-09T09:18:42Z</time>
      </trkpt>
      <trkpt lat="37.196" lon="-8.72926">
        <ele>66.948974609375</ele>
        <time>2018-10-09T09:18:53Z</time>
      </trkpt>
      <trkpt lat="37.19579" lon="-8.72903">
        <ele>66.46826171875</ele>
        <time>2018-10-09T09:19:00Z</time>
      </trkpt>
      <trkpt lat="37.19553" lon="-8.72888">
        <ele>66.948974609375</ele>
        <time>2018-10-09T09:19:07Z</time>
      </trkpt>
      <trkpt lat="37.19516" lon="-8.72849">
        <ele>66.948974609375</ele>
        <time>2018-10-09T09:19:22Z</time>
      </trkpt>
      <trkpt lat="37.19508" lon="-8.72844">
        <ele>66.46826171875</ele>
        <time>2018-10-09T09:19:24Z</time>
      </trkpt>
      <trkpt lat="37.19447" lon="-8.72833">
        <ele>65.0263671875</ele>
        <time>2018-10-09T09:19:37Z</time>
      </trkpt>
      <trkpt lat="37.19368" lon="-8.7284">
        <ele>65.987670898438</ele>
        <time>2018-10-09T09:19:55Z</time>
      </trkpt>
      <trkpt lat="37.19298" lon="-8.72828">
        <ele>65.987670898438</ele>
        <time>2018-10-09T09:20:13Z</time>
      </trkpt>
      <trkpt lat="37.19217" lon="-8.72805">
        <ele>64.545654296875</ele>
        <time>2018-10-09T09:20:31Z</time>
      </trkpt>
      <trkpt lat="37.19127" lon="-8.72787">
        <ele>64.545654296875</ele>
        <time>2018-10-09T09:20:51Z</time>
      </trkpt>
      <trkpt lat="37.19106" lon="-8.72777">
        <ele>64.065063476562</ele>
        <time>2018-10-09T09:20:56Z</time>
      </trkpt>
      <trkpt lat="37.19087" lon="-8.72752">
        <ele>65.0263671875</ele>
        <time>2018-10-09T09:21:03Z</time>
      </trkpt>
      <trkpt lat="37.19058" lon="-8.72698">
        <ele>60.700317382812</ele>
        <time>2018-10-09T09:21:12Z</time>
      </trkpt>
      <trkpt lat="37.1904" lon="-8.72676">
        <ele>60.700317382812</ele>
        <time>2018-10-09T09:21:16Z</time>
      </trkpt>
      <trkpt lat="37.18984" lon="-8.72642">
        <ele>60.700317382812</ele>
        <time>2018-10-09T09:21:29Z</time>
      </trkpt>
      <trkpt lat="37.18962" lon="-8.72632">
        <ele>59.739135742188</ele>
        <time>2018-10-09T09:21:35Z</time>
      </trkpt>
      <trkpt lat="37.18916" lon="-8.72646">
        <ele>58.297119140625</ele>
        <time>2018-10-09T09:21:46Z</time>
      </trkpt>
      <trkpt lat="37.18905" lon="-8.72664">
        <ele>57.335815429688</ele>
        <time>2018-10-09T09:21:50Z</time>
      </trkpt>
      <trkpt lat="37.18889" lon="-8.72703">
        <ele>57.816528320312</ele>
        <time>2018-10-09T09:21:57Z</time>
      </trkpt>
      <trkpt lat="37.1886" lon="-8.72718">
        <ele>55.893798828125</ele>
        <time>2018-10-09T09:22:05Z</time>
      </trkpt>
      <trkpt lat="37.18796" lon="-8.72684">
        <ele>54.932373046875</ele>
        <time>2018-10-09T09:22:18Z</time>
      </trkpt>
      <trkpt lat="37.18721" lon="-8.72677">
        <ele>54.451782226562</ele>
        <time>2018-10-09T09:22:34Z</time>
      </trkpt>
      <trkpt lat="37.18641" lon="-8.72704">
        <ele>53.009765625</ele>
        <time>2018-10-09T09:22:53Z</time>
      </trkpt>
      <trkpt lat="37.18577" lon="-8.72737">
        <ele>52.048583984375</ele>
        <time>2018-10-09T09:23:10Z</time>
      </trkpt>
      <trkpt lat="37.18493" lon="-8.72748">
        <ele>51.087158203125</ele>
        <time>2018-10-09T09:23:30Z</time>
      </trkpt>
      <trkpt lat="37.18459" lon="-8.72767">
        <ele>49.645263671875</ele>
        <time>2018-10-09T09:23:39Z</time>
      </trkpt>
      <trkpt lat="37.18422" lon="-8.72819">
        <ele>49.645263671875</ele>
        <time>2018-10-09T09:23:52Z</time>
      </trkpt>
      <trkpt lat="37.18377" lon="-8.72831">
        <ele>49.16455078125</ele>
        <time>2018-10-09T09:24:04Z</time>
      </trkpt>
      <trkpt lat="37.18308" lon="-8.72851">
        <ele>50.1259765625</ele>
        <time>2018-10-09T09:24:22Z</time>
      </trkpt>
      <trkpt lat="37.18291" lon="-8.72849">
        <ele>50.1259765625</ele>
        <time>2018-10-09T09:24:26Z</time>
      </trkpt>
      <trkpt lat="37.18225" lon="-8.72795">
        <ele>49.16455078125</ele>
        <time>2018-10-09T09:24:44Z</time>
      </trkpt>
      <trkpt lat="37.18204" lon="-8.72765">
        <ele>48.203369140625</ele>
        <time>2018-10-09T09:24:51Z</time>
      </trkpt>
      <trkpt lat="37.18189" lon="-8.72748">
        <ele>48.683959960938</ele>
        <time>2018-10-09T09:24:56Z</time>
      </trkpt>
      <trkpt lat="37.18163" lon="-8.72741">
        <ele>48.203369140625</ele>
        <time>2018-10-09T09:25:02Z</time>
      </trkpt>
      <trkpt lat="37.18066" lon="-8.72713">
        <ele>46.280639648438</ele>
        <time>2018-10-09T09:25:24Z</time>
      </trkpt>
      <trkpt lat="37.18" lon="-8.72663">
        <ele>46.76123046875</ele>
        <time>2018-10-09T09:25:43Z</time>
      </trkpt>
      <trkpt lat="37.17993" lon="-8.72657">
        <ele>46.76123046875</ele>
        <time>2018-10-09T09:25:45Z</time>
      </trkpt>
      <trkpt lat="37.17926" lon="-8.72627">
        <ele>45.319213867188</ele>
        <time>2018-10-09T09:26:03Z</time>
      </trkpt>
      <trkpt lat="37.17894" lon="-8.72616">
        <ele>44.838623046875</ele>
        <time>2018-10-09T09:26:11Z</time>
      </trkpt>
      <trkpt lat="37.17887" lon="-8.72614">
        <ele>44.838623046875</ele>
        <time>2018-10-09T09:26:13Z</time>
      </trkpt>
      <trkpt lat="37.17869" lon="-8.72601">
        <ele>44.358032226562</ele>
        <time>2018-10-09T09:26:18Z</time>
      </trkpt>
      <trkpt lat="37.17831" lon="-8.72556">
        <ele>43.877319335938</ele>
        <time>2018-10-09T09:26:30Z</time>
      </trkpt>
      <trkpt lat="37.17759" lon="-8.72471">
        <ele>41.954711914062</ele>
        <time>2018-10-09T09:26:52Z</time>
      </trkpt>
      <trkpt lat="37.17752" lon="-8.72469">
        <ele>41.954711914062</ele>
        <time>2018-10-09T09:26:54Z</time>
      </trkpt>
      <trkpt lat="37.17718" lon="-8.72471">
        <ele>42.435424804688</ele>
        <time>2018-10-09T09:27:04Z</time>
      </trkpt>
      <trkpt lat="37.17668" lon="-8.72452">
        <ele>42.916015625</ele>
        <time>2018-10-09T09:27:19Z</time>
      </trkpt>
      <trkpt lat="37.17613" lon="-8.72395">
        <ele>41.473999023438</ele>
        <time>2018-10-09T09:27:36Z</time>
      </trkpt>
      <trkpt lat="37.17595" lon="-8.72382">
        <ele>41.954711914062</ele>
        <time>2018-10-09T09:27:41Z</time>
      </trkpt>
      <trkpt lat="37.17527" lon="-8.72338">
        <ele>41.473999023438</ele>
        <time>2018-10-09T09:27:59Z</time>
      </trkpt>
      <trkpt lat="37.17519" lon="-8.72333">
        <ele>41.473999023438</ele>
        <time>2018-10-09T09:28:01Z</time>
      </trkpt>
      <trkpt lat="37.17504" lon="-8.72301">
        <ele>40.993408203125</ele>
        <time>2018-10-09T09:28:08Z</time>
      </trkpt>
      <trkpt lat="37.17501" lon="-8.72281">
        <ele>40.512817382812</ele>
        <time>2018-10-09T09:28:12Z</time>
      </trkpt>
      <trkpt lat="37.17471" lon="-8.72192">
        <ele>41.473999023438</ele>
        <time>2018-10-09T09:28:31Z</time>
      </trkpt>
      <trkpt lat="37.17412" lon="-8.7212">
        <ele>40.032104492188</ele>
        <time>2018-10-09T09:28:50Z</time>
      </trkpt>
      <trkpt lat="37.17373" lon="-8.72087">
        <ele>40.993408203125</ele>
        <time>2018-10-09T09:29:01Z</time>
      </trkpt>
      <trkpt lat="37.17315" lon="-8.72031">
        <ele>40.993408203125</ele>
        <time>2018-10-09T09:29:18Z</time>
      </trkpt>
      <trkpt lat="37.17257" lon="-8.71964">
        <ele>40.993408203125</ele>
        <time>2018-10-09T09:29:37Z</time>
      </trkpt>
      <trkpt lat="37.17201" lon="-8.71919">
        <ele>40.512817382812</ele>
        <time>2018-10-09T09:29:52Z</time>
      </trkpt>
      <trkpt lat="37.17127" lon="-8.71861">
        <ele>39.55126953125</ele>
        <time>2018-10-09T09:30:11Z</time>
      </trkpt>
      <trkpt lat="37.17074" lon="-8.71825">
        <ele>38.590087890625</ele>
        <time>2018-10-09T09:30:24Z</time>
      </trkpt>
      <trkpt lat="37.17057" lon="-8.71791">
        <ele>38.590087890625</ele>
        <time>2018-10-09T09:30:31Z</time>
      </trkpt>
      <trkpt lat="37.17047" lon="-8.71755">
        <ele>37.628662109375</ele>
        <time>2018-10-09T09:30:37Z</time>
      </trkpt>
      <trkpt lat="37.1703" lon="-8.71727">
        <ele>37.628662109375</ele>
        <time>2018-10-09T09:30:43Z</time>
      </trkpt>
      <trkpt lat="37.17026" lon="-8.71694">
        <ele>38.109375</ele>
        <time>2018-10-09T09:30:49Z</time>
      </trkpt>
      <trkpt lat="37.17007" lon="-8.71645">
        <ele>34.744873046875</ele>
        <time>2018-10-09T09:30:57Z</time>
      </trkpt>
      <trkpt lat="37.17002" lon="-8.71641">
        <ele>35.7060546875</ele>
        <time>2018-10-09T09:30:58Z</time>
      </trkpt>
      <trkpt lat="37.16939" lon="-8.71576">
        <ele>34.744873046875</ele>
        <time>2018-10-09T09:31:16Z</time>
      </trkpt>
      <trkpt lat="37.16905" lon="-8.71521">
        <ele>34.26416015625</ele>
        <time>2018-10-09T09:31:29Z</time>
      </trkpt>
      <trkpt lat="37.1686" lon="-8.71486">
        <ele>35.225463867188</ele>
        <time>2018-10-09T09:31:43Z</time>
      </trkpt>
      <trkpt lat="37.16778" lon="-8.71417">
        <ele>34.26416015625</ele>
        <time>2018-10-09T09:32:05Z</time>
      </trkpt>
      <trkpt lat="37.16688" lon="-8.71372">
        <ele>33.783447265625</ele>
        <time>2018-10-09T09:32:26Z</time>
      </trkpt>
      <trkpt lat="37.16637" lon="-8.71352">
        <ele>33.783447265625</ele>
        <time>2018-10-09T09:32:38Z</time>
      </trkpt>
      <trkpt lat="37.16562" lon="-8.71347">
        <ele>33.302856445312</ele>
        <time>2018-10-09T09:32:55Z</time>
      </trkpt>
      <trkpt lat="37.16478" lon="-8.71355">
        <ele>32.341552734375</ele>
        <time>2018-10-09T09:33:13Z</time>
      </trkpt>
      <trkpt lat="37.16401" lon="-8.71377">
        <ele>31.860717773438</ele>
        <time>2018-10-09T09:33:30Z</time>
      </trkpt>
      <trkpt lat="37.1637" lon="-8.71387">
        <ele>31.380126953125</ele>
        <time>2018-10-09T09:33:44Z</time>
      </trkpt>
      <trkpt lat="37.16326" lon="-8.71404">
        <ele>31.380126953125</ele>
        <time>2018-10-09T09:33:58Z</time>
      </trkpt>
      <trkpt lat="37.16253" lon="-8.71417">
        <ele>29.938110351562</ele>
        <time>2018-10-09T09:34:16Z</time>
      </trkpt>
      <trkpt lat="37.16241" lon="-8.71421">
        <ele>30.418823242188</ele>
        <time>2018-10-09T09:34:19Z</time>
      </trkpt>
      <trkpt lat="37.16168" lon="-8.71419">
        <ele>29.938110351562</ele>
        <time>2018-10-09T09:34:37Z</time>
      </trkpt>
      <trkpt lat="37.16102" lon="-8.71404">
        <ele>30.899536132812</ele>
        <time>2018-10-09T09:34:54Z</time>
      </trkpt>
      <trkpt lat="37.16085" lon="-8.71396">
        <ele>29.938110351562</ele>
        <time>2018-10-09T09:34:58Z</time>
      </trkpt>
      <trkpt lat="37.16061" lon="-8.71399">
        <ele>29.45751953125</ele>
        <time>2018-10-09T09:35:04Z</time>
      </trkpt>
      <trkpt lat="37.16047" lon="-8.71406">
        <ele>28.976928710938</ele>
        <time>2018-10-09T09:35:08Z</time>
      </trkpt>
      <trkpt lat="37.16021" lon="-8.71425">
        <ele>28.015502929688</ele>
        <time>2018-10-09T09:35:19Z</time>
      </trkpt>
      <trkpt lat="37.16022" lon="-8.71415">
        <ele>27.534912109375</ele>
        <time>2018-10-09T09:35:25Z</time>
      </trkpt>
    </trkseg>
  </trk>
</gpx>